Darstellungsparameter: Aktuell verwendete Einstellungen:
Skalierung der Graphiken ... ?
xyx+y,   Skalierungsfaktor:      Skalierung: Modus: x, Faktor: 1
Darstellungszeitraum ... ?
Vom - - bis: - -   Zeitraum: 16.01.2009 - 15.04.2009
Min/Max/Avg-Anzeige ... ?
Zeige MMA aktuell
Zeige MMA Monat
Zeige MMA alles
Zeige --A aktuell
Zeige --A Monat
Zeige --A alles
Keine MMA-Anzeige
MMA:
Average (ber die Originaldaten)
MMA-Basis: 16.01.2009 - 15.04.2009
Quicknavigation für Darstellung... ?
Tage:      1T, 2T, 3T, 5T -1T -2T -3T -5T +1T +2T +3T +5T
Wochen: 1W, 2W, 3W -1W -2W -3W +1W +2W +3W
Monate: 1M, 3M, 6M -1M -3M -6M +1M +3M +6M
Jahre:    1J, 3J, 5J, 10J -1J -3J -5J -10J +1J +3J +5J +10J
Nutze für die Darstellung ... ?
Originaldaten oder Mittelwerte auf ...
Stundenbasis Tagesbasis Wochenbasis
Monatsbasis Jahresbasis      Datenbasis: Original-Daten
Darstellen als:
Statistik (Auto) Statistik J:M      Darstellung:
Zur Graphik,    zurück zur Übersicht aller Sensoren.
 
Tabellarische Datenbersicht: ?
 
Sensor: Nr:Datum:Temp:Abs-Feuchte:Windchill:Wind:
Aussen-T/F 1 16-01-2009 00:09:02 -1.3 C 3.94 g/m*3 -1.3 C 0 km/h
2 16-01-2009 00:21:02 -1.2 C 3.97 g/m*3 -1.2 C 0 km/h
3 16-01-2009 00:33:02 -1.1 C 3.95 g/m*3 -1.1 C 0 km/h
4 16-01-2009 00:45:03 -0.9 C 4.01 g/m*3 -0.9 C 0 km/h
5 16-01-2009 00:57:03 -0.7 C 4.06 g/m*3 -0.7 C 0 km/h
6 16-01-2009 01:09:03 -0.6 C 4.04 g/m*3 -0.6 C 0 km/h
7 16-01-2009 01:21:03 -0.5 C 4.07 g/m*3 -0.5 C 0 km/h
8 16-01-2009 01:33:03 -0.4 C 4.1 g/m*3 -0.4 C 0 km/h
9 16-01-2009 01:45:03 -0.3 C 4.13 g/m*3 -0.3 C 0 km/h
10 16-01-2009 01:57:03 -0.3 C 4.13 g/m*3 -0.3 C 0 km/h
11 16-01-2009 02:09:03 -0.2 C 4.11 g/m*3 -0.2 C 0 km/h
12 16-01-2009 02:21:03 -0.2 C 4.11 g/m*3 -0.2 C 0 km/h
13 16-01-2009 02:33:03 0 C 4.17 g/m*3 0 C 0 km/h
14 16-01-2009 02:45:03 0 C 4.12 g/m*3 0 C 0 km/h
15 16-01-2009 02:57:03 0 C 4.12 g/m*3 0 C 0 km/h
16 16-01-2009 03:09:03 0 C 4.12 g/m*3 0 C 0 km/h
17 16-01-2009 03:21:03 0 C 4.07 g/m*3 0 C 0 km/h
18 16-01-2009 03:33:03 0.1 C 4.15 g/m*3 0.1 C 0 km/h
19 16-01-2009 03:45:03 0.1 C 4.1 g/m*3 0.1 C 0 km/h
20 16-01-2009 03:57:03 0.1 C 4.1 g/m*3 0.1 C 0 km/h
21 16-01-2009 04:09:03 0.2 C 4.13 g/m*3 0.2 C 0 km/h
22 16-01-2009 04:21:03 0.3 C 4.16 g/m*3 0.3 C 0 km/h
23 16-01-2009 04:33:04 0.3 C 4.06 g/m*3 0.3 C 0 km/h
24 16-01-2009 04:45:04 0.3 C 4.01 g/m*3 0.3 C 0 km/h
25 16-01-2009 04:57:04 0.3 C 3.91 g/m*3 0.3 C 0 km/h
Sensor: Nr:Datum:Temp:Abs-Feuchte:Windchill:Wind:
Aussen-T/F 26 16-01-2009 05:09:04 0.3 C 3.91 g/m*3 0.3 C 0 km/h
27 16-01-2009 05:21:04 0.3 C 3.91 g/m*3 0.3 C 0 km/h
28 16-01-2009 05:33:04 0.3 C 3.91 g/m*3 0.3 C 0 km/h
29 16-01-2009 05:45:04 0.3 C 3.91 g/m*3 0.3 C 0 km/h
30 16-01-2009 05:57:04 0.3 C 3.91 g/m*3 0.3 C 0 km/h
31 16-01-2009 06:09:04 0.3 C 3.96 g/m*3 0.3 C 0 km/h
32 16-01-2009 06:21:04 0.3 C 3.96 g/m*3 0.3 C 0 km/h
33 16-01-2009 06:33:04 0.3 C 3.91 g/m*3 0.3 C 0 km/h
34 16-01-2009 06:45:04 0.4 C 3.93 g/m*3 0.4 C 0 km/h
35 16-01-2009 06:57:04 0.4 C 3.93 g/m*3 0.4 C 0 km/h
36 16-01-2009 07:09:01 0.4 C 3.98 g/m*3 0.4 C 0 km/h
37 16-01-2009 07:21:01 0.4 C 3.98 g/m*3 0.4 C 0 km/h
38 16-01-2009 07:33:02 0.5 C 3.96 g/m*3 0.5 C 0 km/h
39 16-01-2009 07:45:01 0.5 C 3.96 g/m*3 0.5 C 0 km/h
40 16-01-2009 07:57:01 0.5 C 3.91 g/m*3 0.5 C 0 km/h
41 16-01-2009 08:09:01 0.5 C 3.91 g/m*3 0.5 C 0 km/h
42 16-01-2009 08:21:01 0.5 C 3.91 g/m*3 0.5 C 0 km/h
43 16-01-2009 08:33:01 0.5 C 3.86 g/m*3 0.5 C 0 km/h
44 16-01-2009 08:45:00 0.5 C 3.86 g/m*3 0.5 C 0 km/h
45 16-01-2009 08:57:00 0.6 C 3.89 g/m*3 0.6 C 0 km/h
46 16-01-2009 09:09:01 0.7 C 3.86 g/m*3 0.7 C 0 km/h
47 16-01-2009 09:21:00 0.8 C 3.84 g/m*3 0.8 C 0 km/h
48 16-01-2009 09:33:00 1 C 3.84 g/m*3 1 C 0 km/h
49 16-01-2009 09:45:00 0.9 C 3.76 g/m*3 0.9 C 0 km/h
50 16-01-2009 09:57:00 1 C 3.74 g/m*3 1 C 0 km/h
Sensor: Nr:Datum:Temp:Abs-Feuchte:Windchill:Wind:
Aussen-T/F 51 16-01-2009 10:09:00 1.1 C 3.76 g/m*3 1.1 C 0 km/h
52 16-01-2009 10:21:00 1.3 C 3.76 g/m*3 1.3 C 0 km/h
53 16-01-2009 10:33:59 1.4 C 3.73 g/m*3 1.4 C 0 km/h
54 16-01-2009 10:45:00 1.5 C 3.76 g/m*3 1.5 C 0 km/h
55 16-01-2009 10:57:00 1.8 C 3.73 g/m*3 1.8 C 0 km/h
56 16-01-2009 11:09:59 2.2 C 3.66 g/m*3 2.2 C 0 km/h
57 16-01-2009 11:21:59 2.4 C 3.65 g/m*3 2.4 C 0 km/h
58 16-01-2009 11:33:00 2.2 C 3.6 g/m*3 2.2 C 0 km/h
59 16-01-2009 11:45:59 2.3 C 3.63 g/m*3 2.3 C 0 km/h
60 16-01-2009 11:57:59 2.4 C 3.65 g/m*3 2.4 C 0 km/h
61 16-01-2009 12:09:59 2.2 C 3.6 g/m*3 2.2 C 0 km/h
62 16-01-2009 12:21:59 2.3 C 3.63 g/m*3 2.3 C 0 km/h
63 16-01-2009 12:33:59 2.2 C 3.6 g/m*3 2.2 C 0 km/h
64 16-01-2009 12:45:58 2.2 C 3.6 g/m*3 2.2 C 0 km/h
65 16-01-2009 12:57:58 2.1 C 3.64 g/m*3 2.1 C 0 km/h
66 16-01-2009 13:09:59 2.3 C 3.69 g/m*3 2.3 C 0 km/h
67 16-01-2009 13:21:58 2.3 C 3.69 g/m*3 2.3 C 0 km/h
68 16-01-2009 13:33:58 2.3 C 3.69 g/m*3 2.3 C 0 km/h
69 16-01-2009 13:45:57 2.7 C 3.79 g/m*3 2.7 C 0 km/h
70 16-01-2009 13:57:57 2.8 C 3.7 g/m*3 2.8 C 0 km/h
71 16-01-2009 14:09:58 2.6 C 3.65 g/m*3 2.6 C 0 km/h
72 16-01-2009 14:21:58 2.8 C 3.75 g/m*3 2.8 C 0 km/h
73 16-01-2009 14:33:57 3.1 C 3.71 g/m*3 3.1 C 0 km/h
74 16-01-2009 14:45:58 2.9 C 3.72 g/m*3 2.9 C 0 km/h
75 16-01-2009 14:57:58 2.7 C 3.67 g/m*3 2.7 C 0 km/h
Sensor: Nr:Datum:Temp:Abs-Feuchte:Windchill:Wind:
Aussen-T/F 76 16-01-2009 15:09:57 2.6 C 3.7 g/m*3 2.6 C 0 km/h
77 16-01-2009 15:21:57 2.5 C 3.74 g/m*3 2.5 C 0 km/h
78 16-01-2009 15:33:57 2.5 C 3.74 g/m*3 2.5 C 0 km/h
79 16-01-2009 15:45:57 2.5 C 3.74 g/m*3 2.5 C 0 km/h
80 16-01-2009 15:57:57 2.3 C 3.74 g/m*3 2.3 C 0 km/h
81 16-01-2009 16:09:56 2 C 3.67 g/m*3 2 C 0 km/h
82 16-01-2009 16:21:56 1.7 C 3.7 g/m*3 1.7 C 0 km/h
83 16-01-2009 16:33:57 1.4 C 3.68 g/m*3 1.4 C 0 km/h
84 16-01-2009 16:45:56 1.2 C 3.68 g/m*3 1.2 C 0 km/h
85 16-01-2009 16:57:56 1 C 3.74 g/m*3 1 C 0 km/h
86 16-01-2009 17:09:56 0.9 C 3.76 g/m*3 0.9 C 0 km/h
87 16-01-2009 17:21:56 0.6 C 3.74 g/m*3 0.6 C 0 km/h
88 16-01-2009 17:33:55 0.3 C 3.71 g/m*3 0.3 C 0 km/h
89 16-01-2009 17:45:56 0.1 C 3.71 g/m*3 0.1 C 0 km/h
90 16-01-2009 17:57:56 -0.2 C 3.73 g/m*3 -0.2 C 0 km/h
91 16-01-2009 18:09:55 -0.3 C 3.75 g/m*3 -0.3 C 0 km/h
92 16-01-2009 18:21:55 -0.5 C 3.74 g/m*3 -0.5 C 0 km/h
93 16-01-2009 18:33:55 -0.6 C 3.72 g/m*3 -0.6 C 0 km/h
94 16-01-2009 18:45:55 -0.6 C 3.76 g/m*3 -0.6 C 0 km/h
95 16-01-2009 18:57:55 -0.6 C 3.81 g/m*3 -0.6 C 0 km/h
96 16-01-2009 19:09:55 -0.7 C 3.78 g/m*3 -0.7 C 0 km/h
97 16-01-2009 19:21:55 -0.7 C 3.78 g/m*3 -0.7 C 0 km/h
98 16-01-2009 19:33:54 -0.7 C 3.83 g/m*3 -0.7 C 0 km/h
99 16-01-2009 19:45:55 -0.8 C 3.8 g/m*3 -0.8 C 0 km/h
100 16-01-2009 19:57:55 -0.7 C 3.83 g/m*3 -0.7 C 0 km/h
Sensor: Nr:Datum:Temp:Abs-Feuchte:Windchill:Wind:
Aussen-T/F 101 16-01-2009 20:09:54 -0.7 C 3.88 g/m*3 -0.7 C 0 km/h
102 16-01-2009 20:21:54 -0.5 C 3.93 g/m*3 -0.5 C 0 km/h
103 16-01-2009 20:33:54 -0.4 C 3.96 g/m*3 -0.4 C 0 km/h
104 16-01-2009 20:45:54 -0.2 C 4.01 g/m*3 -0.2 C 0 km/h
105 16-01-2009 20:57:54 0 C 4.07 g/m*3 0 C 0 km/h
106 16-01-2009 21:09:53 0.1 C 4.1 g/m*3 0.1 C 0 km/h
107 16-01-2009 21:21:53 0.2 C 4.13 g/m*3 0.2 C 0 km/h
108 16-01-2009 21:33:54 0.2 C 4.08 g/m*3 0.2 C 0 km/h
109 16-01-2009 21:45:53 0.3 C 4.11 g/m*3 0.3 C 0 km/h
110 16-01-2009 21:57:53 0.3 C 4.06 g/m*3 0.3 C 0 km/h
111 16-01-2009 22:09:53 0.5 C 4.11 g/m*3 0.5 C 0 km/h
112 16-01-2009 22:22:54 0.6 C 4.14 g/m*3 0.6 C 0 km/h
113 16-01-2009 22:34:54 0.6 C 4.14 g/m*3 0.6 C 0 km/h
114 16-01-2009 22:46:54 0.6 C 4.09 g/m*3 0.6 C 0 km/h
115 16-01-2009 22:58:54 0.7 C 4.07 g/m*3 0.7 C 0 km/h
116 16-01-2009 23:10:54 0.7 C 4.07 g/m*3 0.7 C 0 km/h
117 16-01-2009 23:22:54 0.7 C 4.07 g/m*3 0.7 C 0 km/h
118 16-01-2009 23:34:54 0.8 C 4.1 g/m*3 0.8 C 0 km/h
119 16-01-2009 23:46:54 0.7 C 4.02 g/m*3 0.7 C 0 km/h
120 16-01-2009 23:58:54 0.8 C 4.04 g/m*3 0.8 C 0 km/h
121 17-01-2009 00:10:54 0.8 C 4.04 g/m*3 0.8 C 0 km/h
122 17-01-2009 00:22:55 0.7 C 4.02 g/m*3 0.7 C 0 km/h
123 17-01-2009 00:34:55 0.8 C 4.04 g/m*3 0.8 C 0 km/h
124 17-01-2009 00:46:55 0.8 C 4.1 g/m*3 0.8 C 0 km/h
125 17-01-2009 00:58:55 0.8 C 4.1 g/m*3 0.8 C 0 km/h
Sensor: Nr:Datum:Temp:Abs-Feuchte:Windchill:Wind:
Aussen-T/F 126 17-01-2009 01:10:55 0.8 C 4.1 g/m*3 0.8 C 0 km/h
127 17-01-2009 01:22:55 0.9 C 4.12 g/m*3 0.9 C 0 km/h
128 17-01-2009 01:34:55 0.9 C 4.12 g/m*3 0.9 C 0 km/h
129 17-01-2009 01:46:55 0.7 C 4.07 g/m*3 0.7 C 0 km/h
130 17-01-2009 01:58:55 0.6 C 4.04 g/m*3 0.6 C 0 km/h
131 17-01-2009 02:10:55 0.6 C 4.09 g/m*3 0.6 C 0 km/h
132 17-01-2009 02:22:55 0.5 C 4.11 g/m*3 0.5 C 0 km/h
133 17-01-2009 02:34:55 0.6 C 4.19 g/m*3 0.6 C 0 km/h
134 17-01-2009 02:46:55 0.6 C 4.19 g/m*3 0.6 C 0 km/h
135 17-01-2009 02:58:55 0.6 C 4.24 g/m*3 0.6 C 0 km/h
136 17-01-2009 03:10:55 0.7 C 4.27 g/m*3 0.7 C 0 km/h
137 17-01-2009 03:22:55 0.7 C 4.32 g/m*3 0.7 C 0 km/h
138 17-01-2009 03:34:55 0.6 C 4.29 g/m*3 0.6 C 0 km/h
139 17-01-2009 03:46:55 0.6 C 4.34 g/m*3 0.6 C 0 km/h
140 17-01-2009 03:58:55 0.6 C 4.39 g/m*3 0.6 C 0 km/h
141 17-01-2009 04:10:56 0.7 C 4.42 g/m*3 0.7 C 0 km/h
142 17-01-2009 04:22:56 0.7 C 4.42 g/m*3 0.7 C 0 km/h
143 17-01-2009 04:34:56 0.8 C 4.51 g/m*3 0.8 C 0 km/h
144 17-01-2009 04:46:56 0.8 C 4.51 g/m*3 0.8 C 0 km/h
145 17-01-2009 04:58:56 0.8 C 4.51 g/m*3 0.8 C 0 km/h
146 17-01-2009 05:10:56 0.8 C 4.51 g/m*3 0.8 C 0 km/h
147 17-01-2009 05:22:56 0.8 C 4.51 g/m*3 0.8 C 0 km/h
148 17-01-2009 05:34:56 0.9 C 4.54 g/m*3 0.9 C 0 km/h
149 17-01-2009 05:46:56 0.9 C 4.59 g/m*3 0.9 C 0 km/h
150 17-01-2009 05:58:56 0.9 C 4.59 g/m*3 0.9 C 0 km/h
Sensor: Nr:Datum:Temp:Abs-Feuchte:Windchill:Wind:
Aussen-T/F 151 17-01-2009 06:10:56 1 C 4.62 g/m*3 1 C 0 km/h
152 17-01-2009 06:22:56 1 C 4.62 g/m*3 1 C 0 km/h
153 17-01-2009 06:34:56 1.1 C 4.65 g/m*3 1.1 C 0 km/h
154 17-01-2009 06:46:56 1.2 C 4.68 g/m*3 1.2 C 0 km/h
155 17-01-2009 06:58:56 1.2 C 4.68 g/m*3 1.2 C 0 km/h
156 17-01-2009 07:10:56 1.2 C 4.68 g/m*3 1.2 C 0 km/h
157 17-01-2009 07:22:56 1.2 C 4.74 g/m*3 1.2 C 0 km/h
158 17-01-2009 07:34:56 1.3 C 4.77 g/m*3 1.3 C 0 km/h
159 17-01-2009 07:46:56 1.3 C 4.77 g/m*3 1.3 C 0 km/h
160 17-01-2009 07:58:57 1.2 C 4.74 g/m*3 1.2 C 0 km/h
161 17-01-2009 08:10:57 1.2 C 4.74 g/m*3 1.2 C 0 km/h
162 17-01-2009 08:22:57 1.2 C 4.74 g/m*3 1.2 C 0 km/h
163 17-01-2009 08:34:55 1.3 C 4.77 g/m*3 1.3 C 0 km/h
164 17-01-2009 08:46:55 1.4 C 4.8 g/m*3 1.4 C 0 km/h
165 17-01-2009 08:58:55 1.4 C 4.8 g/m*3 1.4 C 0 km/h
166 17-01-2009 09:10:54 1.6 C 4.87 g/m*3 1.6 C 0 km/h
167 17-01-2009 09:22:54 1.7 C 4.85 g/m*3 1.7 C 0 km/h
168 17-01-2009 09:34:54 1.8 C 4.88 g/m*3 1.8 C 0 km/h
169 17-01-2009 09:46:54 1.9 C 4.91 g/m*3 1.9 C 0 km/h
170 17-01-2009 09:58:54 2 C 4.89 g/m*3 2 C 0 km/h
171 17-01-2009 10:10:54 2.1 C 4.87 g/m*3 2.1 C 0 km/h
172 17-01-2009 10:22:53 2.1 C 4.87 g/m*3 2.1 C 0 km/h
173 17-01-2009 10:34:54 2.2 C 4.9 g/m*3 2.2 C 0 km/h
174 17-01-2009 10:46:53 2.3 C 4.93 g/m*3 2.3 C 0 km/h
175 17-01-2009 10:58:53 2.5 C 5 g/m*3 2.5 C 0 km/h
Sensor: Nr:Datum:Temp:Abs-Feuchte:Windchill:Wind:
Aussen-T/F 176 17-01-2009 11:10:53 2.7 C 5.01 g/m*3 2.7 C 0 km/h
177 17-01-2009 11:22:53 2.9 C 5.08 g/m*3 2.9 C 0 km/h
178 17-01-2009 11:34:53 3.1 C 5.09 g/m*3 3.1 C 0 km/h
179 17-01-2009 11:46:52 3 C 4.99 g/m*3 3 C 0 km/h
180 17-01-2009 11:58:52 3 C 4.99 g/m*3 3 C 0 km/h
181 17-01-2009 12:10:53 3.1 C 5.03 g/m*3 3.1 C 0 km/h
182 17-01-2009 12:22:53 3 C 4.93 g/m*3 3 C 0 km/h
183 17-01-2009 12:34:52 3.2 C 4.94 g/m*3 3.2 C 0 km/h
184 17-01-2009 12:46:52 3.3 C 4.97 g/m*3 3.3 C 0 km/h
185 17-01-2009 12:58:52 3.5 C 4.98 g/m*3 3.5 C 0 km/h
186 17-01-2009 13:10:52 3.5 C 4.92 g/m*3 3.5 C 0 km/h
187 17-01-2009 13:22:52 3.8 C 5.08 g/m*3 3.8 C 0 km/h
188 17-01-2009 13:34:51 3.8 C 5.02 g/m*3 3.8 C 0 km/h
189 17-01-2009 13:46:52 3.9 C 5.05 g/m*3 3.9 C 0 km/h
190 17-01-2009 13:58:52 4.2 C 5.15 g/m*3 4.2 C 0 km/h
191 17-01-2009 14:10:51 4.2 C 5.09 g/m*3 4.2 C 0 km/h
192 17-01-2009 14:22:51 4.1 C 4.99 g/m*3 4.1 C 0 km/h
193 17-01-2009 14:34:51 4.1 C 5.06 g/m*3 4.1 C 0 km/h
194 17-01-2009 14:46:51 4.1 C 5.06 g/m*3 4.1 C 0 km/h
195 17-01-2009 14:58:51 3.9 C 5.12 g/m*3 3.9 C 0 km/h
196 17-01-2009 15:10:51 4.1 C 5.18 g/m*3 4.1 C 0 km/h
197 17-01-2009 15:22:50 4.2 C 5.28 g/m*3 4.2 C 0 km/h
198 17-01-2009 15:34:51 4.3 C 5.32 g/m*3 4.3 C 0 km/h
199 17-01-2009 15:46:50 4.4 C 5.42 g/m*3 4.4 C 0 km/h
200 17-01-2009 15:58:50 4.4 C 5.42 g/m*3 4.4 C 0 km/h
Sensor: Nr:Datum:Temp:Abs-Feuchte:Windchill:Wind:
Aussen-T/F 201 17-01-2009 16:10:51 4.4 C 5.35 g/m*3 4.4 C 0 km/h
202 17-01-2009 16:22:50 4.4 C 5.42 g/m*3 4.4 C 0 km/h
203 17-01-2009 16:34:50 4.6 C 5.49 g/m*3 4.6 C 0 km/h
204 17-01-2009 16:46:50 5.1 C 5.61 g/m*3 5.1 C 0 km/h
205 17-01-2009 16:58:50 5.2 C 5.51 g/m*3 5.2 C 0 km/h
206 17-01-2009 17:10:50 5.1 C 5.47 g/m*3 5.1 C 0 km/h
207 17-01-2009 17:22:49 5 C 5.5 g/m*3 5 C 0 km/h
208 17-01-2009 17:34:49 5 C 5.5 g/m*3 5 C 0 km/h
209 17-01-2009 17:46:49 5 C 5.5 g/m*3 5 C 0 km/h
210 17-01-2009 17:58:49 5 C 5.57 g/m*3 5 C 0 km/h
211 17-01-2009 18:10:49 5 C 5.5 g/m*3 5 C 0 km/h
212 17-01-2009 18:22:49 5 C 5.44 g/m*3 5 C 0 km/h
213 17-01-2009 18:34:49 5.1 C 5.47 g/m*3 5.1 C 0 km/h
214 17-01-2009 18:46:49 5.2 C 5.44 g/m*3 5.2 C 0 km/h
215 17-01-2009 18:58:49 5.1 C 5.34 g/m*3 5.1 C 0 km/h
216 17-01-2009 19:10:48 5.2 C 5.44 g/m*3 5.2 C 0 km/h
217 17-01-2009 19:22:49 5.2 C 5.37 g/m*3 5.2 C 0 km/h
218 17-01-2009 19:34:48 5.2 C 5.37 g/m*3 5.2 C 0 km/h
219 17-01-2009 19:46:48 5.1 C 5.27 g/m*3 5.1 C 0 km/h
220 17-01-2009 19:58:49 5.1 C 5.34 g/m*3 5.1 C 0 km/h
221 17-01-2009 20:10:48 5.5 C 5.41 g/m*3 5.5 C 0 km/h
222 17-01-2009 20:22:48 5.6 C 5.37 g/m*3 5.6 C 0 km/h
223 17-01-2009 20:34:48 5.7 C 5.34 g/m*3 5.7 C 0 km/h
224 17-01-2009 20:46:48 5.6 C 5.3 g/m*3 5.6 C 0 km/h
225 17-01-2009 20:58:48 5.4 C 5.23 g/m*3 5.4 C 0 km/h
Sensor: Nr:Datum:Temp:Abs-Feuchte:Windchill:Wind:
Aussen-T/F 226 17-01-2009 21:10:47 5.4 C 5.23 g/m*3 5.4 C 0 km/h
227 17-01-2009 21:22:48 5.3 C 5.27 g/m*3 5.3 C 0 km/h
228 17-01-2009 21:34:47 5 C 5.16 g/m*3 5 C 0 km/h
229 17-01-2009 21:46:47 5.3 C 5.27 g/m*3 5.3 C 0 km/h
230 17-01-2009 21:58:47 5.7 C 5.34 g/m*3 5.7 C 0 km/h
231 17-01-2009 22:10:47 5.6 C 5.16 g/m*3 5.6 C 0 km/h
232 17-01-2009 22:22:47 5.7 C 5.19 g/m*3 5.7 C 0 km/h
233 17-01-2009 22:34:46 5.6 C 5.16 g/m*3 5.6 C 0 km/h
234 17-01-2009 22:47:47 5.4 C 5.09 g/m*3 5.4 C 0 km/h
235 17-01-2009 22:59:47 5.2 C 5.1 g/m*3 5.2 C 0 km/h
236 17-01-2009 23:11:47 5 C 5.1 g/m*3 5 C 0 km/h
237 17-01-2009 23:23:47 4.8 C 5.16 g/m*3 4.8 C 0 km/h
238 17-01-2009 23:35:47 4.6 C 5.16 g/m*3 4.6 C 0 km/h
239 17-01-2009 23:47:47 4.4 C 5.09 g/m*3 4.4 C 0 km/h
240 17-01-2009 23:59:47 4.4 C 5.22 g/m*3 4.4 C 0 km/h
241 18-01-2009 00:11:47 4.1 C 5.12 g/m*3 4.1 C 0 km/h
242 18-01-2009 00:23:47 3.7 C 5.05 g/m*3 3.7 C 0 km/h
243 18-01-2009 00:35:47 3.9 C 5.18 g/m*3 3.9 C 0 km/h
244 18-01-2009 00:47:47 3.9 C 5.12 g/m*3 3.9 C 0 km/h
245 18-01-2009 00:59:47 4.2 C 5.09 g/m*3 4.2 C 0 km/h
246 18-01-2009 01:11:47 4.1 C 4.99 g/m*3 4.1 C 0 km/h
247 18-01-2009 01:23:47 3.9 C 5.05 g/m*3 3.9 C 0 km/h
248 18-01-2009 01:35:47 3.8 C 5.02 g/m*3 3.8 C 0 km/h
249 18-01-2009 01:47:47 3.8 C 5.02 g/m*3 3.8 C 0 km/h
250 18-01-2009 01:59:47 4 C 5.15 g/m*3 4 C 0 km/h
Sensor: Nr:Datum:Temp:Abs-Feuchte:Windchill:Wind:
Aussen-T/F 251 18-01-2009 02:11:47 4.3 C 5.25 g/m*3 4.3 C 0 km/h
252 18-01-2009 02:23:48 4.6 C 5.36 g/m*3 4.6 C 0 km/h
253 18-01-2009 02:35:48 4.6 C 5.29 g/m*3 4.6 C 0 km/h
254 18-01-2009 02:47:48 4.5 C 5.19 g/m*3 4.5 C 0 km/h
255 18-01-2009 02:59:48 4.3 C 5.12 g/m*3 4.3 C 0 km/h
256 18-01-2009 03:11:48 4.2 C 5.09 g/m*3 4.2 C 0 km/h
257 18-01-2009 03:23:48 4.1 C 5.06 g/m*3 4.1 C 0 km/h
258 18-01-2009 03:35:48 4.2 C 5.09 g/m*3 4.2 C 0 km/h
259 18-01-2009 03:47:48 4.3 C 5.19 g/m*3 4.3 C 0 km/h
260 18-01-2009 03:59:48 4.3 C 5.19 g/m*3 4.3 C 0 km/h
261 18-01-2009 04:11:48 4.4 C 5.22 g/m*3 4.4 C 0 km/h
262 18-01-2009 04:23:48 4.4 C 5.29 g/m*3 4.4 C 0 km/h
263 18-01-2009 04:35:48 4.6 C 5.36 g/m*3 4.6 C 0 km/h
264 18-01-2009 04:47:48 4.8 C 5.36 g/m*3 4.8 C 0 km/h
265 18-01-2009 04:59:48 4.6 C 5.23 g/m*3 4.6 C 0 km/h
266 18-01-2009 05:11:48 4.4 C 5.16 g/m*3 4.4 C 0 km/h
267 18-01-2009 05:23:48 4.5 C 5.26 g/m*3 4.5 C 0 km/h
268 18-01-2009 05:35:48 4.4 C 5.16 g/m*3 4.4 C 0 km/h
269 18-01-2009 05:47:48 4.3 C 5.12 g/m*3 4.3 C 0 km/h
270 18-01-2009 05:59:48 4.3 C 5.12 g/m*3 4.3 C 0 km/h
271 18-01-2009 06:11:49 4.5 C 5.19 g/m*3 4.5 C 0 km/h
272 18-01-2009 06:23:49 4.5 C 5.06 g/m*3 4.5 C 0 km/h
273 18-01-2009 06:35:49 4.5 C 5 g/m*3 4.5 C 0 km/h
274 18-01-2009 06:47:49 4.5 C 5 g/m*3 4.5 C 0 km/h
275 18-01-2009 06:59:49 4.4 C 4.9 g/m*3 4.4 C 0 km/h
Sensor: Nr:Datum:Temp:Abs-Feuchte:Windchill:Wind:
Aussen-T/F 276 18-01-2009 07:11:49 4.5 C 4.93 g/m*3 4.5 C 0 km/h
277 18-01-2009 07:23:49 4.5 C 4.86 g/m*3 4.5 C 0 km/h
278 18-01-2009 07:35:49 4.5 C 4.86 g/m*3 4.5 C 0 km/h
279 18-01-2009 07:47:49 4.7 C 4.93 g/m*3 4.7 C 0 km/h
280 18-01-2009 07:59:49 4.5 C 4.86 g/m*3 4.5 C 0 km/h
281 18-01-2009 08:11:49 4.5 C 5 g/m*3 4.5 C 0 km/h
282 18-01-2009 08:23:49 4.5 C 5 g/m*3 4.5 C 0 km/h
283 18-01-2009 08:35:49 4.5 C 5.13 g/m*3 4.5 C 0 km/h
284 18-01-2009 08:47:49 4.4 C 5.16 g/m*3 4.4 C 0 km/h
285 18-01-2009 08:59:49 4.5 C 5.32 g/m*3 4.5 C 0 km/h
286 18-01-2009 09:11:47 4.4 C 5.42 g/m*3 4.4 C 0 km/h
287 18-01-2009 09:23:47 4.3 C 5.51 g/m*3 4.3 C 0 km/h
288 18-01-2009 09:35:46 4.3 C 5.64 g/m*3 4.3 C 0 km/h
289 18-01-2009 09:47:47 4.1 C 5.57 g/m*3 4.1 C 0 km/h
290 18-01-2009 09:59:47 3.9 C 5.62 g/m*3 3.9 C 0 km/h
291 18-01-2009 10:11:46 3.5 C 5.47 g/m*3 3.5 C 0 km/h
292 18-01-2009 10:23:46 3.3 C 5.4 g/m*3 3.3 C 0 km/h
293 18-01-2009 10:35:46 3.4 C 5.44 g/m*3 3.4 C 0 km/h
294 18-01-2009 10:47:46 3.6 C 5.57 g/m*3 3.6 C 0 km/h
295 18-01-2009 10:59:46 3.9 C 5.68 g/m*3 3.9 C 0 km/h
296 18-01-2009 11:11:46 4 C 5.59 g/m*3 4 C 0 km/h
297 18-01-2009 11:23:46 4.2 C 5.54 g/m*3 4.2 C 0 km/h
298 18-01-2009 11:35:46 4.5 C 5.52 g/m*3 4.5 C 0 km/h
299 18-01-2009 11:47:45 4.5 C 5.39 g/m*3 4.5 C 0 km/h
300 18-01-2009 11:59:45 4.5 C 5.46 g/m*3 4.5 C 0 km/h
Sensor: Nr:Datum:Temp:Abs-Feuchte:Windchill:Wind:
Aussen-T/F 301 18-01-2009 12:11:46 4.7 C 5.6 g/m*3 4.7 C 0 km/h
302 18-01-2009 12:23:45 5 C 5.64 g/m*3 5 C 0 km/h
303 18-01-2009 12:35:45 5.3 C 5.68 g/m*3 5.3 C 0 km/h
304 18-01-2009 12:47:44 5.8 C 5.66 g/m*3 5.8 C 0 km/h
305 18-01-2009 12:59:44 6.2 C 5.52 g/m*3 6.2 C 0 km/h
306 18-01-2009 13:11:45 6.2 C 5.52 g/m*3 6.2 C 0 km/h
307 18-01-2009 13:23:44 6.2 C 5.44 g/m*3 6.2 C 0 km/h
308 18-01-2009 13:35:44 6.3 C 5.48 g/m*3 6.3 C 0 km/h
309 18-01-2009 13:47:44 6.4 C 5.44 g/m*3 6.4 C 0 km/h
310 18-01-2009 13:59:44 6.4 C 5.44 g/m*3 6.4 C 0 km/h
311 18-01-2009 14:11:44 6.2 C 5.37 g/m*3 6.2 C 0 km/h
312 18-01-2009 14:23:43 6.2 C 5.37 g/m*3 6.2 C 0 km/h
313 18-01-2009 14:35:44 6.2 C 5.29 g/m*3 6.2 C 0 km/h
314 18-01-2009 14:47:44 6.2 C 5.15 g/m*3 6.2 C 0 km/h
315 18-01-2009 14:59:44 6.1 C 5.11 g/m*3 6.1 C 0 km/h
316 18-01-2009 15:11:43 6.2 C 5.15 g/m*3 6.2 C 0 km/h
317 18-01-2009 15:23:44 6.6 C 5.13 g/m*3 6.6 C 0 km/h
318 18-01-2009 15:35:43 6.5 C 5.1 g/m*3 6.5 C 0 km/h
319 18-01-2009 15:47:43 6.2 C 5.15 g/m*3 6.2 C 0 km/h
320 18-01-2009 15:59:43 6 C 5.23 g/m*3 6 C 0 km/h
321 18-01-2009 16:11:43 5.7 C 5.34 g/m*3 5.7 C 0 km/h
322 18-01-2009 16:23:43 5.6 C 5.3 g/m*3 5.6 C 0 km/h
323 18-01-2009 16:35:43 5.4 C 5.16 g/m*3 5.4 C 0 km/h
324 18-01-2009 16:47:42 5.4 C 5.16 g/m*3 5.4 C 0 km/h
325 18-01-2009 16:59:42 5.2 C 5.1 g/m*3 5.2 C 0 km/h
Sensor: Nr:Datum:Temp:Abs-Feuchte:Windchill:Wind:
Aussen-T/F 326 18-01-2009 17:11:43 5.3 C 4.99 g/m*3 5.3 C 0 km/h
327 18-01-2009 17:23:42 5.4 C 4.95 g/m*3 5.4 C 0 km/h
328 18-01-2009 17:35:42 5.3 C 4.92 g/m*3 5.3 C 0 km/h
329 18-01-2009 17:47:42 4.6 C 5.1 g/m*3 4.6 C 0 km/h
330 18-01-2009 17:59:42 4.4 C 5.16 g/m*3 4.4 C 0 km/h
331 18-01-2009 18:11:42 4.3 C 5.19 g/m*3 4.3 C 0 km/h
332 18-01-2009 18:23:41 4.3 C 5.12 g/m*3 4.3 C 0 km/h
333 18-01-2009 18:35:41 4.3 C 4.99 g/m*3 4.3 C 0 km/h
334 18-01-2009 18:47:41 4.4 C 5.03 g/m*3 4.4 C 0 km/h
335 18-01-2009 18:59:41 4.5 C 4.93 g/m*3 4.5 C 0 km/h
336 18-01-2009 19:11:41 4.4 C 4.77 g/m*3 4.4 C 0 km/h
337 18-01-2009 19:23:41 4.4 C 4.77 g/m*3 4.4 C 0 km/h
338 18-01-2009 19:35:41 4.2 C 4.7 g/m*3 4.2 C 0 km/h
339 18-01-2009 19:47:41 4.3 C 4.67 g/m*3 4.3 C 0 km/h
340 18-01-2009 19:59:41 4.2 C 4.64 g/m*3 4.2 C 0 km/h
341 18-01-2009 20:11:40 4 C 4.58 g/m*3 4 C 0 km/h
342 18-01-2009 20:23:41 3.9 C 4.67 g/m*3 3.9 C 0 km/h
343 18-01-2009 20:35:40 3.8 C 4.64 g/m*3 3.8 C 0 km/h
344 18-01-2009 20:47:40 3.8 C 4.71 g/m*3 3.8 C 0 km/h
345 18-01-2009 20:59:41 3.6 C 4.58 g/m*3 3.6 C 0 km/h
346 18-01-2009 21:11:40 3.3 C 4.55 g/m*3 3.3 C 0 km/h
347 18-01-2009 21:23:40 3.4 C 4.58 g/m*3 3.4 C 0 km/h
348 18-01-2009 21:35:40 3.5 C 4.61 g/m*3 3.5 C 0 km/h
349 18-01-2009 21:47:39 3.8 C 4.64 g/m*3 3.8 C 0 km/h
350 18-01-2009 21:59:39 3.9 C 4.61 g/m*3 3.9 C 0 km/h
Sensor: Nr:Datum:Temp:Abs-Feuchte:Windchill:Wind:
Aussen-T/F 351 18-01-2009 22:11:40 3.4 C 4.46 g/m*3 3.4 C 0 km/h
352 18-01-2009 22:23:39 3.3 C 4.55 g/m*3 3.3 C 0 km/h
353 18-01-2009 22:35:39 3 C 4.52 g/m*3 3 C 0 km/h
354 18-01-2009 22:48:01 2.9 C 4.55 g/m*3 2.9 C 0 km/h
355 18-01-2009 23:00:01 2.9 C 4.55 g/m*3 2.9 C 0 km/h
356 18-01-2009 23:12:01 3.1 C 4.55 g/m*3 3.1 C 0 km/h
357 18-01-2009 23:24:01 3.2 C 4.58 g/m*3 3.2 C 0 km/h
358 18-01-2009 23:36:01 3.1 C 4.55 g/m*3 3.1 C 0 km/h
359 18-01-2009 23:48:01 2.8 C 4.52 g/m*3 2.8 C 0 km/h
360 19-01-2009 00:00:01 2.4 C 4.45 g/m*3 2.4 C 0 km/h
361 19-01-2009 00:12:01 2.6 C 4.57 g/m*3 2.6 C 0 km/h
362 19-01-2009 00:24:02 2.6 C 4.51 g/m*3 2.6 C 0 km/h
363 19-01-2009 00:36:02 3 C 4.52 g/m*3 3 C 0 km/h
364 19-01-2009 00:48:02 3.1 C 4.43 g/m*3 3.1 C 0 km/h
365 19-01-2009 01:00:02 3.3 C 4.43 g/m*3 3.3 C 0 km/h
366 19-01-2009 01:12:02 3.4 C 4.4 g/m*3 3.4 C 0 km/h
367 19-01-2009 01:24:02 3.3 C 4.37 g/m*3 3.3 C 0 km/h
368 19-01-2009 01:36:02 3.4 C 4.34 g/m*3 3.4 C 0 km/h
369 19-01-2009 01:48:02 3.6 C 4.27 g/m*3 3.6 C 0 km/h
370 19-01-2009 02:00:02 3.4 C 4.21 g/m*3 3.4 C 0 km/h
371 19-01-2009 02:12:02 3.4 C 4.28 g/m*3 3.4 C 0 km/h
372 19-01-2009 02:24:02 3.6 C 4.27 g/m*3 3.6 C 0 km/h
373 19-01-2009 02:36:02 3.5 C 4.24 g/m*3 3.5 C 0 km/h
374 19-01-2009 02:48:02 3.4 C 4.21 g/m*3 3.4 C 0 km/h
375 19-01-2009 03:00:02 3.3 C 4.31 g/m*3 3.3 C 0 km/h
Sensor: Nr:Datum:Temp:Abs-Feuchte:Windchill:Wind:
Aussen-T/F 376 19-01-2009 03:12:02 3.2 C 4.34 g/m*3 3.2 C 0 km/h
377 19-01-2009 03:24:02 3.2 C 4.4 g/m*3 3.2 C 0 km/h
378 19-01-2009 03:36:02 3.3 C 4.49 g/m*3 3.3 C 0 km/h
379 19-01-2009 03:48:02 3.4 C 4.52 g/m*3 3.4 C 0 km/h
380 19-01-2009 04:00:02 3.4 C 4.52 g/m*3 3.4 C 0 km/h
381 19-01-2009 04:12:03 3.4 C 4.46 g/m*3 3.4 C 0 km/h
382 19-01-2009 04:24:03 3.4 C 4.46 g/m*3 3.4 C 0 km/h
383 19-01-2009 04:36:03 3.3 C 4.43 g/m*3 3.3 C 0 km/h
384 19-01-2009 04:48:03 3.4 C 4.46 g/m*3 3.4 C 0 km/h
385 19-01-2009 05:00:03 3.5 C 4.49 g/m*3 3.5 C 0 km/h
386 19-01-2009 05:12:03 3.5 C 4.49 g/m*3 3.5 C 0 km/h
387 19-01-2009 05:24:03 3.5 C 4.55 g/m*3 3.5 C 0 km/h
388 19-01-2009 05:36:03 3.5 C 4.49 g/m*3 3.5 C 0 km/h
389 19-01-2009 05:48:03 3.4 C 4.46 g/m*3 3.4 C 0 km/h
390 19-01-2009 06:00:03 3.2 C 4.46 g/m*3 3.2 C 0 km/h
391 19-01-2009 06:12:03 2.8 C 4.4 g/m*3 2.8 C 0 km/h
392 19-01-2009 06:24:03 2.7 C 4.49 g/m*3 2.7 C 0 km/h
393 19-01-2009 06:36:03 2.6 C 4.46 g/m*3 2.6 C 0 km/h
394 19-01-2009 06:48:03 2.7 C 4.54 g/m*3 2.7 C 0 km/h
395 19-01-2009 07:00:03 2.9 C 4.67 g/m*3 2.9 C 0 km/h
396 19-01-2009 07:12:03 2.8 C 4.63 g/m*3 2.8 C 0 km/h
397 19-01-2009 07:24:03 2.8 C 4.69 g/m*3 2.8 C 0 km/h
398 19-01-2009 07:36:03 2.9 C 4.78 g/m*3 2.9 C 0 km/h
399 19-01-2009 07:48:03 3.2 C 4.88 g/m*3 3.2 C 0 km/h
400 19-01-2009 08:00:03 3.2 C 4.82 g/m*3 3.2 C 0 km/h
Sensor: Nr:Datum:Temp:Abs-Feuchte:Windchill:Wind:
Aussen-T/F 401 19-01-2009 08:12:01 3.4 C 4.95 g/m*3 3.4 C 0 km/h
402 19-01-2009 08:24:01 3.4 C 4.89 g/m*3 3.4 C 0 km/h
403 19-01-2009 08:36:00 3.5 C 4.98 g/m*3 3.5 C 0 km/h
404 19-01-2009 08:48:01 3.7 C 4.99 g/m*3 3.7 C 0 km/h
405 19-01-2009 09:00:01 3.9 C 4.99 g/m*3 3.9 C 0 km/h
406 19-01-2009 09:12:01 3.9 C 4.99 g/m*3 3.9 C 0 km/h
407 19-01-2009 09:24:01 4 C 4.9 g/m*3 4 C 0 km/h
408 19-01-2009 09:36:00 3.8 C 4.96 g/m*3 3.8 C 0 km/h
409 19-01-2009 09:48:00 3.6 C 5.01 g/m*3 3.6 C 0 km/h
410 19-01-2009 10:00:00 3.6 C 5.14 g/m*3 3.6 C 0 km/h
411 19-01-2009 10:12:00 3.4 C 5.13 g/m*3 3.4 C 0 km/h
412 19-01-2009 10:24:00 3.3 C 5.22 g/m*3 3.3 C 0 km/h
413 19-01-2009 10:36:59 3.3 C 5.22 g/m*3 3.3 C 0 km/h
414 19-01-2009 10:48:00 3.3 C 5.28 g/m*3 3.3 C 0 km/h
415 19-01-2009 11:00:01 3.3 C 5.28 g/m*3 3.3 C 0 km/h
416 19-01-2009 11:12:59 3.3 C 5.28 g/m*3 3.3 C 0 km/h
417 19-01-2009 11:24:59 3.4 C 5.31 g/m*3 3.4 C 0 km/h
418 19-01-2009 11:36:00 3.4 C 5.31 g/m*3 3.4 C 0 km/h
419 19-01-2009 11:48:59 3.5 C 5.35 g/m*3 3.5 C 0 km/h
420 19-01-2009 12:00:59 3.6 C 5.39 g/m*3 3.6 C 0 km/h
421 19-01-2009 12:12:59 3.6 C 5.45 g/m*3 3.6 C 0 km/h
422 19-01-2009 12:24:59 3.7 C 5.48 g/m*3 3.7 C 0 km/h
423 19-01-2009 12:36:59 4.2 C 5.67 g/m*3 4.2 C 0 km/h
424 19-01-2009 12:48:58 4.5 C 5.78 g/m*3 4.5 C 0 km/h
425 19-01-2009 13:00:58 4.5 C 5.72 g/m*3 4.5 C 0 km/h
Sensor: Nr:Datum:Temp:Abs-Feuchte:Windchill:Wind:
Aussen-T/F 426 19-01-2009 13:12:59 4.5 C 5.72 g/m*3 4.5 C 0 km/h
427 19-01-2009 13:24:58 4.5 C 5.72 g/m*3 4.5 C 0 km/h
428 19-01-2009 13:36:58 4.7 C 5.86 g/m*3 4.7 C 0 km/h
429 19-01-2009 13:48:57 5.2 C 6.06 g/m*3 5.2 C 0 km/h
430 19-01-2009 14:00:58 5.5 C 6.18 g/m*3 5.5 C 0 km/h
431 19-01-2009 14:12:58 5.8 C 6.3 g/m*3 5.8 C 0 km/h
432 19-01-2009 14:24:58 6.2 C 6.47 g/m*3 6.2 C 0 km/h
433 19-01-2009 14:36:57 6.6 C 6.64 g/m*3 6.6 C 0 km/h
434 19-01-2009 14:48:58 7 C 6.82 g/m*3 7 C 0 km/h
435 19-01-2009 15:00:57 7.3 C 6.95 g/m*3 7.3 C 0 km/h
436 19-01-2009 15:12:57 8.1 C 7.24 g/m*3 8.1 C 0 km/h
437 19-01-2009 15:24:57 8.4 C 7.04 g/m*3 8.4 C 0 km/h
438 19-01-2009 15:36:56 8.6 C 6.87 g/m*3 8.6 C 0 km/h
439 19-01-2009 15:48:57 8.9 C 6.75 g/m*3 8.9 C 0 km/h
440 19-01-2009 16:00:57 9.1 C 6.48 g/m*3 9.1 C 0 km/h
441 19-01-2009 16:12:57 9.1 C 6.39 g/m*3 9.1 C 0 km/h
442 19-01-2009 16:24:56 9.2 C 6.25 g/m*3 9.2 C 0 km/h
443 19-01-2009 16:36:57 9.3 C 6.11 g/m*3 9.3 C 0 km/h
444 19-01-2009 16:48:56 9.3 C 5.93 g/m*3 9.3 C 0 km/h
445 19-01-2009 17:00:56 9.4 C 5.88 g/m*3 9.4 C 0 km/h
446 19-01-2009 17:12:56 9.3 C 5.84 g/m*3 9.3 C 0 km/h
447 19-01-2009 17:24:56 9 C 5.82 g/m*3 9 C 0 km/h
448 19-01-2009 17:36:02 9 C 5.82 g/m*3 9 C 0 km/h
449 19-01-2009 17:48:02 8.7 C 5.71 g/m*3 8.7 C 0 km/h
450 19-01-2009 18:00:02 8.2 C 5.61 g/m*3 8.2 C 0 km/h
Sensor: Nr:Datum:Temp:Abs-Feuchte:Windchill:Wind:
Aussen-T/F 451 19-01-2009 18:12:02 8.3 C 5.65 g/m*3 8.3 C 0 km/h
452 19-01-2009 18:24:01 8.4 C 5.51 g/m*3 8.4 C 0 km/h
453 19-01-2009 18:36:02 8.2 C 5.44 g/m*3 8.2 C 0 km/h
454 19-01-2009 18:48:01 8.2 C 5.44 g/m*3 8.2 C 0 km/h
455 19-01-2009 19:00:01 8 C 5.46 g/m*3 8 C 0 km/h
456 19-01-2009 19:12:01 7.8 C 5.47 g/m*3 7.8 C 0 km/h
457 19-01-2009 19:24:01 7.8 C 5.47 g/m*3 7.8 C 0 km/h
458 19-01-2009 19:36:01 8.2 C 5.44 g/m*3 8.2 C 0 km/h
459 19-01-2009 19:48:02 8.2 C 5.36 g/m*3 8.2 C 0 km/h
460 19-01-2009 20:00:02 8.6 C 5.41 g/m*3 8.6 C 0 km/h
461 19-01-2009 20:12:02 8.6 C 5.41 g/m*3 8.6 C 0 km/h
462 19-01-2009 20:24:01 8.6 C 5.5 g/m*3 8.6 C 0 km/h
463 19-01-2009 20:36:01 8.6 C 5.41 g/m*3 8.6 C 0 km/h
464 19-01-2009 20:48:01 8.9 C 5.52 g/m*3 8.9 C 0 km/h
465 19-01-2009 21:00:01 9.4 C 5.43 g/m*3 9.4 C 0 km/h
466 19-01-2009 21:12:01 9.3 C 5.39 g/m*3 9.3 C 0 km/h
467 19-01-2009 21:24:01 8.9 C 5.43 g/m*3 8.9 C 0 km/h
468 19-01-2009 21:36:01 8.7 C 5.1 g/m*3 8.7 C 0 km/h
469 19-01-2009 21:48:00 8.6 C 5.16 g/m*3 8.6 C 0 km/h
470 19-01-2009 22:00:00 8.4 C 5.09 g/m*3 8.4 C 0 km/h
471 19-01-2009 22:12:01 8.3 C 5.14 g/m*3 8.3 C 0 km/h
472 19-01-2009 22:24:01 8.3 C 5.14 g/m*3 8.3 C 0 km/h
473 19-01-2009 22:36:00 8.2 C 5.19 g/m*3 8.2 C 0 km/h
474 19-01-2009 22:48:01 8.2 C 5.19 g/m*3 8.2 C 0 km/h
475 19-01-2009 23:00:01 8.3 C 5.23 g/m*3 8.3 C 0 km/h
Sensor: Nr:Datum:Temp:Abs-Feuchte:Windchill:Wind:
Aussen-T/F 476 19-01-2009 23:12:00 8.1 C 5.16 g/m*3 8.1 C 0 km/h
477 19-01-2009 23:24:00 8.1 C 5.24 g/m*3 8.1 C 0 km/h
478 19-01-2009 23:36:59 8 C 5.21 g/m*3 8 C 0 km/h
479 19-01-2009 23:48:00 7.2 C 4.95 g/m*3 7.2 C 0 km/h
480 20-01-2009 00:00:01 6.2 C 5.22 g/m*3 6.2 C 0 km/h
481 20-01-2009 00:12:59 5.7 C 5.41 g/m*3 5.7 C 0 km/h
482 20-01-2009 00:24:00 5.4 C 5.44 g/m*3 5.4 C 0 km/h
483 20-01-2009 00:36:59 5.2 C 5.44 g/m*3 5.2 C 0 km/h
484 20-01-2009 00:48:59 5.2 C 5.51 g/m*3 5.2 C 0 km/h
485 20-01-2009 01:00:59 5.1 C 5.47 g/m*3 5.1 C 0 km/h
486 20-01-2009 01:12:59 5 C 5.23 g/m*3 5 C 0 km/h
487 20-01-2009 01:24:59 5 C 4.89 g/m*3 5 C 0 km/h
488 20-01-2009 01:36:59 5.1 C 4.65 g/m*3 5.1 C 0 km/h
489 20-01-2009 01:48:59 4.9 C 4.46 g/m*3 4.9 C 0 km/h
490 20-01-2009 02:00:59 5.2 C 4.34 g/m*3 5.2 C 0 km/h
491 20-01-2009 02:12:59 5.4 C 4.33 g/m*3 5.4 C 0 km/h
492 20-01-2009 02:24:58 5.4 C 4.26 g/m*3 5.4 C 0 km/h
493 20-01-2009 02:36:58 5.3 C 4.23 g/m*3 5.3 C 0 km/h
494 20-01-2009 02:49:59 5.4 C 4.19 g/m*3 5.4 C 0 km/h
495 20-01-2009 03:01:59 5.5 C 4.21 g/m*3 5.5 C 0 km/h
496 20-01-2009 03:12:59 5.5 C 4.21 g/m*3 5.5 C 0 km/h
497 20-01-2009 03:24:59 5.3 C 4.16 g/m*3 5.3 C 0 km/h
498 20-01-2009 03:37:59 5.1 C 4.17 g/m*3 5.1 C 0 km/h
499 20-01-2009 03:49:59 4.7 C 4.2 g/m*3 4.7 C 0 km/h
500 20-01-2009 04:01:59 5 C 4.28 g/m*3 5 C 0 km/h
Sensor: Nr:Datum:Temp:Abs-Feuchte:Windchill:Wind:
Aussen-T/F 501 20-01-2009 04:13:59 5.2 C 4.48 g/m*3 5.2 C 0 km/h
502 20-01-2009 04:25:58 3.9 C 4.67 g/m*3 3.9 C 0 km/h
503 20-01-2009 04:37:59 3.5 C 4.86 g/m*3 3.5 C 0 km/h
504 20-01-2009 04:49:58 3.3 C 4.91 g/m*3 3.3 C 0 km/h
505 20-01-2009 05:01:58 3.1 C 4.97 g/m*3 3.1 C 0 km/h
506 20-01-2009 05:13:58 3 C 4.99 g/m*3 3 C 0 km/h
507 20-01-2009 05:25:58 2.9 C 4.96 g/m*3 2.9 C 0 km/h
508 20-01-2009 05:37:58 2.9 C 4.96 g/m*3 2.9 C 0 km/h
509 20-01-2009 05:49:58 2.8 C 4.87 g/m*3 2.8 C 0 km/h
510 20-01-2009 06:01:57 2.7 C 4.84 g/m*3 2.7 C 0 km/h
511 20-01-2009 06:13:57 2.7 C 4.78 g/m*3 2.7 C 0 km/h
512 20-01-2009 06:25:58 2.5 C 4.6 g/m*3 2.5 C 0 km/h
513 20-01-2009 06:37:57 2.1 C 4.48 g/m*3 2.1 C 0 km/h
514 20-01-2009 06:49:57 2.5 C 4.66 g/m*3 2.5 C 0 km/h
515 20-01-2009 07:01:57 2.6 C 4.63 g/m*3 2.6 C 0 km/h
516 20-01-2009 07:13:57 2.8 C 4.63 g/m*3 2.8 C 0 km/h
517 20-01-2009 07:25:57 2.6 C 4.51 g/m*3 2.6 C 0 km/h
518 20-01-2009 07:37:57 2.4 C 4.51 g/m*3 2.4 C 0 km/h
519 20-01-2009 07:49:57 2.4 C 4.45 g/m*3 2.4 C 0 km/h
520 20-01-2009 08:01:57 2.6 C 4.46 g/m*3 2.6 C 0 km/h
521 20-01-2009 08:13:57 2.6 C 4.34 g/m*3 2.6 C 0 km/h
522 20-01-2009 08:25:56 2.7 C 4.2 g/m*3 2.7 C 0 km/h
523 20-01-2009 08:37:56 2.9 C 4.07 g/m*3 2.9 C 0 km/h
524 20-01-2009 08:49:56 2.9 C 4.02 g/m*3 2.9 C 0 km/h
525 20-01-2009 09:01:56 3 C 4.04 g/m*3 3 C 0 km/h
Sensor: Nr:Datum:Temp:Abs-Feuchte:Windchill:Wind:
Aussen-T/F 526 20-01-2009 09:13:56 3.1 C 3.95 g/m*3 3.1 C 0 km/h
527 20-01-2009 09:25:55 3.1 C 3.83 g/m*3 3.1 C 0 km/h
528 20-01-2009 09:37:56 3.1 C 3.89 g/m*3 3.1 C 0 km/h
529 20-01-2009 09:49:55 3.1 C 3.89 g/m*3 3.1 C 0 km/h
530 20-01-2009 10:01:55 3.2 C 3.92 g/m*3 3.2 C 0 km/h
531 20-01-2009 10:13:55 3.2 C 3.86 g/m*3 3.2 C 0 km/h
532 20-01-2009 10:25:55 3.3 C 3.82 g/m*3 3.3 C 0 km/h
533 20-01-2009 10:37:55 3.5 C 3.75 g/m*3 3.5 C 0 km/h
534 20-01-2009 10:49:55 3.5 C 3.75 g/m*3 3.5 C 0 km/h
535 20-01-2009 11:01:55 3.6 C 3.84 g/m*3 3.6 C 0 km/h
536 20-01-2009 11:13:55 3.7 C 3.86 g/m*3 3.7 C 0 km/h
537 20-01-2009 11:25:55 3.7 C 3.86 g/m*3 3.7 C 0 km/h
538 20-01-2009 11:37:54 3.8 C 3.83 g/m*3 3.8 C 0 km/h
539 20-01-2009 11:49:54 4 C 3.81 g/m*3 4 C 0 km/h
540 20-01-2009 12:01:54 4.2 C 3.87 g/m*3 4.2 C 0 km/h
541 20-01-2009 12:13:54 4.3 C 3.89 g/m*3 4.3 C 0 km/h
542 20-01-2009 12:25:54 4.3 C 3.89 g/m*3 4.3 C 0 km/h
543 20-01-2009 12:37:54 4.4 C 3.92 g/m*3 4.4 C 0 km/h
544 20-01-2009 12:49:54 4.5 C 3.94 g/m*3 4.5 C 0 km/h
545 20-01-2009 13:01:54 4.7 C 3.93 g/m*3 4.7 C 0 km/h
546 20-01-2009 13:13:54 4.8 C 3.96 g/m*3 4.8 C 0 km/h
547 20-01-2009 13:25:53 5.2 C 3.86 g/m*3 5.2 C 0 km/h
548 20-01-2009 13:37:54 5.2 C 3.79 g/m*3 5.2 C 0 km/h
549 20-01-2009 13:49:53 5.2 C 3.79 g/m*3 5.2 C 0 km/h
550 20-01-2009 14:01:53 5.3 C 3.81 g/m*3 5.3 C 0 km/h
Sensor: Nr:Datum:Temp:Abs-Feuchte:Windchill:Wind:
Aussen-T/F 551 20-01-2009 14:13:53 5.4 C 3.84 g/m*3 5.4 C 0 km/h
552 20-01-2009 14:25:52 5.6 C 3.82 g/m*3 5.6 C 0 km/h
553 20-01-2009 14:37:53 5.8 C 3.94 g/m*3 5.8 C 0 km/h
554 20-01-2009 14:49:52 5.7 C 3.77 g/m*3 5.7 C 0 km/h
555 20-01-2009 15:01:52 5.5 C 3.79 g/m*3 5.5 C 0 km/h
556 20-01-2009 15:13:52 5.7 C 3.91 g/m*3 5.7 C 0 km/h
557 20-01-2009 15:25:53 5.8 C 3.87 g/m*3 5.8 C 0 km/h
558 20-01-2009 15:37:52 5.7 C 3.84 g/m*3 5.7 C 0 km/h
559 20-01-2009 15:49:52 5.6 C 3.89 g/m*3 5.6 C 0 km/h
560 20-01-2009 16:01:52 5.5 C 3.93 g/m*3 5.5 C 0 km/h
561 20-01-2009 16:13:52 5.5 C 3.93 g/m*3 5.5 C 0 km/h
562 20-01-2009 16:25:52 5.4 C 3.91 g/m*3 5.4 C 0 km/h
563 20-01-2009 16:37:51 5.3 C 3.95 g/m*3 5.3 C 0 km/h
564 20-01-2009 16:49:52 5.1 C 3.83 g/m*3 5.1 C 0 km/h
565 20-01-2009 17:01:52 5 C 3.74 g/m*3 5 C 0 km/h
566 20-01-2009 17:13:52 4.8 C 3.82 g/m*3 4.8 C 0 km/h
567 20-01-2009 17:25:51 4.6 C 3.84 g/m*3 4.6 C 0 km/h
568 20-01-2009 17:37:51 4.6 C 3.71 g/m*3 4.6 C 0 km/h
569 20-01-2009 17:49:51 4.6 C 3.71 g/m*3 4.6 C 0 km/h
570 20-01-2009 18:01:51 4.4 C 3.72 g/m*3 4.4 C 0 km/h
571 20-01-2009 18:13:51 4.3 C 3.83 g/m*3 4.3 C 0 km/h
572 20-01-2009 18:25:50 4 C 3.88 g/m*3 4 C 0 km/h
573 20-01-2009 18:37:51 3.8 C 3.89 g/m*3 3.8 C 0 km/h
574 20-01-2009 18:49:50 3.6 C 3.9 g/m*3 3.6 C 0 km/h
575 20-01-2009 19:01:50 3.4 C 3.91 g/m*3 3.4 C 0 km/h
Sensor: Nr:Datum:Temp:Abs-Feuchte:Windchill:Wind:
Aussen-T/F 576 20-01-2009 19:13:50 3.1 C 3.95 g/m*3 3.1 C 0 km/h
577 20-01-2009 19:25:50 3 C 3.92 g/m*3 3 C 0 km/h
578 20-01-2009 19:37:50 2.9 C 3.96 g/m*3 2.9 C 0 km/h
579 20-01-2009 19:49:49 3 C 3.98 g/m*3 3 C 0 km/h
580 20-01-2009 20:01:50 2.9 C 4.02 g/m*3 2.9 C 0 km/h
581 20-01-2009 20:13:50 2.5 C 3.97 g/m*3 2.5 C 0 km/h
582 20-01-2009 20:25:50 2.1 C 3.86 g/m*3 2.1 C 0 km/h
583 20-01-2009 20:37:49 1.8 C 3.84 g/m*3 1.8 C 0 km/h
584 20-01-2009 20:49:50 1.6 C 3.84 g/m*3 1.6 C 0 km/h
585 20-01-2009 21:01:49 1.4 C 3.89 g/m*3 1.4 C 0 km/h
586 20-01-2009 21:13:49 1.3 C 3.87 g/m*3 1.3 C 0 km/h
587 20-01-2009 21:25:49 1.3 C 3.97 g/m*3 1.3 C 0 km/h
588 20-01-2009 21:37:49 1.3 C 4.03 g/m*3 1.3 C 0 km/h
589 20-01-2009 21:49:49 1.1 C 3.97 g/m*3 1.1 C 0 km/h
590 20-01-2009 22:01:48 0.7 C 3.97 g/m*3 0.7 C 0 km/h
591 20-01-2009 22:13:48 0.6 C 3.94 g/m*3 0.6 C 0 km/h
592 20-01-2009 22:25:48 0.6 C 4.04 g/m*3 0.6 C 0 km/h
593 20-01-2009 22:37:48 0.4 C 3.98 g/m*3 0.4 C 0 km/h
594 20-01-2009 22:49:48 0.2 C 3.93 g/m*3 0.2 C 0 km/h
595 20-01-2009 23:01:48 -0.1 C 3.9 g/m*3 -0.1 C 0 km/h
596 20-01-2009 23:13:48 -0.2 C 3.87 g/m*3 -0.2 C 0 km/h
597 20-01-2009 23:25:48 -0.3 C 3.89 g/m*3 -0.3 C 0 km/h
598 20-01-2009 23:37:48 -0.6 C 3.81 g/m*3 -0.6 C 0 km/h
599 20-01-2009 23:49:47 -0.8 C 3.76 g/m*3 -0.8 C 0 km/h
600 21-01-2009 00:01:48 -1 C 3.71 g/m*3 -1 C 0 km/h
Sensor: Nr:Datum:Temp:Abs-Feuchte:Windchill:Wind:
Aussen-T/F 601 21-01-2009 00:13:48 -1 C 3.75 g/m*3 -1 C 0 km/h
602 21-01-2009 00:25:47 -1.1 C 3.73 g/m*3 -1.1 C 0 km/h
603 21-01-2009 00:37:47 -1.4 C 3.65 g/m*3 -1.4 C 0 km/h
604 21-01-2009 00:49:47 -1.4 C 3.65 g/m*3 -1.4 C 0 km/h
605 21-01-2009 01:01:47 -1.6 C 3.64 g/m*3 -1.6 C 0 km/h
606 21-01-2009 01:13:47 -1.6 C 3.68 g/m*3 -1.6 C 0 km/h
607 21-01-2009 01:25:46 -1.5 C 3.71 g/m*3 -1.5 C 0 km/h
608 21-01-2009 01:37:47 -1.6 C 3.68 g/m*3 -1.6 C 0 km/h
609 21-01-2009 01:49:46 -1.7 C 3.66 g/m*3 -1.7 C 0 km/h
610 21-01-2009 02:01:46 -1.7 C 3.7 g/m*3 -1.7 C 0 km/h
611 21-01-2009 02:13:46 -1.8 C 3.72 g/m*3 -1.8 C 0 km/h
612 21-01-2009 02:25:46 -1.9 C 3.69 g/m*3 -1.9 C 0 km/h
613 21-01-2009 02:37:46 -1.8 C 3.72 g/m*3 -1.8 C 0 km/h
614 21-01-2009 02:50:02 -1.9 C 3.69 g/m*3 -1.9 C 0 km/h
615 21-01-2009 03:02:02 -2.1 C 3.64 g/m*3 -2.1 C 0 km/h
616 21-01-2009 03:14:01 -2.3 C 3.59 g/m*3 -2.3 C 0 km/h
617 21-01-2009 03:26:01 -2.2 C 3.62 g/m*3 -2.2 C 0 km/h
618 21-01-2009 03:38:01 -2.1 C 3.68 g/m*3 -2.1 C 0 km/h
619 21-01-2009 03:50:01 -2.1 C 3.68 g/m*3 -2.1 C 0 km/h
620 21-01-2009 04:02:01 -2.3 C 3.59 g/m*3 -2.3 C 0 km/h
621 21-01-2009 04:14:01 -2.3 C 3.63 g/m*3 -2.3 C 0 km/h
622 21-01-2009 04:26:01 -2.3 C 3.63 g/m*3 -2.3 C 0 km/h
623 21-01-2009 04:38:01 -2.4 C 3.61 g/m*3 -2.4 C 0 km/h
624 21-01-2009 04:50:01 -2.6 C 3.56 g/m*3 -2.6 C 0 km/h
625 21-01-2009 05:02:02 -2.5 C 3.58 g/m*3 -2.5 C 0 km/h
Sensor: Nr:Datum:Temp:Abs-Feuchte:Windchill:Wind:
Aussen-T/F 626 21-01-2009 05:14:02 -2.7 C 3.53 g/m*3 -2.7 C 0 km/h
627 21-01-2009 05:26:01 -2.8 C 3.51 g/m*3 -2.8 C 0 km/h
628 21-01-2009 05:38:02 -2.9 C 3.48 g/m*3 -2.9 C 0 km/h
629 21-01-2009 05:50:01 -3 C 3.46 g/m*3 -3 C 0 km/h
630 21-01-2009 06:02:01 -2.9 C 3.52 g/m*3 -2.9 C 0 km/h
631 21-01-2009 06:14:01 -2.9 C 3.52 g/m*3 -2.9 C 0 km/h
632 21-01-2009 06:26:01 -3 C 3.5 g/m*3 -3 C 0 km/h
633 21-01-2009 06:38:02 -2.9 C 3.52 g/m*3 -2.9 C 0 km/h
634 21-01-2009 06:50:01 -3.1 C 3.47 g/m*3 -3.1 C 0 km/h
635 21-01-2009 07:02:02 -3 C 3.5 g/m*3 -3 C 0 km/h
636 21-01-2009 07:14:02 -2.7 C 3.61 g/m*3 -2.7 C 0 km/h
637 21-01-2009 07:26:01 -2.8 C 3.59 g/m*3 -2.8 C 0 km/h
638 21-01-2009 07:38:02 -3 C 3.54 g/m*3 -3 C 0 km/h
639 21-01-2009 07:50:01 -3 C 3.54 g/m*3 -3 C 0 km/h
640 21-01-2009 08:02:02 -2.8 C 3.59 g/m*3 -2.8 C 0 km/h
641 21-01-2009 08:14:02 -2.7 C 3.61 g/m*3 -2.7 C 0 km/h
642 21-01-2009 08:26:01 -2.2 C 3.78 g/m*3 -2.2 C 0 km/h
643 21-01-2009 08:38:01 -2.1 C 3.81 g/m*3 -2.1 C 0 km/h
644 21-01-2009 08:50:01 -2.1 C 3.81 g/m*3 -2.1 C 0 km/h
645 21-01-2009 09:02:01 -2 C 3.84 g/m*3 -2 C 0 km/h
646 21-01-2009 09:14:01 -2.2 C 3.78 g/m*3 -2.2 C 0 km/h
647 21-01-2009 09:26:01 -2.3 C 3.76 g/m*3 -2.3 C 0 km/h
648 21-01-2009 09:38:01 -2.4 C 3.69 g/m*3 -2.4 C 0 km/h
649 21-01-2009 09:50:01 -2.3 C 3.71 g/m*3 -2.3 C 0 km/h
650 21-01-2009 10:02:01 -2.3 C 3.71 g/m*3 -2.3 C 0 km/h
Sensor: Nr:Datum:Temp:Abs-Feuchte:Windchill:Wind:
Aussen-T/F 651 21-01-2009 10:14:01 -2.2 C 3.74 g/m*3 -2.2 C 0 km/h
652 21-01-2009 10:26:02 -2.1 C 3.77 g/m*3 -2.1 C 0 km/h
653 21-01-2009 10:38:01 -1.9 C 3.82 g/m*3 -1.9 C 0 km/h
654 21-01-2009 10:50:02 -1.5 C 3.97 g/m*3 -1.5 C 0 km/h
655 21-01-2009 11:02:01 -0.9 C 4.19 g/m*3 -0.9 C 0 km/h
656 21-01-2009 11:14:01 -0.4 C 4.34 g/m*3 -0.4 C 0 km/h
657 21-01-2009 11:26:02 0.1 C 4.49 g/m*3 0.1 C 0 km/h
658 21-01-2009 11:38:01 0.4 C 4.58 g/m*3 0.4 C 0 km/h
659 21-01-2009 11:50:02 0.8 C 4.71 g/m*3 0.8 C 0 km/h
660 21-01-2009 12:02:01 1 C 4.67 g/m*3 1 C 0 km/h
661 21-01-2009 12:14:01 1.4 C 4.75 g/m*3 1.4 C 0 km/h
662 21-01-2009 12:26:01 1.5 C 4.67 g/m*3 1.5 C 0 km/h
663 21-01-2009 12:38:02 1.8 C 4.66 g/m*3 1.8 C 0 km/h
664 21-01-2009 12:50:01 2.1 C 4.64 g/m*3 2.1 C 0 km/h
665 21-01-2009 13:02:02 2.3 C 4.65 g/m*3 2.3 C 0 km/h
666 21-01-2009 13:14:02 2.5 C 4.71 g/m*3 2.5 C 0 km/h
667 21-01-2009 13:26:01 2.8 C 4.75 g/m*3 2.8 C 0 km/h
668 21-01-2009 13:38:02 3.1 C 4.73 g/m*3 3.1 C 0 km/h
669 21-01-2009 13:50:01 3.3 C 4.67 g/m*3 3.3 C 0 km/h
670 21-01-2009 14:02:01 3.5 C 4.61 g/m*3 3.5 C 0 km/h
671 21-01-2009 14:14:02 3.6 C 4.58 g/m*3 3.6 C 0 km/h
672 21-01-2009 14:26:01 3.6 C 4.58 g/m*3 3.6 C 0 km/h
673 21-01-2009 14:38:01 3.8 C 4.45 g/m*3 3.8 C 0 km/h
674 21-01-2009 14:50:01 3.8 C 4.45 g/m*3 3.8 C 0 km/h
675 21-01-2009 15:02:01 4 C 4.45 g/m*3 4 C 0 km/h
Sensor: Nr:Datum:Temp:Abs-Feuchte:Windchill:Wind:
Aussen-T/F 676 21-01-2009 15:14:01 4 C 4.39 g/m*3 4 C 0 km/h
677 21-01-2009 15:26:02 4.1 C 4.42 g/m*3 4.1 C 0 km/h
678 21-01-2009 15:38:01 4.4 C 4.44 g/m*3 4.4 C 0 km/h
679 21-01-2009 15:50:02 3.9 C 4.42 g/m*3 3.9 C 0 km/h
680 21-01-2009 16:02:01 3.6 C 4.46 g/m*3 3.6 C 0 km/h
681 21-01-2009 16:14:01 3.3 C 4.43 g/m*3 3.3 C 0 km/h
682 21-01-2009 16:26:01 3.2 C 4.4 g/m*3 3.2 C 0 km/h
683 21-01-2009 16:38:01 3.3 C 4.43 g/m*3 3.3 C 0 km/h
684 21-01-2009 16:50:01 3.2 C 4.34 g/m*3 3.2 C 0 km/h
685 21-01-2009 17:02:01 3.2 C 4.34 g/m*3 3.2 C 0 km/h
686 21-01-2009 17:14:01 3.2 C 4.34 g/m*3 3.2 C 0 km/h
687 21-01-2009 17:26:01 3.1 C 4.31 g/m*3 3.1 C 0 km/h
688 21-01-2009 17:38:02 2.9 C 4.37 g/m*3 2.9 C 0 km/h
689 21-01-2009 17:50:01 2.8 C 4.34 g/m*3 2.8 C 0 km/h
690 21-01-2009 18:02:01 2.6 C 4.34 g/m*3 2.6 C 0 km/h
691 21-01-2009 18:14:01 2.4 C 4.34 g/m*3 2.4 C 0 km/h
692 21-01-2009 18:26:02 2.4 C 4.4 g/m*3 2.4 C 0 km/h
693 21-01-2009 18:38:01 2.3 C 4.42 g/m*3 2.3 C 0 km/h
694 21-01-2009 18:50:02 2.2 C 4.39 g/m*3 2.2 C 0 km/h
695 21-01-2009 19:02:01 2.1 C 4.42 g/m*3 2.1 C 0 km/h
696 21-01-2009 19:14:01 2 C 4.39 g/m*3 2 C 0 km/h
697 21-01-2009 19:26:01 2 C 4.45 g/m*3 2 C 0 km/h
698 21-01-2009 19:38:01 2.4 C 4.62 g/m*3 2.4 C 0 km/h
699 21-01-2009 19:50:01 2.8 C 4.69 g/m*3 2.8 C 0 km/h
700 21-01-2009 20:02:02 2.9 C 4.61 g/m*3 2.9 C 0 km/h
Sensor: Nr:Datum:Temp:Abs-Feuchte:Windchill:Wind:
Aussen-T/F 701 21-01-2009 20:14:02 3 C 4.58 g/m*3 3 C 0 km/h
702 21-01-2009 20:26:01 2.9 C 4.55 g/m*3 2.9 C 0 km/h
703 21-01-2009 20:38:02 2.8 C 4.52 g/m*3 2.8 C 0 km/h
704 21-01-2009 20:50:01 2.7 C 4.54 g/m*3 2.7 C 0 km/h
705 21-01-2009 21:02:02 2.7 C 4.54 g/m*3 2.7 C 0 km/h
706 21-01-2009 21:14:02 2.6 C 4.51 g/m*3 2.6 C 0 km/h
707 21-01-2009 21:26:01 2.5 C 4.48 g/m*3 2.5 C 0 km/h
708 21-01-2009 21:38:01 2.3 C 4.42 g/m*3 2.3 C 0 km/h
709 21-01-2009 21:50:01 2 C 4.39 g/m*3 2 C 0 km/h
710 21-01-2009 22:02:01 1.8 C 4.39 g/m*3 1.8 C 0 km/h
711 21-01-2009 22:14:01 1.8 C 4.44 g/m*3 1.8 C 0 km/h
712 21-01-2009 22:26:01 1.9 C 4.53 g/m*3 1.9 C 0 km/h
713 21-01-2009 22:38:01 1.9 C 4.53 g/m*3 1.9 C 0 km/h
714 21-01-2009 22:50:01 2 C 4.5 g/m*3 2 C 0 km/h
715 21-01-2009 23:02:01 2 C 4.5 g/m*3 2 C 0 km/h
716 21-01-2009 23:14:01 1.9 C 4.53 g/m*3 1.9 C 0 km/h
717 21-01-2009 23:26:02 1.9 C 4.53 g/m*3 1.9 C 0 km/h
718 21-01-2009 23:38:01 1.8 C 4.49 g/m*3 1.8 C 0 km/h
719 21-01-2009 23:50:02 1.5 C 4.4 g/m*3 1.5 C 0 km/h
720 22-01-2009 00:02:01 1 C 4.26 g/m*3 1 C 0 km/h
721 22-01-2009 00:14:01 0.7 C 4.22 g/m*3 0.7 C 0 km/h
722 22-01-2009 00:26:01 0.4 C 4.18 g/m*3 0.4 C 0 km/h
723 22-01-2009 00:38:02 0.4 C 4.23 g/m*3 0.4 C 0 km/h
724 22-01-2009 00:50:01 0.5 C 4.26 g/m*3 0.5 C 0 km/h
725 22-01-2009 01:02:02 0.3 C 4.2 g/m*3 0.3 C 0 km/h
Sensor: Nr:Datum:Temp:Abs-Feuchte:Windchill:Wind:
Aussen-T/F 726 22-01-2009 01:14:02 0.3 C 4.2 g/m*3 0.3 C 0 km/h
727 22-01-2009 01:26:01 0.2 C 4.22 g/m*3 0.2 C 0 km/h
728 22-01-2009 01:38:01 0.2 C 4.22 g/m*3 0.2 C 0 km/h
729 22-01-2009 01:50:01 0.6 C 4.39 g/m*3 0.6 C 0 km/h
730 22-01-2009 02:02:01 1 C 4.46 g/m*3 1 C 0 km/h
731 22-01-2009 02:14:02 1.3 C 4.45 g/m*3 1.3 C 0 km/h
732 22-01-2009 02:26:01 1.6 C 4.33 g/m*3 1.6 C 0 km/h
733 22-01-2009 02:38:01 1.6 C 4.22 g/m*3 1.6 C 0 km/h
734 22-01-2009 02:50:35 1.3 C 4.08 g/m*3 1.3 C 0 km/h
735 22-01-2009 03:02:35 1.2 C 4.05 g/m*3 1.2 C 0 km/h
736 22-01-2009 03:14:35 1.1 C 4.08 g/m*3 1.1 C 0 km/h
737 22-01-2009 03:26:35 0.9 C 4.02 g/m*3 0.9 C 0 km/h
738 22-01-2009 03:38:35 0.8 C 4.04 g/m*3 0.8 C 0 km/h
739 22-01-2009 03:50:35 0.8 C 4.04 g/m*3 0.8 C 0 km/h
740 22-01-2009 04:02:35 0.6 C 3.99 g/m*3 0.6 C 0 km/h
741 22-01-2009 04:14:34 0.5 C 3.96 g/m*3 0.5 C 0 km/h
742 22-01-2009 04:26:34 0.5 C 4.01 g/m*3 0.5 C 0 km/h
743 22-01-2009 04:38:35 0.5 C 4.01 g/m*3 0.5 C 0 km/h
744 22-01-2009 04:50:35 0.4 C 4.03 g/m*3 0.4 C 0 km/h
745 22-01-2009 05:02:34 0.4 C 4.03 g/m*3 0.4 C 0 km/h
746 22-01-2009 05:14:34 0.6 C 4.09 g/m*3 0.6 C 0 km/h
747 22-01-2009 05:26:35 0.5 C 4.06 g/m*3 0.5 C 0 km/h
748 22-01-2009 05:38:34 0.2 C 3.98 g/m*3 0.2 C 0 km/h
749 22-01-2009 05:50:34 -0.2 C 3.87 g/m*3 -0.2 C 0 km/h
750 22-01-2009 06:02:34 -0.2 C 3.92 g/m*3 -0.2 C 0 km/h
Sensor: Nr:Datum:Temp:Abs-Feuchte:Windchill:Wind:
Aussen-T/F 751 22-01-2009 06:14:34 -0.2 C 3.97 g/m*3 -0.2 C 0 km/h
752 22-01-2009 06:26:34 -0.5 C 3.88 g/m*3 -0.5 C 0 km/h
753 22-01-2009 06:38:33 -0.5 C 3.88 g/m*3 -0.5 C 0 km/h
754 22-01-2009 06:50:34 -0.3 C 4.03 g/m*3 -0.3 C 0 km/h
755 22-01-2009 07:02:33 -0.3 C 4.03 g/m*3 -0.3 C 0 km/h
756 22-01-2009 07:14:33 -0.4 C 4.01 g/m*3 -0.4 C 0 km/h
757 22-01-2009 07:26:33 -0.6 C 3.95 g/m*3 -0.6 C 0 km/h
758 22-01-2009 07:38:33 -0.5 C 4.03 g/m*3 -0.5 C 0 km/h
759 22-01-2009 07:50:33 -0.6 C 4 g/m*3 -0.6 C 0 km/h
760 22-01-2009 08:02:32 -0.6 C 4.04 g/m*3 -0.6 C 0 km/h
761 22-01-2009 08:14:33 -0.6 C 4.04 g/m*3 -0.6 C 0 km/h
762 22-01-2009 08:26:33 -0.4 C 4.15 g/m*3 -0.4 C 0 km/h
763 22-01-2009 08:38:32 -0.4 C 4.15 g/m*3 -0.4 C 0 km/h
764 22-01-2009 08:50:32 -0.3 C 4.18 g/m*3 -0.3 C 0 km/h
765 22-01-2009 09:02:33 0 C 4.26 g/m*3 0 C 0 km/h
766 22-01-2009 09:14:32 0.2 C 4.37 g/m*3 0.2 C 0 km/h
767 22-01-2009 09:26:32 0.3 C 4.35 g/m*3 0.3 C 0 km/h
768 22-01-2009 09:38:32 0.3 C 4.35 g/m*3 0.3 C 0 km/h
769 22-01-2009 09:50:32 0.5 C 4.41 g/m*3 0.5 C 0 km/h
770 22-01-2009 10:02:32 1.5 C 4.51 g/m*3 1.5 C 0 km/h
771 22-01-2009 10:14:31 1.9 C 4.36 g/m*3 1.9 C 0 km/h
772 22-01-2009 10:26:31 2.6 C 4.17 g/m*3 2.6 C 0 km/h
773 22-01-2009 10:38:31 2.9 C 4.02 g/m*3 2.9 C 0 km/h
774 22-01-2009 10:50:31 3.1 C 3.89 g/m*3 3.1 C 0 km/h
775 22-01-2009 11:02:31 3.2 C 3.86 g/m*3 3.2 C 0 km/h
Sensor: Nr:Datum:Temp:Abs-Feuchte:Windchill:Wind:
Aussen-T/F 776 22-01-2009 11:14:30 3.5 C 3.81 g/m*3 3.5 C 0 km/h
777 22-01-2009 11:26:30 3.9 C 3.85 g/m*3 3.9 C 0 km/h
778 22-01-2009 11:38:31 4.1 C 3.71 g/m*3 4.1 C 0 km/h
779 22-01-2009 11:50:30 4.2 C 3.74 g/m*3 4.2 C 0 km/h
780 22-01-2009 12:02:30 4.1 C 3.71 g/m*3 4.1 C 0 km/h
781 22-01-2009 12:14:31 4.3 C 3.83 g/m*3 4.3 C 0 km/h
782 22-01-2009 12:26:31 4.7 C 3.66 g/m*3 4.7 C 0 km/h
783 22-01-2009 12:38:30 4.9 C 3.71 g/m*3 4.9 C 0 km/h
784 22-01-2009 12:50:30 5.3 C 3.53 g/m*3 5.3 C 0 km/h
785 22-01-2009 13:02:30 5.6 C 3.61 g/m*3 5.6 C 0 km/h
786 22-01-2009 13:14:30 5.5 C 3.37 g/m*3 5.5 C 0 km/h
787 22-01-2009 13:26:30 5.6 C 3.39 g/m*3 5.6 C 0 km/h
788 22-01-2009 13:38:29 5.6 C 3.39 g/m*3 5.6 C 0 km/h
789 22-01-2009 13:50:30 5.8 C 3.37 g/m*3 5.8 C 0 km/h
790 22-01-2009 14:02:29 6 C 3.34 g/m*3 6 C 0 km/h
791 22-01-2009 14:14:29 6.1 C 3.36 g/m*3 6.1 C 0 km/h
792 22-01-2009 14:26:29 6.3 C 3.41 g/m*3 6.3 C 0 km/h
793 22-01-2009 14:38:29 6.7 C 3.42 g/m*3 6.7 C 0 km/h
794 22-01-2009 14:50:29 7 C 3.18 g/m*3 7 C 0 km/h
795 22-01-2009 15:02:29 6.8 C 3.06 g/m*3 6.8 C 0 km/h
796 22-01-2009 15:14:28 6.4 C 3.05 g/m*3 6.4 C 0 km/h
797 22-01-2009 15:26:28 6.2 C 3.09 g/m*3 6.2 C 0 km/h
798 22-01-2009 15:38:29 6.2 C 3.09 g/m*3 6.2 C 0 km/h
799 22-01-2009 15:50:28 6 C 2.98 g/m*3 6 C 0 km/h
800 22-01-2009 16:02:28 5.9 C 3.1 g/m*3 5.9 C 0 km/h
Sensor: Nr:Datum:Temp:Abs-Feuchte:Windchill:Wind:
Aussen-T/F 801 22-01-2009 16:14:28 5.7 C 3.06 g/m*3 5.7 C 0 km/h
802 22-01-2009 16:26:28 5.6 C 3.11 g/m*3 5.6 C 0 km/h
803 22-01-2009 16:38:28 5.5 C 3.02 g/m*3 5.5 C 0 km/h
804 22-01-2009 16:50:27 5.3 C 3.12 g/m*3 5.3 C 0 km/h
805 22-01-2009 17:02:28 5.2 C 3.03 g/m*3 5.2 C 0 km/h
806 22-01-2009 17:14:02 5.3 C 2.91 g/m*3 5.3 C 0 km/h
807 22-01-2009 17:26:02 5.3 C 2.98 g/m*3 5.3 C 0 km/h
808 22-01-2009 17:38:01 5.2 C 3.1 g/m*3 5.2 C 0 km/h
809 22-01-2009 17:50:01 5.2 C 2.96 g/m*3 5.2 C 0 km/h
810 22-01-2009 18:02:01 5.2 C 3.03 g/m*3 5.2 C 0 km/h
811 22-01-2009 18:14:01 5.2 C 3.1 g/m*3 5.2 C 0 km/h
812 22-01-2009 18:26:01 5.1 C 3.15 g/m*3 5.1 C 0 km/h
813 22-01-2009 18:38:01 5.2 C 3.24 g/m*3 5.2 C 0 km/h
814 22-01-2009 18:50:01 5 C 3.26 g/m*3 5 C 0 km/h
815 22-01-2009 19:02:01 5 C 3.33 g/m*3 5 C 0 km/h
816 22-01-2009 19:14:01 5 C 3.4 g/m*3 5 C 0 km/h
817 22-01-2009 19:26:00 5 C 3.6 g/m*3 5 C 0 km/h
818 22-01-2009 19:38:01 4.9 C 3.85 g/m*3 4.9 C 0 km/h
819 22-01-2009 19:50:00 4.8 C 3.96 g/m*3 4.8 C 0 km/h
820 22-01-2009 20:02:00 4.7 C 4 g/m*3 4.7 C 0 km/h
821 22-01-2009 20:14:01 4.6 C 4.1 g/m*3 4.6 C 0 km/h
822 22-01-2009 20:26:00 4.5 C 4.14 g/m*3 4.5 C 0 km/h
823 22-01-2009 20:38:00 4.4 C 4.24 g/m*3 4.4 C 0 km/h
824 22-01-2009 20:50:00 4.1 C 4.35 g/m*3 4.1 C 0 km/h
825 22-01-2009 21:02:00 3.8 C 4.45 g/m*3 3.8 C 0 km/h
Sensor: Nr:Datum:Temp:Abs-Feuchte:Windchill:Wind:
Aussen-T/F 826 22-01-2009 21:14:00 3.6 C 4.52 g/m*3 3.6 C 0 km/h
827 22-01-2009 21:26:59 3.5 C 4.67 g/m*3 3.5 C 0 km/h
828 22-01-2009 21:38:59 3.3 C 4.67 g/m*3 3.3 C 0 km/h
829 22-01-2009 21:50:59 3.2 C 4.7 g/m*3 3.2 C 0 km/h
830 22-01-2009 22:02:59 3.2 C 4.82 g/m*3 3.2 C 0 km/h
831 22-01-2009 22:14:58 3.1 C 4.79 g/m*3 3.1 C 0 km/h
832 22-01-2009 22:26:58 3.1 C 4.79 g/m*3 3.1 C 0 km/h
833 22-01-2009 22:38:59 3.1 C 4.85 g/m*3 3.1 C 0 km/h
834 22-01-2009 22:50:58 3.2 C 4.88 g/m*3 3.2 C 0 km/h
835 22-01-2009 23:02:58 3.2 C 4.94 g/m*3 3.2 C 0 km/h
836 22-01-2009 23:14:59 3.4 C 4.95 g/m*3 3.4 C 0 km/h
837 22-01-2009 23:26:59 3.6 C 4.83 g/m*3 3.6 C 0 km/h
838 22-01-2009 23:38:58 3.8 C 4.77 g/m*3 3.8 C 0 km/h
839 22-01-2009 23:50:58 3.9 C 4.74 g/m*3 3.9 C 0 km/h
840 23-01-2009 00:02:58 4 C 4.7 g/m*3 4 C 0 km/h
841 23-01-2009 00:14:58 4 C 4.7 g/m*3 4 C 0 km/h
842 23-01-2009 00:26:58 4 C 4.7 g/m*3 4 C 0 km/h
843 23-01-2009 00:38:57 4 C 4.7 g/m*3 4 C 0 km/h
844 23-01-2009 00:50:58 4 C 4.7 g/m*3 4 C 0 km/h
845 23-01-2009 01:02:57 4 C 4.7 g/m*3 4 C 0 km/h
846 23-01-2009 01:14:57 4 C 4.77 g/m*3 4 C 0 km/h
847 23-01-2009 01:26:57 4 C 4.77 g/m*3 4 C 0 km/h
848 23-01-2009 01:38:58 3.9 C 4.8 g/m*3 3.9 C 0 km/h
849 23-01-2009 01:50:57 3.8 C 4.77 g/m*3 3.8 C 0 km/h
850 23-01-2009 02:02:57 3.7 C 4.74 g/m*3 3.7 C 0 km/h
Sensor: Nr:Datum:Temp:Abs-Feuchte:Windchill:Wind:
Aussen-T/F 851 23-01-2009 02:14:56 3.8 C 4.77 g/m*3 3.8 C 0 km/h
852 23-01-2009 02:26:56 3.8 C 4.77 g/m*3 3.8 C 0 km/h
853 23-01-2009 02:38:57 3.6 C 4.7 g/m*3 3.6 C 0 km/h
854 23-01-2009 02:51:58 3.7 C 4.74 g/m*3 3.7 C 0 km/h
855 23-01-2009 03:03:58 3.7 C 4.74 g/m*3 3.7 C 0 km/h
856 23-01-2009 03:15:58 3.9 C 4.8 g/m*3 3.9 C 0 km/h
857 23-01-2009 03:27:58 3.9 C 4.8 g/m*3 3.9 C 0 km/h
858 23-01-2009 03:39:57 3.9 C 4.8 g/m*3 3.9 C 0 km/h
859 23-01-2009 03:51:57 3.9 C 4.8 g/m*3 3.9 C 0 km/h
860 23-01-2009 04:03:58 3.8 C 4.83 g/m*3 3.8 C 0 km/h
861 23-01-2009 04:15:57 3.8 C 4.83 g/m*3 3.8 C 0 km/h
862 23-01-2009 04:27:57 3.7 C 4.8 g/m*3 3.7 C 0 km/h
863 23-01-2009 04:39:57 3.7 C 4.86 g/m*3 3.7 C 0 km/h
864 23-01-2009 04:51:57 3.7 C 4.86 g/m*3 3.7 C 0 km/h
865 23-01-2009 05:03:57 3.7 C 4.92 g/m*3 3.7 C 0 km/h
866 23-01-2009 05:15:56 3.8 C 4.96 g/m*3 3.8 C 0 km/h
867 23-01-2009 05:27:56 3.8 C 4.96 g/m*3 3.8 C 0 km/h
868 23-01-2009 05:39:56 3.8 C 4.96 g/m*3 3.8 C 0 km/h
869 23-01-2009 05:51:56 3.8 C 5.02 g/m*3 3.8 C 0 km/h
870 23-01-2009 06:03:57 3.9 C 4.93 g/m*3 3.9 C 0 km/h
871 23-01-2009 06:15:56 3.7 C 4.8 g/m*3 3.7 C 0 km/h
872 23-01-2009 06:27:56 3.4 C 4.76 g/m*3 3.4 C 0 km/h
873 23-01-2009 06:39:56 3.1 C 4.73 g/m*3 3.1 C 0 km/h
874 23-01-2009 06:51:56 2.9 C 4.9 g/m*3 2.9 C 0 km/h
875 23-01-2009 07:03:56 2.7 C 4.95 g/m*3 2.7 C 0 km/h
Sensor: Nr:Datum:Temp:Abs-Feuchte:Windchill:Wind:
Aussen-T/F 876 23-01-2009 07:15:55 2.5 C 4.94 g/m*3 2.5 C 0 km/h
877 23-01-2009 07:27:55 2.5 C 5 g/m*3 2.5 C 0 km/h
878 23-01-2009 07:39:55 2.4 C 4.97 g/m*3 2.4 C 0 km/h
879 23-01-2009 07:51:55 2.5 C 5.06 g/m*3 2.5 C 0 km/h
880 23-01-2009 08:03:55 2.7 C 5.13 g/m*3 2.7 C 0 km/h
881 23-01-2009 08:15:54 2.7 C 5.13 g/m*3 2.7 C 0 km/h
882 23-01-2009 08:27:54 2.7 C 5.19 g/m*3 2.7 C 0 km/h
883 23-01-2009 08:39:55 2.9 C 5.26 g/m*3 2.9 C 0 km/h
884 23-01-2009 08:51:54 2.9 C 5.26 g/m*3 2.9 C 0 km/h
885 23-01-2009 09:03:54 2.9 C 5.32 g/m*3 2.9 C 0 km/h
886 23-01-2009 09:15:55 2.9 C 5.32 g/m*3 2.9 C 0 km/h
887 23-01-2009 09:27:55 3 C 5.29 g/m*3 3 C 0 km/h
888 23-01-2009 09:39:54 3 C 5.35 g/m*3 3 C 0 km/h
889 23-01-2009 09:51:54 3 C 5.35 g/m*3 3 C 0 km/h
890 23-01-2009 10:03:54 3.1 C 5.39 g/m*3 3.1 C 0 km/h
891 23-01-2009 10:15:54 3.1 C 5.39 g/m*3 3.1 C 0 km/h
892 23-01-2009 10:27:54 3.4 C 5.5 g/m*3 3.4 C 0 km/h
893 23-01-2009 10:39:53 3.5 C 5.53 g/m*3 3.5 C 0 km/h
894 23-01-2009 10:51:54 3.4 C 5.5 g/m*3 3.4 C 0 km/h
895 23-01-2009 11:03:54 3.6 C 5.63 g/m*3 3.6 C 0 km/h
896 23-01-2009 11:15:53 4 C 5.72 g/m*3 4 C 0 km/h
897 23-01-2009 11:27:53 4.2 C 5.73 g/m*3 4.2 C 0 km/h
898 23-01-2009 11:39:53 4.1 C 5.7 g/m*3 4.1 C 0 km/h
899 23-01-2009 11:51:53 4.2 C 5.8 g/m*3 4.2 C 0 km/h
900 23-01-2009 12:03:53 4.4 C 5.94 g/m*3 4.4 C 0 km/h
Sensor: Nr:Datum:Temp:Abs-Feuchte:Windchill:Wind:
Aussen-T/F 901 23-01-2009 12:15:52 4.6 C 6.02 g/m*3 4.6 C 0 km/h
902 23-01-2009 12:27:52 5.2 C 6.27 g/m*3 5.2 C 0 km/h
903 23-01-2009 12:39:53 5.4 C 6.35 g/m*3 5.4 C 0 km/h
904 23-01-2009 12:51:52 5.5 C 6.39 g/m*3 5.5 C 0 km/h
905 23-01-2009 13:03:52 5.5 C 6.39 g/m*3 5.5 C 0 km/h
906 23-01-2009 13:15:52 5.4 C 6.35 g/m*3 5.4 C 0 km/h
907 23-01-2009 13:27:52 5.6 C 6.5 g/m*3 5.6 C 0 km/h
908 23-01-2009 13:39:52 5.6 C 6.5 g/m*3 5.6 C 0 km/h
909 23-01-2009 13:51:51 5.6 C 6.5 g/m*3 5.6 C 0 km/h
910 23-01-2009 14:03:52 5.7 C 6.62 g/m*3 5.7 C 0 km/h
911 23-01-2009 14:15:52 5.7 C 6.62 g/m*3 5.7 C 0 km/h
912 23-01-2009 14:27:52 5.5 C 6.53 g/m*3 5.5 C 0 km/h
913 23-01-2009 14:39:51 5.4 C 6.49 g/m*3 5.4 C 0 km/h
914 23-01-2009 14:51:52 5.9 C 6.78 g/m*3 5.9 C 0 km/h
915 23-01-2009 15:03:51 6.5 C 7.05 g/m*3 6.5 C 0 km/h
916 23-01-2009 15:15:51 6.5 C 7.12 g/m*3 6.5 C 0 km/h
917 23-01-2009 15:27:51 6.6 C 7.17 g/m*3 6.6 C 0 km/h
918 23-01-2009 15:39:50 6.5 C 7.05 g/m*3 6.5 C 0 km/h
919 23-01-2009 15:51:51 6.6 C 7.1 g/m*3 6.6 C 0 km/h
920 23-01-2009 16:03:50 6.7 C 7.14 g/m*3 6.7 C 0 km/h
921 23-01-2009 16:15:50 7.1 C 7.18 g/m*3 7.1 C 0 km/h
922 23-01-2009 16:27:50 7.3 C 7.11 g/m*3 7.3 C 0 km/h
923 23-01-2009 16:39:51 7.4 C 6.92 g/m*3 7.4 C 0 km/h
924 23-01-2009 16:51:50 7.3 C 6.56 g/m*3 7.3 C 0 km/h
925 23-01-2009 17:03:50 7.1 C 6.08 g/m*3 7.1 C 0 km/h
Sensor: Nr:Datum:Temp:Abs-Feuchte:Windchill:Wind:
Aussen-T/F 926 23-01-2009 17:15:50 7.2 C 5.81 g/m*3 7.2 C 0 km/h
927 23-01-2009 17:27:50 7 C 5.73 g/m*3 7 C 0 km/h
928 23-01-2009 17:39:50 6.9 C 5.77 g/m*3 6.9 C 0 km/h
929 23-01-2009 17:51:49 6.3 C 5.55 g/m*3 6.3 C 0 km/h
930 23-01-2009 18:03:50 6.2 C 5 g/m*3 6.2 C 0 km/h
931 23-01-2009 18:15:49 6 C 4.72 g/m*3 6 C 0 km/h
932 23-01-2009 18:27:49 5.9 C 4.69 g/m*3 5.9 C 0 km/h
933 23-01-2009 18:39:49 5.6 C 4.52 g/m*3 5.6 C 0 km/h
934 23-01-2009 18:51:49 5.2 C 4.27 g/m*3 5.2 C 0 km/h
935 23-01-2009 19:03:49 5 C 4.28 g/m*3 5 C 0 km/h
936 23-01-2009 19:15:49 4.8 C 4.43 g/m*3 4.8 C 0 km/h
937 23-01-2009 19:27:49 4.5 C 4.47 g/m*3 4.5 C 0 km/h
938 23-01-2009 19:39:48 4.3 C 4.61 g/m*3 4.3 C 0 km/h
939 23-01-2009 19:51:48 4 C 4.58 g/m*3 4 C 0 km/h
940 23-01-2009 20:03:48 3.8 C 4.77 g/m*3 3.8 C 0 km/h
941 23-01-2009 20:15:48 3.5 C 4.8 g/m*3 3.5 C 0 km/h
942 23-01-2009 20:27:48 3.3 C 4.91 g/m*3 3.3 C 0 km/h
943 23-01-2009 20:39:48 3.2 C 4.94 g/m*3 3.2 C 0 km/h
944 23-01-2009 20:51:48 3.3 C 5.04 g/m*3 3.3 C 0 km/h
945 23-01-2009 21:03:48 3.5 C 5.1 g/m*3 3.5 C 0 km/h
946 23-01-2009 21:15:47 3.5 C 4.98 g/m*3 3.5 C 0 km/h
947 23-01-2009 21:27:47 3.5 C 4.92 g/m*3 3.5 C 0 km/h
948 23-01-2009 21:39:48 3.8 C 4.89 g/m*3 3.8 C 0 km/h
949 23-01-2009 21:51:48 3.8 C 4.77 g/m*3 3.8 C 0 km/h
950 23-01-2009 22:03:47 3.8 C 4.77 g/m*3 3.8 C 0 km/h
Sensor: Nr:Datum:Temp:Abs-Feuchte:Windchill:Wind:
Aussen-T/F 951 23-01-2009 22:15:47 4 C 4.64 g/m*3 4 C 0 km/h
952 23-01-2009 22:27:47 4.1 C 4.61 g/m*3 4.1 C 0 km/h
953 23-01-2009 22:39:47 4 C 4.58 g/m*3 4 C 0 km/h
954 23-01-2009 22:51:47 4.1 C 4.61 g/m*3 4.1 C 0 km/h
955 23-01-2009 23:03:46 4.1 C 4.54 g/m*3 4.1 C 0 km/h
956 23-01-2009 23:15:47 4.1 C 4.54 g/m*3 4.1 C 0 km/h
957 23-01-2009 23:27:47 4.1 C 4.48 g/m*3 4.1 C 0 km/h
958 23-01-2009 23:39:46 4.2 C 4.45 g/m*3 4.2 C 0 km/h
959 23-01-2009 23:51:46 4.1 C 4.35 g/m*3 4.1 C 0 km/h
960 24-01-2009 00:03:46 4.2 C 4.25 g/m*3 4.2 C 0 km/h
961 24-01-2009 00:15:46 4.1 C 4.22 g/m*3 4.1 C 0 km/h
962 24-01-2009 00:27:46 4.2 C 4.12 g/m*3 4.2 C 0 km/h
963 24-01-2009 00:39:46 4.2 C 4.06 g/m*3 4.2 C 0 km/h
964 24-01-2009 00:51:45 4.2 C 4.06 g/m*3 4.2 C 0 km/h
965 24-01-2009 01:03:45 4.2 C 3.99 g/m*3 4.2 C 0 km/h
966 24-01-2009 01:15:46 4.2 C 3.99 g/m*3 4.2 C 0 km/h
967 24-01-2009 01:27:46 4.2 C 3.99 g/m*3 4.2 C 0 km/h
968 24-01-2009 01:39:45 4.2 C 3.93 g/m*3 4.2 C 0 km/h
969 24-01-2009 01:51:45 4.1 C 3.97 g/m*3 4.1 C 0 km/h
970 24-01-2009 02:03:45 4.1 C 3.97 g/m*3 4.1 C 0 km/h
971 24-01-2009 02:15:45 4 C 3.94 g/m*3 4 C 0 km/h
972 24-01-2009 02:27:45 3.8 C 4.08 g/m*3 3.8 C 0 km/h
973 24-01-2009 02:39:44 3.8 C 4.08 g/m*3 3.8 C 0 km/h
974 24-01-2009 02:52:46 3.9 C 4.17 g/m*3 3.9 C 0 km/h
975 24-01-2009 03:04:46 3.8 C 4.2 g/m*3 3.8 C 0 km/h
Sensor: Nr:Datum:Temp:Abs-Feuchte:Windchill:Wind:
Aussen-T/F 976 24-01-2009 03:16:46 3.6 C 4.27 g/m*3 3.6 C 0 km/h
977 24-01-2009 03:28:46 3.5 C 4.24 g/m*3 3.5 C 0 km/h
978 24-01-2009 03:40:46 3.5 C 4.3 g/m*3 3.5 C 0 km/h
979 24-01-2009 03:52:46 3.4 C 4.28 g/m*3 3.4 C 0 km/h
980 24-01-2009 04:04:45 3.3 C 4.25 g/m*3 3.3 C 0 km/h
981 24-01-2009 04:16:45 3.2 C 4.28 g/m*3 3.2 C 0 km/h
982 24-01-2009 04:28:45 2.8 C 4.22 g/m*3 2.8 C 0 km/h
983 24-01-2009 04:40:45 2.7 C 4.25 g/m*3 2.7 C 0 km/h
984 24-01-2009 04:52:45 2.7 C 4.2 g/m*3 2.7 C 0 km/h
985 24-01-2009 05:04:45 2.7 C 4.2 g/m*3 2.7 C 0 km/h
986 24-01-2009 05:16:45 2.8 C 4.16 g/m*3 2.8 C 0 km/h
987 24-01-2009 05:28:45 2.7 C 4.2 g/m*3 2.7 C 0 km/h
988 24-01-2009 05:40:44 2.7 C 4.2 g/m*3 2.7 C 0 km/h
989 24-01-2009 05:52:44 2.1 C 4.08 g/m*3 2.1 C 0 km/h
990 24-01-2009 06:04:44 1.8 C 4.17 g/m*3 1.8 C 0 km/h
991 24-01-2009 06:16:44 1.5 C 4.14 g/m*3 1.5 C 0 km/h
992 24-01-2009 06:28:44 1.6 C 4.27 g/m*3 1.6 C 0 km/h
993 24-01-2009 06:40:44 1.6 C 4.27 g/m*3 1.6 C 0 km/h
994 24-01-2009 06:52:43 1.4 C 4.21 g/m*3 1.4 C 0 km/h
995 24-01-2009 07:04:44 1 C 4.15 g/m*3 1 C 0 km/h
996 24-01-2009 07:16:44 0.8 C 4.2 g/m*3 0.8 C 0 km/h
997 24-01-2009 07:28:44 0.7 C 4.22 g/m*3 0.7 C 0 km/h
998 24-01-2009 07:40:43 0.7 C 4.27 g/m*3 0.7 C 0 km/h
999 24-01-2009 07:52:44 0.5 C 4.21 g/m*3 0.5 C 0 km/h
1000 24-01-2009 08:04:43 0.5 C 4.26 g/m*3 0.5 C 0 km/h
Sensor: Nr:Datum:Temp:Abs-Feuchte:Windchill:Wind:
Aussen-T/F 1001 24-01-2009 08:16:43 0.5 C 4.26 g/m*3 0.5 C 0 km/h
1002 24-01-2009 08:28:43 0.6 C 4.29 g/m*3 0.6 C 0 km/h
1003 24-01-2009 08:40:43 0.8 C 4.35 g/m*3 0.8 C 0 km/h
1004 24-01-2009 08:52:43 0.8 C 4.35 g/m*3 0.8 C 0 km/h
1005 24-01-2009 09:04:43 0.8 C 4.35 g/m*3 0.8 C 0 km/h
1006 24-01-2009 09:16:43 0.9 C 4.38 g/m*3 0.9 C 0 km/h
1007 24-01-2009 09:28:43 0.8 C 4.35 g/m*3 0.8 C 0 km/h
1008 24-01-2009 09:40:42 0.7 C 4.32 g/m*3 0.7 C 0 km/h
1009 24-01-2009 09:52:43 0.7 C 4.32 g/m*3 0.7 C 0 km/h
1010 24-01-2009 10:04:42 0.7 C 4.37 g/m*3 0.7 C 0 km/h
1011 24-01-2009 10:16:42 0.9 C 4.43 g/m*3 0.9 C 0 km/h
1012 24-01-2009 10:28:42 1 C 4.46 g/m*3 1 C 0 km/h
1013 24-01-2009 10:40:41 1.3 C 4.56 g/m*3 1.3 C 0 km/h
1014 24-01-2009 10:52:42 1.4 C 4.59 g/m*3 1.4 C 0 km/h
1015 24-01-2009 11:04:41 1.6 C 4.65 g/m*3 1.6 C 0 km/h
1016 24-01-2009 11:16:41 1.9 C 4.69 g/m*3 1.9 C 0 km/h
1017 24-01-2009 11:28:42 2.2 C 4.62 g/m*3 2.2 C 0 km/h
1018 24-01-2009 11:40:41 2.4 C 4.45 g/m*3 2.4 C 0 km/h
1019 24-01-2009 11:52:41 2.7 C 4.43 g/m*3 2.7 C 0 km/h
1020 24-01-2009 12:04:41 3.1 C 4.37 g/m*3 3.1 C 0 km/h
1021 24-01-2009 12:16:41 3.7 C 4.42 g/m*3 3.7 C 0 km/h
1022 24-01-2009 12:28:41 4.4 C 4.24 g/m*3 4.4 C 0 km/h
1023 24-01-2009 12:40:40 4.6 C 3.97 g/m*3 4.6 C 0 km/h
1024 24-01-2009 12:52:41 4.6 C 3.9 g/m*3 4.6 C 0 km/h
1025 24-01-2009 13:04:40 4.8 C 3.96 g/m*3 4.8 C 0 km/h
Sensor: Nr:Datum:Temp:Abs-Feuchte:Windchill:Wind:
Aussen-T/F 1026 24-01-2009 13:16:40 5.3 C 3.95 g/m*3 5.3 C 0 km/h
1027 24-01-2009 13:28:40 4.9 C 4.05 g/m*3 4.9 C 0 km/h
1028 24-01-2009 13:40:40 4.7 C 4.06 g/m*3 4.7 C 0 km/h
1029 24-01-2009 13:52:40 4.8 C 4.16 g/m*3 4.8 C 0 km/h
1030 24-01-2009 14:04:40 4.7 C 4.13 g/m*3 4.7 C 0 km/h
1031 24-01-2009 14:16:39 4.7 C 4.2 g/m*3 4.7 C 0 km/h
1032 24-01-2009 14:28:39 4.6 C 4.1 g/m*3 4.6 C 0 km/h
1033 24-01-2009 14:40:40 4.6 C 4.1 g/m*3 4.6 C 0 km/h
1034 24-01-2009 14:52:39 4.7 C 4.2 g/m*3 4.7 C 0 km/h
1035 24-01-2009 15:04:39 4.8 C 4.16 g/m*3 4.8 C 0 km/h
1036 24-01-2009 15:16:40 5.1 C 4.17 g/m*3 5.1 C 0 km/h
1037 24-01-2009 15:28:40 5.4 C 4.26 g/m*3 5.4 C 0 km/h
1038 24-01-2009 15:40:40 5.4 C 3.84 g/m*3 5.4 C 0 km/h
1039 24-01-2009 15:52:40 5.1 C 3.83 g/m*3 5.1 C 0 km/h
1040 24-01-2009 16:04:42 4.9 C 3.92 g/m*3 4.9 C 0 km/h
1041 24-01-2009 16:16:39 4.7 C 3.93 g/m*3 4.7 C 0 km/h
1042 24-01-2009 16:28:39 4.6 C 4.04 g/m*3 4.6 C 0 km/h
1043 24-01-2009 16:40:38 4.4 C 4.11 g/m*3 4.4 C 0 km/h
1044 24-01-2009 16:52:04 4.3 C 4.15 g/m*3 4.3 C 0 km/h
1045 24-01-2009 17:04:04 4.2 C 4.19 g/m*3 4.2 C 0 km/h
1046 24-01-2009 17:16:01 4.1 C 4.22 g/m*3 4.1 C 0 km/h
1047 24-01-2009 17:28:01 4 C 4.26 g/m*3 4 C 0 km/h
1048 24-01-2009 17:40:02 4 C 4.32 g/m*3 4 C 0 km/h
1049 24-01-2009 17:52:01 3.9 C 4.36 g/m*3 3.9 C 0 km/h
1050 24-01-2009 18:04:01 3.9 C 4.42 g/m*3 3.9 C 0 km/h
Sensor: Nr:Datum:Temp:Abs-Feuchte:Windchill:Wind:
Aussen-T/F 1051 24-01-2009 18:16:01 3.8 C 4.45 g/m*3 3.8 C 0 km/h
1052 24-01-2009 18:28:01 3.8 C 4.45 g/m*3 3.8 C 0 km/h
1053 24-01-2009 18:40:01 3.8 C 4.45 g/m*3 3.8 C 0 km/h
1054 24-01-2009 18:52:00 3.8 C 4.45 g/m*3 3.8 C 0 km/h
1055 24-01-2009 19:04:01 3.8 C 4.39 g/m*3 3.8 C 0 km/h
1056 24-01-2009 19:16:00 3.7 C 4.42 g/m*3 3.7 C 0 km/h
1057 24-01-2009 19:28:00 3.7 C 4.49 g/m*3 3.7 C 0 km/h
1058 24-01-2009 19:40:00 3.6 C 4.46 g/m*3 3.6 C 0 km/h
1059 24-01-2009 19:52:00 3.3 C 4.31 g/m*3 3.3 C 0 km/h
1060 24-01-2009 20:04:00 3 C 4.34 g/m*3 3 C 0 km/h
1061 24-01-2009 20:15:59 2.8 C 4.4 g/m*3 2.8 C 0 km/h
1062 24-01-2009 20:27:59 3 C 4.46 g/m*3 3 C 0 km/h
1063 24-01-2009 20:40:00 3.1 C 4.49 g/m*3 3.1 C 0 km/h
1064 24-01-2009 20:52:59 3.2 C 4.46 g/m*3 3.2 C 0 km/h
1065 24-01-2009 21:04:00 3.2 C 4.46 g/m*3 3.2 C 0 km/h
1066 24-01-2009 21:16:59 3 C 4.4 g/m*3 3 C 0 km/h
1067 24-01-2009 21:28:59 3.1 C 4.43 g/m*3 3.1 C 0 km/h
1068 24-01-2009 21:40:59 3.2 C 4.4 g/m*3 3.2 C 0 km/h
1069 24-01-2009 21:52:59 3.3 C 4.43 g/m*3 3.3 C 0 km/h
1070 24-01-2009 22:05:00 3.2 C 4.4 g/m*3 3.2 C 0 km/h
1071 24-01-2009 22:17:00 3 C 4.34 g/m*3 3 C 0 km/h
1072 24-01-2009 22:29:00 3 C 4.4 g/m*3 3 C 0 km/h
1073 24-01-2009 22:41:00 3 C 4.4 g/m*3 3 C 0 km/h
1074 24-01-2009 22:53:00 3 C 4.4 g/m*3 3 C 0 km/h
1075 24-01-2009 23:05:00 2.8 C 4.4 g/m*3 2.8 C 0 km/h
Sensor: Nr:Datum:Temp:Abs-Feuchte:Windchill:Wind:
Aussen-T/F 1076 24-01-2009 23:17:00 2.8 C 4.46 g/m*3 2.8 C 0 km/h
1077 24-01-2009 23:29:00 2.7 C 4.43 g/m*3 2.7 C 0 km/h
1078 24-01-2009 23:41:00 2.6 C 4.4 g/m*3 2.6 C 0 km/h
1079 24-01-2009 23:53:00 2.6 C 4.4 g/m*3 2.6 C 0 km/h
1080 25-01-2009 00:05:00 2.4 C 4.34 g/m*3 2.4 C 0 km/h
1081 25-01-2009 00:17:00 2.2 C 4.34 g/m*3 2.2 C 0 km/h
1082 25-01-2009 00:29:00 2.1 C 4.31 g/m*3 2.1 C 0 km/h
1083 25-01-2009 00:41:00 1.8 C 4.33 g/m*3 1.8 C 0 km/h
1084 25-01-2009 00:53:00 1.6 C 4.33 g/m*3 1.6 C 0 km/h
1085 25-01-2009 01:05:00 1.4 C 4.32 g/m*3 1.4 C 0 km/h
1086 25-01-2009 01:17:00 1.2 C 4.37 g/m*3 1.2 C 0 km/h
1087 25-01-2009 01:29:01 1 C 4.31 g/m*3 1 C 0 km/h
1088 25-01-2009 01:41:01 0.7 C 4.27 g/m*3 0.7 C 0 km/h
1089 25-01-2009 01:53:01 0.7 C 4.32 g/m*3 0.7 C 0 km/h
1090 25-01-2009 02:05:01 0.6 C 4.34 g/m*3 0.6 C 0 km/h
1091 25-01-2009 02:17:01 0.5 C 4.31 g/m*3 0.5 C 0 km/h
1092 25-01-2009 02:29:01 0.3 C 4.25 g/m*3 0.3 C 0 km/h
1093 25-01-2009 02:41:01 0.3 C 4.3 g/m*3 0.3 C 0 km/h
1094 25-01-2009 02:53:01 0.3 C 4.3 g/m*3 0.3 C 0 km/h
1095 25-01-2009 03:05:01 0.3 C 4.3 g/m*3 0.3 C 0 km/h
1096 25-01-2009 03:17:01 0.2 C 4.32 g/m*3 0.2 C 0 km/h
1097 25-01-2009 03:29:01 0.2 C 4.32 g/m*3 0.2 C 0 km/h
1098 25-01-2009 03:41:01 0.1 C 4.29 g/m*3 0.1 C 0 km/h
1099 25-01-2009 03:53:01 -0.1 C 4.23 g/m*3 -0.1 C 0 km/h
1100 25-01-2009 04:05:01 -0.2 C 4.21 g/m*3 -0.2 C 0 km/h
Sensor: Nr:Datum:Temp:Abs-Feuchte:Windchill:Wind:
Aussen-T/F 1101 25-01-2009 04:17:01 -0.7 C 4.06 g/m*3 -0.7 C 0 km/h
1102 25-01-2009 04:29:01 -0.9 C 4.01 g/m*3 -0.9 C 0 km/h
1103 25-01-2009 04:41:01 -1.2 C 3.92 g/m*3 -1.2 C 0 km/h
1104 25-01-2009 04:53:01 -1.5 C 3.84 g/m*3 -1.5 C 0 km/h
1105 25-01-2009 05:05:01 -1.4 C 3.87 g/m*3 -1.4 C 0 km/h
1106 25-01-2009 05:17:02 -1.6 C 3.86 g/m*3 -1.6 C 0 km/h
1107 25-01-2009 05:29:02 -1.7 C 3.83 g/m*3 -1.7 C 0 km/h
1108 25-01-2009 05:41:02 -1.8 C 3.8 g/m*3 -1.8 C 0 km/h
1109 25-01-2009 05:53:02 -1.2 C 4.01 g/m*3 -1.2 C 0 km/h
1110 25-01-2009 06:05:02 -1.1 C 4.09 g/m*3 -1.1 C 0 km/h
1111 25-01-2009 06:17:02 -1 C 4.11 g/m*3 -1 C 0 km/h
1112 25-01-2009 06:29:02 -0.9 C 4.19 g/m*3 -0.9 C 0 km/h
1113 25-01-2009 06:41:02 -0.8 C 4.22 g/m*3 -0.8 C 0 km/h
1114 25-01-2009 06:53:02 -1 C 4.16 g/m*3 -1 C 0 km/h
1115 25-01-2009 07:05:02 -1.1 C 4.09 g/m*3 -1.1 C 0 km/h
1116 25-01-2009 07:17:02 -1.2 C 4.06 g/m*3 -1.2 C 0 km/h
1117 25-01-2009 07:29:02 -1.4 C 4 g/m*3 -1.4 C 0 km/h
1118 25-01-2009 07:41:02 -1.5 C 3.97 g/m*3 -1.5 C 0 km/h
1119 25-01-2009 07:53:02 -1.7 C 3.92 g/m*3 -1.7 C 0 km/h
1120 25-01-2009 08:05:02 -1.8 C 3.89 g/m*3 -1.8 C 0 km/h
1121 25-01-2009 08:17:02 -1.6 C 3.99 g/m*3 -1.6 C 0 km/h
1122 25-01-2009 08:29:02 -1.9 C 3.86 g/m*3 -1.9 C 0 km/h
1123 25-01-2009 08:41:02 -1.8 C 3.93 g/m*3 -1.8 C 0 km/h
1124 25-01-2009 08:53:59 -1.7 C 3.96 g/m*3 -1.7 C 0 km/h
1125 25-01-2009 09:05:59 -1.7 C 3.96 g/m*3 -1.7 C 0 km/h
Sensor: Nr:Datum:Temp:Abs-Feuchte:Windchill:Wind:
Aussen-T/F 1126 25-01-2009 09:17:58 -1.6 C 3.99 g/m*3 -1.6 C 0 km/h
1127 25-01-2009 09:29:58 -1.5 C 4.02 g/m*3 -1.5 C 0 km/h
1128 25-01-2009 09:41:59 -1.3 C 4.07 g/m*3 -1.3 C 0 km/h
1129 25-01-2009 09:53:58 -1.5 C 4.02 g/m*3 -1.5 C 0 km/h
1130 25-01-2009 10:05:59 -1.4 C 4.04 g/m*3 -1.4 C 0 km/h
1131 25-01-2009 10:17:59 -1.3 C 4.07 g/m*3 -1.3 C 0 km/h
1132 25-01-2009 10:29:59 -1.2 C 4.1 g/m*3 -1.2 C 0 km/h
1133 25-01-2009 10:41:58 -1 C 4.16 g/m*3 -1 C 0 km/h
1134 25-01-2009 10:53:59 -0.8 C 4.26 g/m*3 -0.8 C 0 km/h
1135 25-01-2009 11:05:58 -0.6 C 4.32 g/m*3 -0.6 C 0 km/h
1136 25-01-2009 11:17:58 -0.5 C 4.31 g/m*3 -0.5 C 0 km/h
1137 25-01-2009 11:29:58 -0.4 C 4.34 g/m*3 -0.4 C 0 km/h
1138 25-01-2009 11:41:57 -0.2 C 4.44 g/m*3 -0.2 C 0 km/h
1139 25-01-2009 11:53:58 0.3 C 4.6 g/m*3 0.3 C 0 km/h
1140 25-01-2009 12:05:57 0.5 C 4.66 g/m*3 0.5 C 0 km/h
1141 25-01-2009 12:17:57 1 C 4.78 g/m*3 1 C 0 km/h
1142 25-01-2009 12:29:57 1.5 C 4.89 g/m*3 1.5 C 0 km/h
1143 25-01-2009 12:41:57 1.9 C 4.91 g/m*3 1.9 C 0 km/h
1144 25-01-2009 12:53:57 2.4 C 4.97 g/m*3 2.4 C 0 km/h
1145 25-01-2009 13:05:57 3 C 4.93 g/m*3 3 C 0 km/h
1146 25-01-2009 13:17:56 3.1 C 4.67 g/m*3 3.1 C 0 km/h
1147 25-01-2009 13:29:56 3 C 4.34 g/m*3 3 C 0 km/h
1148 25-01-2009 13:41:57 3.4 C 4.46 g/m*3 3.4 C 0 km/h
1149 25-01-2009 13:53:56 3.9 C 4.29 g/m*3 3.9 C 0 km/h
1150 25-01-2009 14:05:56 4.2 C 3.99 g/m*3 4.2 C 0 km/h
Sensor: Nr:Datum:Temp:Abs-Feuchte:Windchill:Wind:
Aussen-T/F 1151 25-01-2009 14:17:57 4.5 C 3.94 g/m*3 4.5 C 0 km/h
1152 25-01-2009 14:29:57 5 C 3.87 g/m*3 5 C 0 km/h
1153 25-01-2009 14:41:56 5.4 C 3.7 g/m*3 5.4 C 0 km/h
1154 25-01-2009 14:53:56 5.4 C 3.56 g/m*3 5.4 C 0 km/h
1155 25-01-2009 15:05:56 5.2 C 3.51 g/m*3 5.2 C 0 km/h
1156 25-01-2009 15:17:56 5.3 C 3.53 g/m*3 5.3 C 0 km/h
1157 25-01-2009 15:29:56 4.6 C 3.57 g/m*3 4.6 C 0 km/h
1158 25-01-2009 15:41:55 3.6 C 3.65 g/m*3 3.6 C 0 km/h
1159 25-01-2009 15:53:55 3.2 C 3.74 g/m*3 3.2 C 0 km/h
1160 25-01-2009 16:05:55 2.8 C 3.81 g/m*3 2.8 C 0 km/h
1161 25-01-2009 16:17:55 2.6 C 3.82 g/m*3 2.6 C 0 km/h
1162 25-01-2009 16:29:55 2.3 C 3.8 g/m*3 2.3 C 0 km/h
1163 25-01-2009 16:41:55 2.1 C 3.8 g/m*3 2.1 C 0 km/h
1164 25-01-2009 16:53:55 1.8 C 3.89 g/m*3 1.8 C 0 km/h
1165 25-01-2009 17:05:54 1.6 C 3.89 g/m*3 1.6 C 0 km/h
1166 25-01-2009 17:17:55 1.3 C 3.87 g/m*3 1.3 C 0 km/h
1167 25-01-2009 17:29:55 1 C 3.89 g/m*3 1 C 0 km/h
1168 25-01-2009 17:41:54 0.7 C 3.92 g/m*3 0.7 C 0 km/h
1169 25-01-2009 17:53:55 0.4 C 3.88 g/m*3 0.4 C 0 km/h
1170 25-01-2009 18:05:54 0 C 3.78 g/m*3 0 C 0 km/h
1171 25-01-2009 18:17:54 -0.3 C 3.8 g/m*3 -0.3 C 0 km/h
1172 25-01-2009 18:29:54 -0.4 C 3.82 g/m*3 -0.4 C 0 km/h
1173 25-01-2009 18:41:54 -0.5 C 3.79 g/m*3 -0.5 C 0 km/h
1174 25-01-2009 18:53:53 -0.5 C 3.88 g/m*3 -0.5 C 0 km/h
1175 25-01-2009 19:05:54 -0.6 C 3.86 g/m*3 -0.6 C 0 km/h
Sensor: Nr:Datum:Temp:Abs-Feuchte:Windchill:Wind:
Aussen-T/F 1176 25-01-2009 19:17:53 -0.7 C 3.88 g/m*3 -0.7 C 0 km/h
1177 25-01-2009 19:29:53 -0.8 C 3.85 g/m*3 -0.8 C 0 km/h
1178 25-01-2009 19:41:53 -0.9 C 3.82 g/m*3 -0.9 C 0 km/h
1179 25-01-2009 19:53:53 -1.1 C 3.82 g/m*3 -1.1 C 0 km/h
1180 25-01-2009 20:05:53 -1.2 C 3.79 g/m*3 -1.2 C 0 km/h
1181 25-01-2009 20:17:53 -1.3 C 3.81 g/m*3 -1.3 C 0 km/h
1182 25-01-2009 20:29:53 -1.3 C 3.85 g/m*3 -1.3 C 0 km/h
1183 25-01-2009 20:41:53 -1.3 C 3.85 g/m*3 -1.3 C 0 km/h
1184 25-01-2009 20:53:53 -1.3 C 3.85 g/m*3 -1.3 C 0 km/h
1185 25-01-2009 21:05:52 -1.5 C 3.84 g/m*3 -1.5 C 0 km/h
1186 25-01-2009 21:17:53 -1.5 C 3.84 g/m*3 -1.5 C 0 km/h
1187 25-01-2009 21:29:53 -1.6 C 3.81 g/m*3 -1.6 C 0 km/h
1188 25-01-2009 21:41:52 -1.7 C 3.79 g/m*3 -1.7 C 0 km/h
1189 25-01-2009 21:53:52 -1.6 C 3.81 g/m*3 -1.6 C 0 km/h
1190 25-01-2009 22:05:52 -1.7 C 3.83 g/m*3 -1.7 C 0 km/h
1191 25-01-2009 22:17:52 -1.8 C 3.8 g/m*3 -1.8 C 0 km/h
1192 25-01-2009 22:29:52 -1.9 C 3.78 g/m*3 -1.9 C 0 km/h
1193 25-01-2009 22:41:51 -1.8 C 3.8 g/m*3 -1.8 C 0 km/h
1194 25-01-2009 22:54:53 -1.9 C 3.78 g/m*3 -1.9 C 0 km/h
1195 25-01-2009 23:06:53 -1.8 C 3.85 g/m*3 -1.8 C 0 km/h
1196 25-01-2009 23:18:53 -1.9 C 3.82 g/m*3 -1.9 C 0 km/h
1197 25-01-2009 23:30:53 -1.9 C 3.82 g/m*3 -1.9 C 0 km/h
1198 25-01-2009 23:42:53 -2 C 3.79 g/m*3 -2 C 0 km/h
1199 25-01-2009 23:54:53 -2.1 C 3.77 g/m*3 -2.1 C 0 km/h
1200 26-01-2009 00:06:53 -2.2 C 3.74 g/m*3 -2.2 C 0 km/h
Sensor: Nr:Datum:Temp:Abs-Feuchte:Windchill:Wind:
Aussen-T/F 1201 26-01-2009 00:18:53 -2.4 C 3.69 g/m*3 -2.4 C 0 km/h
1202 26-01-2009 00:30:53 -2.4 C 3.69 g/m*3 -2.4 C 0 km/h
1203 26-01-2009 00:42:53 -2.5 C 3.62 g/m*3 -2.5 C 0 km/h
1204 26-01-2009 00:54:53 -2.5 C 3.66 g/m*3 -2.5 C 0 km/h
1205 26-01-2009 01:06:53 -2.5 C 3.66 g/m*3 -2.5 C 0 km/h
1206 26-01-2009 01:18:53 -2.7 C 3.57 g/m*3 -2.7 C 0 km/h
1207 26-01-2009 01:30:53 -2.9 C 3.52 g/m*3 -2.9 C 0 km/h
1208 26-01-2009 01:42:53 -3 C 3.5 g/m*3 -3 C 0 km/h
1209 26-01-2009 01:54:53 -3.1 C 3.47 g/m*3 -3.1 C 0 km/h
1210 26-01-2009 02:06:53 -3.2 C 3.45 g/m*3 -3.2 C 0 km/h
1211 26-01-2009 02:18:53 -3.2 C 3.45 g/m*3 -3.2 C 0 km/h
1212 26-01-2009 02:30:54 -3.3 C 3.42 g/m*3 -3.3 C 0 km/h
1213 26-01-2009 02:42:54 -3.2 C 3.49 g/m*3 -3.2 C 0 km/h
1214 26-01-2009 02:54:54 -3.2 C 3.49 g/m*3 -3.2 C 0 km/h
1215 26-01-2009 03:06:54 -3.2 C 3.49 g/m*3 -3.2 C 0 km/h
1216 26-01-2009 03:18:54 -3.3 C 3.46 g/m*3 -3.3 C 0 km/h
1217 26-01-2009 03:30:54 -3.4 C 3.47 g/m*3 -3.4 C 0 km/h
1218 26-01-2009 03:42:54 -3.4 C 3.47 g/m*3 -3.4 C 0 km/h
1219 26-01-2009 03:54:54 -3.4 C 3.47 g/m*3 -3.4 C 0 km/h
1220 26-01-2009 04:06:54 -3.5 C 3.45 g/m*3 -3.5 C 0 km/h
1221 26-01-2009 04:18:54 -3.8 C 3.38 g/m*3 -3.8 C 0 km/h
1222 26-01-2009 04:30:54 -3.7 C 3.4 g/m*3 -3.7 C 0 km/h
1223 26-01-2009 04:42:54 -3.8 C 3.38 g/m*3 -3.8 C 0 km/h
1224 26-01-2009 04:54:54 -3.8 C 3.38 g/m*3 -3.8 C 0 km/h
1225 26-01-2009 05:06:54 -3.8 C 3.38 g/m*3 -3.8 C 0 km/h
Sensor: Nr:Datum:Temp:Abs-Feuchte:Windchill:Wind:
Aussen-T/F 1226 26-01-2009 05:18:54 -3.9 C 3.39 g/m*3 -3.9 C 0 km/h
1227 26-01-2009 05:30:54 -3.7 C 3.44 g/m*3 -3.7 C 0 km/h
1228 26-01-2009 05:42:54 -3.7 C 3.44 g/m*3 -3.7 C 0 km/h
1229 26-01-2009 05:54:54 -3.6 C 3.46 g/m*3 -3.6 C 0 km/h
1230 26-01-2009 06:06:54 -3.5 C 3.49 g/m*3 -3.5 C 0 km/h
1231 26-01-2009 06:18:55 -3.4 C 3.55 g/m*3 -3.4 C 0 km/h
1232 26-01-2009 06:30:55 -3.4 C 3.55 g/m*3 -3.4 C 0 km/h
1233 26-01-2009 06:42:55 -3.4 C 3.55 g/m*3 -3.4 C 0 km/h
1234 26-01-2009 06:54:55 -3.3 C 3.58 g/m*3 -3.3 C 0 km/h
1235 26-01-2009 07:06:52 -3.4 C 3.55 g/m*3 -3.4 C 0 km/h
1236 26-01-2009 07:18:53 -3.3 C 3.58 g/m*3 -3.3 C 0 km/h
1237 26-01-2009 07:30:52 -3.4 C 3.55 g/m*3 -3.4 C 0 km/h
1238 26-01-2009 07:42:52 -3.5 C 3.53 g/m*3 -3.5 C 0 km/h
1239 26-01-2009 07:54:52 -3.5 C 3.53 g/m*3 -3.5 C 0 km/h
1240 26-01-2009 08:06:52 -3.4 C 3.59 g/m*3 -3.4 C 0 km/h
1241 26-01-2009 08:18:52 -3.3 C 3.61 g/m*3 -3.3 C 0 km/h
1242 26-01-2009 08:30:52 -3.4 C 3.59 g/m*3 -3.4 C 0 km/h
1243 26-01-2009 08:42:52 -3.4 C 3.59 g/m*3 -3.4 C 0 km/h
1244 26-01-2009 08:54:52 -3.4 C 3.59 g/m*3 -3.4 C 0 km/h
1245 26-01-2009 09:06:52 -3.1 C 3.67 g/m*3 -3.1 C 0 km/h
1246 26-01-2009 09:18:51 -3.1 C 3.67 g/m*3 -3.1 C 0 km/h
1247 26-01-2009 09:30:51 -3.1 C 3.67 g/m*3 -3.1 C 0 km/h
1248 26-01-2009 09:42:51 -3.1 C 3.67 g/m*3 -3.1 C 0 km/h
1249 26-01-2009 09:54:51 -2.9 C 3.72 g/m*3 -2.9 C 0 km/h
1250 26-01-2009 10:06:51 -2.6 C 3.8 g/m*3 -2.6 C 0 km/h
Sensor: Nr:Datum:Temp:Abs-Feuchte:Windchill:Wind:
Aussen-T/F 1251 26-01-2009 10:18:50 -2.2 C 3.91 g/m*3 -2.2 C 0 km/h
1252 26-01-2009 10:30:51 -2 C 3.96 g/m*3 -2 C 0 km/h
1253 26-01-2009 10:42:51 -1.7 C 4.05 g/m*3 -1.7 C 0 km/h
1254 26-01-2009 10:54:50 -1.5 C 4.1 g/m*3 -1.5 C 0 km/h
1255 26-01-2009 11:06:50 -1.6 C 4.03 g/m*3 -1.6 C 0 km/h
1256 26-01-2009 11:18:51 -1.8 C 3.93 g/m*3 -1.8 C 0 km/h
1257 26-01-2009 11:30:50 -1.9 C 3.82 g/m*3 -1.9 C 0 km/h
1258 26-01-2009 11:42:50 -1.6 C 3.9 g/m*3 -1.6 C 0 km/h
1259 26-01-2009 11:54:50 -1.1 C 4.04 g/m*3 -1.1 C 0 km/h
1260 26-01-2009 12:06:50 -0.4 C 4.19 g/m*3 -0.4 C 0 km/h
1261 26-01-2009 12:18:50 -0.1 C 4.23 g/m*3 -0.1 C 0 km/h
1262 26-01-2009 12:30:49 0.3 C 4.3 g/m*3 0.3 C 0 km/h
1263 26-01-2009 12:42:49 0 C 4.07 g/m*3 0 C 0 km/h
1264 26-01-2009 12:54:50 0.1 C 4.05 g/m*3 0.1 C 0 km/h
1265 26-01-2009 13:06:50 0.5 C 4.16 g/m*3 0.5 C 0 km/h
1266 26-01-2009 13:18:50 0.7 C 4.17 g/m*3 0.7 C 0 km/h
1267 26-01-2009 13:30:52 0.6 C 4.14 g/m*3 0.6 C 0 km/h
1268 26-01-2009 13:42:52 0.6 C 4.14 g/m*3 0.6 C 0 km/h
1269 26-01-2009 13:54:49 1 C 4.26 g/m*3 1 C 0 km/h
1270 26-01-2009 14:06:48 1.3 C 4.34 g/m*3 1.3 C 0 km/h
1271 26-01-2009 14:18:49 1.3 C 4.24 g/m*3 1.3 C 0 km/h
1272 26-01-2009 14:30:49 1.2 C 4.21 g/m*3 1.2 C 0 km/h
1273 26-01-2009 14:42:49 1.1 C 4.18 g/m*3 1.1 C 0 km/h
1274 26-01-2009 14:54:48 1.2 C 4.21 g/m*3 1.2 C 0 km/h
1275 26-01-2009 15:06:49 1.3 C 4.24 g/m*3 1.3 C 0 km/h
Sensor: Nr:Datum:Temp:Abs-Feuchte:Windchill:Wind:
Aussen-T/F 1276 26-01-2009 15:18:48 1.2 C 4.21 g/m*3 1.2 C 0 km/h
1277 26-01-2009 15:30:48 1.1 C 4.18 g/m*3 1.1 C 0 km/h
1278 26-01-2009 15:42:48 1 C 4.2 g/m*3 1 C 0 km/h
1279 26-01-2009 15:54:48 0.9 C 4.23 g/m*3 0.9 C 0 km/h
1280 26-01-2009 16:06:47 0.7 C 4.17 g/m*3 0.7 C 0 km/h
1281 26-01-2009 16:18:48 0.4 C 4.08 g/m*3 0.4 C 0 km/h
1282 26-01-2009 16:30:47 0.2 C 4.03 g/m*3 0.2 C 0 km/h
1283 26-01-2009 16:42:47 -0.2 C 3.92 g/m*3 -0.2 C 0 km/h
1284 26-01-2009 16:54:27 -0.5 C 3.84 g/m*3 -0.5 C 0 km/h
1285 26-01-2009 17:06:02 -0.8 C 3.76 g/m*3 -0.8 C 0 km/h
1286 26-01-2009 17:18:02 -1 C 3.75 g/m*3 -1 C 0 km/h
1287 26-01-2009 17:30:02 -1.4 C 3.69 g/m*3 -1.4 C 0 km/h
1288 26-01-2009 17:42:02 -1.7 C 3.62 g/m*3 -1.7 C 0 km/h
1289 26-01-2009 17:54:02 -1.8 C 3.63 g/m*3 -1.8 C 0 km/h
1290 26-01-2009 18:06:01 -1.8 C 3.72 g/m*3 -1.8 C 0 km/h
1291 26-01-2009 18:18:01 -1.9 C 3.69 g/m*3 -1.9 C 0 km/h
1292 26-01-2009 18:30:01 -2 C 3.67 g/m*3 -2 C 0 km/h
1293 26-01-2009 18:42:01 -2 C 3.71 g/m*3 -2 C 0 km/h
1294 26-01-2009 18:54:01 -2.1 C 3.68 g/m*3 -2.1 C 0 km/h
1295 26-01-2009 19:06:00 -2.1 C 3.68 g/m*3 -2.1 C 0 km/h
1296 26-01-2009 19:18:01 -2.3 C 3.63 g/m*3 -2.3 C 0 km/h
1297 26-01-2009 19:30:02 -2.4 C 3.61 g/m*3 -2.4 C 0 km/h
1298 26-01-2009 19:42:00 -2.3 C 3.63 g/m*3 -2.3 C 0 km/h
1299 26-01-2009 19:54:00 -2.6 C 3.56 g/m*3 -2.6 C 0 km/h
1300 26-01-2009 20:06:00 -2.6 C 3.56 g/m*3 -2.6 C 0 km/h
Sensor: Nr:Datum:Temp:Abs-Feuchte:Windchill:Wind:
Aussen-T/F 1301 26-01-2009 20:18:00 -2.6 C 3.56 g/m*3 -2.6 C 0 km/h
1302 26-01-2009 20:30:00 -2.8 C 3.51 g/m*3 -2.8 C 0 km/h
1303 26-01-2009 20:42:00 -3 C 3.46 g/m*3 -3 C 0 km/h
1304 26-01-2009 20:54:00 -2.9 C 3.48 g/m*3 -2.9 C 0 km/h
1305 26-01-2009 21:06:00 -3.1 C 3.43 g/m*3 -3.1 C 0 km/h
1306 26-01-2009 21:18:59 -3.3 C 3.38 g/m*3 -3.3 C 0 km/h
1307 26-01-2009 21:29:59 -3.2 C 3.41 g/m*3 -3.2 C 0 km/h
1308 26-01-2009 21:41:59 -3.3 C 3.38 g/m*3 -3.3 C 0 km/h
1309 26-01-2009 21:55:00 -3.3 C 3.42 g/m*3 -3.3 C 0 km/h
1310 26-01-2009 22:07:00 -3.2 C 3.45 g/m*3 -3.2 C 0 km/h
1311 26-01-2009 22:19:00 -3.4 C 3.4 g/m*3 -3.4 C 0 km/h
1312 26-01-2009 22:31:00 -3.7 C 3.33 g/m*3 -3.7 C 0 km/h
1313 26-01-2009 22:43:00 -3.8 C 3.3 g/m*3 -3.8 C 0 km/h
1314 26-01-2009 22:55:00 -3.9 C 3.28 g/m*3 -3.9 C 0 km/h
1315 26-01-2009 23:07:00 -3.8 C 3.3 g/m*3 -3.8 C 0 km/h
1316 26-01-2009 23:19:01 -3.8 C 3.3 g/m*3 -3.8 C 0 km/h
1317 26-01-2009 23:31:01 -3.7 C 3.33 g/m*3 -3.7 C 0 km/h
1318 26-01-2009 23:43:01 -3.8 C 3.3 g/m*3 -3.8 C 0 km/h
1319 26-01-2009 23:55:01 -3.8 C 3.34 g/m*3 -3.8 C 0 km/h
1320 27-01-2009 00:07:01 -3.8 C 3.34 g/m*3 -3.8 C 0 km/h
1321 27-01-2009 00:19:01 -3.9 C 3.32 g/m*3 -3.9 C 0 km/h
1322 27-01-2009 00:31:01 -3.8 C 3.34 g/m*3 -3.8 C 0 km/h
1323 27-01-2009 00:43:01 -3.8 C 3.34 g/m*3 -3.8 C 0 km/h
1324 27-01-2009 00:55:01 -3.7 C 3.36 g/m*3 -3.7 C 0 km/h
1325 27-01-2009 01:07:01 -3.7 C 3.4 g/m*3 -3.7 C 0 km/h
Sensor: Nr:Datum:Temp:Abs-Feuchte:Windchill:Wind:
Aussen-T/F 1326 27-01-2009 01:19:01 -3.6 C 3.43 g/m*3 -3.6 C 0 km/h
1327 27-01-2009 01:31:01 -3.6 C 3.43 g/m*3 -3.6 C 0 km/h
1328 27-01-2009 01:43:01 -3.7 C 3.4 g/m*3 -3.7 C 0 km/h
1329 27-01-2009 01:55:01 -3.8 C 3.38 g/m*3 -3.8 C 0 km/h
1330 27-01-2009 02:07:01 -3.8 C 3.38 g/m*3 -3.8 C 0 km/h
1331 27-01-2009 02:19:01 -3.8 C 3.38 g/m*3 -3.8 C 0 km/h
1332 27-01-2009 02:31:01 -3.7 C 3.44 g/m*3 -3.7 C 0 km/h
1333 27-01-2009 02:43:01 -3.6 C 3.46 g/m*3 -3.6 C 0 km/h
1334 27-01-2009 02:55:01 -3.5 C 3.49 g/m*3 -3.5 C 0 km/h
1335 27-01-2009 03:07:02 -3.4 C 3.51 g/m*3 -3.4 C 0 km/h
1336 27-01-2009 03:19:02 -3.2 C 3.6 g/m*3 -3.2 C 0 km/h
1337 27-01-2009 03:31:02 -3.1 C 3.63 g/m*3 -3.1 C 0 km/h
1338 27-01-2009 03:43:02 -3 C 3.65 g/m*3 -3 C 0 km/h
1339 27-01-2009 03:55:02 -3 C 3.65 g/m*3 -3 C 0 km/h
1340 27-01-2009 04:07:02 -2.9 C 3.68 g/m*3 -2.9 C 0 km/h
1341 27-01-2009 04:19:02 -2.7 C 3.73 g/m*3 -2.7 C 0 km/h
1342 27-01-2009 04:31:02 -2.7 C 3.73 g/m*3 -2.7 C 0 km/h
1343 27-01-2009 04:43:02 -2.7 C 3.73 g/m*3 -2.7 C 0 km/h
1344 27-01-2009 04:55:02 -2.8 C 3.71 g/m*3 -2.8 C 0 km/h
1345 27-01-2009 05:07:02 -2.7 C 3.73 g/m*3 -2.7 C 0 km/h
1346 27-01-2009 05:19:02 -2.5 C 3.78 g/m*3 -2.5 C 0 km/h
1347 27-01-2009 05:31:02 -2.5 C 3.78 g/m*3 -2.5 C 0 km/h
1348 27-01-2009 05:43:02 -2.4 C 3.81 g/m*3 -2.4 C 0 km/h
1349 27-01-2009 05:55:02 -2.5 C 3.78 g/m*3 -2.5 C 0 km/h
1350 27-01-2009 06:07:02 -2.4 C 3.81 g/m*3 -2.4 C 0 km/h
Sensor: Nr:Datum:Temp:Abs-Feuchte:Windchill:Wind:
Aussen-T/F 1351 27-01-2009 06:19:02 -2.6 C 3.72 g/m*3 -2.6 C 0 km/h
1352 27-01-2009 06:31:00 -2.6 C 3.72 g/m*3 -2.6 C 0 km/h
1353 27-01-2009 06:43:00 -2.5 C 3.7 g/m*3 -2.5 C 0 km/h
1354 27-01-2009 06:55:00 -2.5 C 3.66 g/m*3 -2.5 C 0 km/h
1355 27-01-2009 07:07:00 -2.5 C 3.66 g/m*3 -2.5 C 0 km/h
1356 27-01-2009 07:19:59 -2.4 C 3.69 g/m*3 -2.4 C 0 km/h
1357 27-01-2009 07:31:59 -2.3 C 3.71 g/m*3 -2.3 C 0 km/h
1358 27-01-2009 07:42:59 -2.3 C 3.67 g/m*3 -2.3 C 0 km/h
1359 27-01-2009 07:55:59 -2.2 C 3.7 g/m*3 -2.2 C 0 km/h
1360 27-01-2009 08:07:59 -2.1 C 3.73 g/m*3 -2.1 C 0 km/h
1361 27-01-2009 08:19:58 -2.1 C 3.73 g/m*3 -2.1 C 0 km/h
1362 27-01-2009 08:31:59 -2.1 C 3.73 g/m*3 -2.1 C 0 km/h
1363 27-01-2009 08:43:59 -2.1 C 3.73 g/m*3 -2.1 C 0 km/h
1364 27-01-2009 08:55:00 -2 C 3.75 g/m*3 -2 C 0 km/h
1365 27-01-2009 09:07:59 -2 C 3.75 g/m*3 -2 C 0 km/h
1366 27-01-2009 09:19:58 -1.9 C 3.78 g/m*3 -1.9 C 0 km/h
1367 27-01-2009 09:31:58 -1.8 C 3.8 g/m*3 -1.8 C 0 km/h
1368 27-01-2009 09:43:58 -1.7 C 3.79 g/m*3 -1.7 C 0 km/h
1369 27-01-2009 09:55:58 -1.6 C 3.81 g/m*3 -1.6 C 0 km/h
1370 27-01-2009 10:07:57 -1.5 C 3.84 g/m*3 -1.5 C 0 km/h
1371 27-01-2009 10:19:58 -1.5 C 3.84 g/m*3 -1.5 C 0 km/h
1372 27-01-2009 10:30:59 -1.4 C 3.82 g/m*3 -1.4 C 0 km/h
1373 27-01-2009 10:42:59 -1.2 C 3.88 g/m*3 -1.2 C 0 km/h
1374 27-01-2009 10:55:57 -1 C 3.93 g/m*3 -1 C 0 km/h
1375 27-01-2009 11:07:57 -0.9 C 3.91 g/m*3 -0.9 C 0 km/h
Sensor: Nr:Datum:Temp:Abs-Feuchte:Windchill:Wind:
Aussen-T/F 1376 27-01-2009 11:19:57 -0.8 C 3.94 g/m*3 -0.8 C 0 km/h
1377 27-01-2009 11:31:57 -0.5 C 3.98 g/m*3 -0.5 C 0 km/h
1378 27-01-2009 11:43:58 -0.4 C 3.96 g/m*3 -0.4 C 0 km/h
1379 27-01-2009 11:55:56 -0.3 C 3.99 g/m*3 -0.3 C 0 km/h
1380 27-01-2009 12:07:57 -0.1 C 3.99 g/m*3 -0.1 C 0 km/h
1381 27-01-2009 12:19:56 0.1 C 4.05 g/m*3 0.1 C 0 km/h
1382 27-01-2009 12:31:56 0.4 C 4.08 g/m*3 0.4 C 0 km/h
1383 27-01-2009 12:43:56 0.7 C 4.17 g/m*3 0.7 C 0 km/h
1384 27-01-2009 12:55:56 0.8 C 4.15 g/m*3 0.8 C 0 km/h
1385 27-01-2009 13:07:56 1 C 4.15 g/m*3 1 C 0 km/h
1386 27-01-2009 13:19:56 1.2 C 4.21 g/m*3 1.2 C 0 km/h
1387 27-01-2009 13:31:55 1.2 C 4.1 g/m*3 1.2 C 0 km/h
1388 27-01-2009 13:43:55 1.4 C 4.16 g/m*3 1.4 C 0 km/h
1389 27-01-2009 13:55:56 1.4 C 4.11 g/m*3 1.4 C 0 km/h
1390 27-01-2009 14:07:55 1.5 C 4.14 g/m*3 1.5 C 0 km/h
1391 27-01-2009 14:19:55 1.6 C 4.16 g/m*3 1.6 C 0 km/h
1392 27-01-2009 14:31:55 1.7 C 4.19 g/m*3 1.7 C 0 km/h
1393 27-01-2009 14:43:55 1.7 C 4.25 g/m*3 1.7 C 0 km/h
1394 27-01-2009 14:55:56 1.8 C 4.28 g/m*3 1.8 C 0 km/h
1395 27-01-2009 15:07:55 1.8 C 4.28 g/m*3 1.8 C 0 km/h
1396 27-01-2009 15:19:54 1.8 C 4.28 g/m*3 1.8 C 0 km/h
1397 27-01-2009 15:31:54 1.8 C 4.28 g/m*3 1.8 C 0 km/h
1398 27-01-2009 15:43:54 1.7 C 4.25 g/m*3 1.7 C 0 km/h
1399 27-01-2009 15:55:54 1.5 C 4.24 g/m*3 1.5 C 0 km/h
1400 27-01-2009 16:07:54 1.4 C 4.21 g/m*3 1.4 C 0 km/h
Sensor: Nr:Datum:Temp:Abs-Feuchte:Windchill:Wind:
Aussen-T/F 1401 27-01-2009 16:19:54 1.2 C 4.16 g/m*3 1.2 C 0 km/h
1402 27-01-2009 16:31:54 1 C 4.1 g/m*3 1 C 0 km/h
1403 27-01-2009 16:43:54 0.8 C 4.15 g/m*3 0.8 C 0 km/h
1404 27-01-2009 16:55:54 0.6 C 4.09 g/m*3 0.6 C 0 km/h
1405 27-01-2009 17:07:54 0.5 C 4.06 g/m*3 0.5 C 0 km/h
1406 27-01-2009 17:19:53 0.4 C 4.08 g/m*3 0.4 C 0 km/h
1407 27-01-2009 17:31:54 0.3 C 4.06 g/m*3 0.3 C 0 km/h
1408 27-01-2009 17:43:54 0.3 C 4.06 g/m*3 0.3 C 0 km/h
1409 27-01-2009 17:55:53 0.3 C 4.11 g/m*3 0.3 C 0 km/h
1410 27-01-2009 18:07:53 0.3 C 4.11 g/m*3 0.3 C 0 km/h
1411 27-01-2009 18:19:53 0.1 C 4.05 g/m*3 0.1 C 0 km/h
1412 27-01-2009 18:31:53 0.1 C 4.1 g/m*3 0.1 C 0 km/h
1413 27-01-2009 18:43:54 0.1 C 4.1 g/m*3 0.1 C 0 km/h
1414 27-01-2009 18:55:52 0.1 C 4.1 g/m*3 0.1 C 0 km/h
1415 27-01-2009 19:07:53 0.1 C 4.15 g/m*3 0.1 C 0 km/h
1416 27-01-2009 19:19:52 0.1 C 4.15 g/m*3 0.1 C 0 km/h
1417 27-01-2009 19:31:52 0.2 C 4.18 g/m*3 0.2 C 0 km/h
1418 27-01-2009 19:43:52 0.3 C 4.25 g/m*3 0.3 C 0 km/h
1419 27-01-2009 19:55:52 0.2 C 4.22 g/m*3 0.2 C 0 km/h
1420 27-01-2009 20:07:52 0.3 C 4.25 g/m*3 0.3 C 0 km/h
1421 27-01-2009 20:19:52 0.3 C 4.25 g/m*3 0.3 C 0 km/h
1422 27-01-2009 20:31:52 0.3 C 4.25 g/m*3 0.3 C 0 km/h
1423 27-01-2009 20:43:52 0.3 C 4.25 g/m*3 0.3 C 0 km/h
1424 27-01-2009 20:55:51 0.3 C 4.25 g/m*3 0.3 C 0 km/h
1425 27-01-2009 21:07:51 0.3 C 4.25 g/m*3 0.3 C 0 km/h
Sensor: Nr:Datum:Temp:Abs-Feuchte:Windchill:Wind:
Aussen-T/F 1426 27-01-2009 21:19:52 0.3 C 4.3 g/m*3 0.3 C 0 km/h
1427 27-01-2009 21:31:51 0.3 C 4.3 g/m*3 0.3 C 0 km/h
1428 27-01-2009 21:43:51 0.3 C 4.3 g/m*3 0.3 C 0 km/h
1429 27-01-2009 21:55:51 0.2 C 4.27 g/m*3 0.2 C 0 km/h
1430 27-01-2009 22:08:51 0.3 C 4.3 g/m*3 0.3 C 0 km/h
1431 27-01-2009 22:20:51 0.3 C 4.3 g/m*3 0.3 C 0 km/h
1432 27-01-2009 22:32:51 0.3 C 4.35 g/m*3 0.3 C 0 km/h
1433 27-01-2009 22:44:51 0.3 C 4.35 g/m*3 0.3 C 0 km/h
1434 27-01-2009 22:56:51 0.3 C 4.35 g/m*3 0.3 C 0 km/h
1435 27-01-2009 23:08:51 0.3 C 4.35 g/m*3 0.3 C 0 km/h
1436 27-01-2009 23:20:51 0.3 C 4.35 g/m*3 0.3 C 0 km/h
1437 27-01-2009 23:32:51 0.3 C 4.35 g/m*3 0.3 C 0 km/h
1438 27-01-2009 23:44:52 0.3 C 4.35 g/m*3 0.3 C 0 km/h
1439 27-01-2009 23:56:52 0.3 C 4.35 g/m*3 0.3 C 0 km/h
1440 28-01-2009 00:08:52 0.2 C 4.32 g/m*3 0.2 C 0 km/h
1441 28-01-2009 00:20:52 0.2 C 4.32 g/m*3 0.2 C 0 km/h
1442 28-01-2009 00:32:52 0.2 C 4.32 g/m*3 0.2 C 0 km/h
1443 28-01-2009 00:44:52 0.2 C 4.32 g/m*3 0.2 C 0 km/h
1444 28-01-2009 00:56:52 0.1 C 4.29 g/m*3 0.1 C 0 km/h
1445 28-01-2009 01:08:52 0 C 4.26 g/m*3 0 C 0 km/h
1446 28-01-2009 01:20:52 0.1 C 4.29 g/m*3 0.1 C 0 km/h
1447 28-01-2009 01:32:52 0.1 C 4.29 g/m*3 0.1 C 0 km/h
1448 28-01-2009 01:44:52 0.1 C 4.29 g/m*3 0.1 C 0 km/h
1449 28-01-2009 01:56:52 0.1 C 4.29 g/m*3 0.1 C 0 km/h
1450 28-01-2009 02:08:52 0.1 C 4.29 g/m*3 0.1 C 0 km/h
Sensor: Nr:Datum:Temp:Abs-Feuchte:Windchill:Wind:
Aussen-T/F 1451 28-01-2009 02:20:52 0 C 4.22 g/m*3 0 C 0 km/h
1452 28-01-2009 02:32:52 0 C 4.22 g/m*3 0 C 0 km/h
1453 28-01-2009 02:44:52 0 C 4.22 g/m*3 0 C 0 km/h
1454 28-01-2009 02:56:52 0 C 4.22 g/m*3 0 C 0 km/h
1455 28-01-2009 03:08:52 0 C 4.22 g/m*3 0 C 0 km/h
1456 28-01-2009 03:20:52 -0.2 C 4.16 g/m*3 -0.2 C 0 km/h
1457 28-01-2009 03:32:53 -0.2 C 4.16 g/m*3 -0.2 C 0 km/h
1458 28-01-2009 03:44:53 -0.2 C 4.16 g/m*3 -0.2 C 0 km/h
1459 28-01-2009 03:56:53 -0.2 C 4.16 g/m*3 -0.2 C 0 km/h
1460 28-01-2009 04:08:53 -0.3 C 4.13 g/m*3 -0.3 C 0 km/h
1461 28-01-2009 04:20:53 -0.3 C 4.13 g/m*3 -0.3 C 0 km/h
1462 28-01-2009 04:32:53 -0.4 C 4.05 g/m*3 -0.4 C 0 km/h
1463 28-01-2009 04:44:53 -0.6 C 4 g/m*3 -0.6 C 0 km/h
1464 28-01-2009 04:56:53 -0.8 C 3.94 g/m*3 -0.8 C 0 km/h
1465 28-01-2009 05:08:53 -1 C 3.89 g/m*3 -1 C 0 km/h
1466 28-01-2009 05:20:53 -0.9 C 3.91 g/m*3 -0.9 C 0 km/h
1467 28-01-2009 05:32:53 -0.6 C 4.04 g/m*3 -0.6 C 0 km/h
1468 28-01-2009 05:44:53 -0.6 C 4 g/m*3 -0.6 C 0 km/h
1469 28-01-2009 05:56:53 -0.6 C 4 g/m*3 -0.6 C 0 km/h
1470 28-01-2009 06:08:53 -0.6 C 4 g/m*3 -0.6 C 0 km/h
1471 28-01-2009 06:20:53 -0.7 C 3.97 g/m*3 -0.7 C 0 km/h
1472 28-01-2009 06:32:53 -0.7 C 3.97 g/m*3 -0.7 C 0 km/h
1473 28-01-2009 06:44:53 -0.7 C 3.92 g/m*3 -0.7 C 0 km/h
1474 28-01-2009 06:56:53 -0.6 C 3.95 g/m*3 -0.6 C 0 km/h
1475 28-01-2009 07:08:52 -0.6 C 3.95 g/m*3 -0.6 C 0 km/h
Sensor: Nr:Datum:Temp:Abs-Feuchte:Windchill:Wind:
Aussen-T/F 1476 28-01-2009 07:20:51 -0.6 C 3.95 g/m*3 -0.6 C 0 km/h
1477 28-01-2009 07:32:51 -0.5 C 3.98 g/m*3 -0.5 C 0 km/h
1478 28-01-2009 07:44:51 -0.5 C 3.98 g/m*3 -0.5 C 0 km/h
1479 28-01-2009 07:56:51 -0.5 C 3.98 g/m*3 -0.5 C 0 km/h
1480 28-01-2009 08:08:51 -0.4 C 4.01 g/m*3 -0.4 C 0 km/h
1481 28-01-2009 08:20:50 -0.5 C 3.93 g/m*3 -0.5 C 0 km/h
1482 28-01-2009 08:32:50 -0.5 C 3.93 g/m*3 -0.5 C 0 km/h
1483 28-01-2009 08:44:50 -0.4 C 3.96 g/m*3 -0.4 C 0 km/h
1484 28-01-2009 08:56:50 -0.5 C 3.93 g/m*3 -0.5 C 0 km/h
1485 28-01-2009 09:08:50 -0.4 C 3.96 g/m*3 -0.4 C 0 km/h
1486 28-01-2009 09:20:49 -0.3 C 3.99 g/m*3 -0.3 C 0 km/h
1487 28-01-2009 09:32:50 -0.3 C 3.94 g/m*3 -0.3 C 0 km/h
1488 28-01-2009 09:44:50 -0.1 C 3.99 g/m*3 -0.1 C 0 km/h
1489 28-01-2009 09:56:50 0.1 C 4.05 g/m*3 0.1 C 0 km/h
1490 28-01-2009 10:08:49 0.2 C 4.08 g/m*3 0.2 C 0 km/h
1491 28-01-2009 10:20:50 0.3 C 4.06 g/m*3 0.3 C 0 km/h
1492 28-01-2009 10:32:49 0.4 C 4.03 g/m*3 0.4 C 0 km/h
1493 28-01-2009 10:44:49 0.6 C 4.09 g/m*3 0.6 C 0 km/h
1494 28-01-2009 10:56:49 0.7 C 4.07 g/m*3 0.7 C 0 km/h
1495 28-01-2009 11:08:48 0.8 C 3.99 g/m*3 0.8 C 0 km/h
1496 28-01-2009 11:20:49 0.8 C 3.94 g/m*3 0.8 C 0 km/h
1497 28-01-2009 11:32:48 1 C 3.94 g/m*3 1 C 0 km/h
1498 28-01-2009 11:44:48 1.3 C 3.92 g/m*3 1.3 C 0 km/h
1499 28-01-2009 11:56:48 1.4 C 3.89 g/m*3 1.4 C 0 km/h
1500 28-01-2009 12:08:48 1.7 C 3.92 g/m*3 1.7 C 0 km/h
Sensor: Nr:Datum:Temp:Abs-Feuchte:Windchill:Wind:
Aussen-T/F 1501 28-01-2009 12:20:48 2.2 C 4 g/m*3 2.2 C 0 km/h
1502 28-01-2009 12:32:48 2.3 C 3.86 g/m*3 2.3 C 0 km/h
1503 28-01-2009 12:44:48 2.5 C 3.91 g/m*3 2.5 C 0 km/h
1504 28-01-2009 12:56:48 2.7 C 3.96 g/m*3 2.7 C 0 km/h
1505 28-01-2009 13:08:48 2.6 C 3.88 g/m*3 2.6 C 0 km/h
1506 28-01-2009 13:20:47 2.6 C 3.94 g/m*3 2.6 C 0 km/h
1507 28-01-2009 13:32:48 2.6 C 3.94 g/m*3 2.6 C 0 km/h
1508 28-01-2009 13:44:47 2.9 C 4.07 g/m*3 2.9 C 0 km/h
1509 28-01-2009 13:56:47 3.2 C 4.1 g/m*3 3.2 C 0 km/h
1510 28-01-2009 14:08:47 3.1 C 4.01 g/m*3 3.1 C 0 km/h
1511 28-01-2009 14:20:46 3.1 C 4.07 g/m*3 3.1 C 0 km/h
1512 28-01-2009 14:32:47 2.7 C 4.08 g/m*3 2.7 C 0 km/h
1513 28-01-2009 14:44:46 2.8 C 4.11 g/m*3 2.8 C 0 km/h
1514 28-01-2009 14:56:46 2.7 C 4.14 g/m*3 2.7 C 0 km/h
1515 28-01-2009 15:08:46 2.6 C 4.17 g/m*3 2.6 C 0 km/h
1516 28-01-2009 15:20:47 2.4 C 4.11 g/m*3 2.4 C 0 km/h
1517 28-01-2009 15:32:46 2 C 4 g/m*3 2 C 0 km/h
1518 28-01-2009 15:44:46 1.6 C 3.95 g/m*3 1.6 C 0 km/h
1519 28-01-2009 15:56:46 1.3 C 3.92 g/m*3 1.3 C 0 km/h
1520 28-01-2009 16:08:46 1.1 C 3.92 g/m*3 1.1 C 0 km/h
1521 28-01-2009 16:20:46 1 C 3.89 g/m*3 1 C 0 km/h
1522 28-01-2009 16:32:46 0.7 C 3.86 g/m*3 0.7 C 0 km/h
1523 28-01-2009 16:44:45 0.5 C 3.86 g/m*3 0.5 C 0 km/h
1524 28-01-2009 16:56:45 0.4 C 3.88 g/m*3 0.4 C 0 km/h
1525 28-01-2009 17:08:46 0.2 C 3.83 g/m*3 0.2 C 0 km/h
Sensor: Nr:Datum:Temp:Abs-Feuchte:Windchill:Wind:
Aussen-T/F 1526 28-01-2009 17:20:45 0 C 3.78 g/m*3 0 C 0 km/h
1527 28-01-2009 17:32:45 -0.3 C 3.75 g/m*3 -0.3 C 0 km/h
1528 28-01-2009 17:44:47 -0.4 C 3.77 g/m*3 -0.4 C 0 km/h
1529 28-01-2009 17:56:47 -0.7 C 3.69 g/m*3 -0.7 C 0 km/h
1530 28-01-2009 18:08:45 -0.8 C 3.67 g/m*3 -0.8 C 0 km/h
1531 28-01-2009 18:20:45 -0.4 C 3.86 g/m*3 -0.4 C 0 km/h
1532 28-01-2009 18:32:45 0 C 4.02 g/m*3 0 C 0 km/h
1533 28-01-2009 18:44:44 0.2 C 4.08 g/m*3 0.2 C 0 km/h
1534 28-01-2009 18:56:44 0.3 C 4.06 g/m*3 0.3 C 0 km/h
1535 28-01-2009 19:08:45 0.4 C 4.08 g/m*3 0.4 C 0 km/h
1536 28-01-2009 19:20:44 0.4 C 4.08 g/m*3 0.4 C 0 km/h
1537 28-01-2009 19:32:44 0.5 C 4.11 g/m*3 0.5 C 0 km/h
1538 28-01-2009 19:44:44 0.5 C 4.11 g/m*3 0.5 C 0 km/h
1539 28-01-2009 19:56:44 0.6 C 4.14 g/m*3 0.6 C 0 km/h
1540 28-01-2009 20:08:44 0.6 C 4.09 g/m*3 0.6 C 0 km/h
1541 28-01-2009 20:20:43 0.6 C 4.09 g/m*3 0.6 C 0 km/h
1542 28-01-2009 20:32:43 0.7 C 4.12 g/m*3 0.7 C 0 km/h
1543 28-01-2009 20:44:43 0.8 C 4.15 g/m*3 0.8 C 0 km/h
1544 28-01-2009 20:56:43 0.8 C 4.1 g/m*3 0.8 C 0 km/h
1545 28-01-2009 21:08:43 0.8 C 4.1 g/m*3 0.8 C 0 km/h
1546 28-01-2009 21:20:43 0.7 C 4.12 g/m*3 0.7 C 0 km/h
1547 28-01-2009 21:32:43 0.7 C 4.07 g/m*3 0.7 C 0 km/h
1548 28-01-2009 21:44:42 0.7 C 4.02 g/m*3 0.7 C 0 km/h
1549 28-01-2009 21:56:42 0.8 C 4.04 g/m*3 0.8 C 0 km/h
1550 28-01-2009 22:09:44 0.8 C 3.94 g/m*3 0.8 C 0 km/h
Sensor: Nr:Datum:Temp:Abs-Feuchte:Windchill:Wind:
Aussen-T/F 1551 28-01-2009 22:21:44 0.7 C 3.81 g/m*3 0.7 C 0 km/h
1552 28-01-2009 22:33:44 0.7 C 3.76 g/m*3 0.7 C 0 km/h
1553 28-01-2009 22:45:44 0.7 C 3.71 g/m*3 0.7 C 0 km/h
1554 28-01-2009 22:57:44 0.7 C 3.66 g/m*3 0.7 C 0 km/h
1555 28-01-2009 23:09:44 0.7 C 3.61 g/m*3 0.7 C 0 km/h
1556 28-01-2009 23:21:44 0.7 C 3.56 g/m*3 0.7 C 0 km/h
1557 28-01-2009 23:33:44 0.7 C 3.51 g/m*3 0.7 C 0 km/h
1558 28-01-2009 23:45:44 0.8 C 3.53 g/m*3 0.8 C 0 km/h
1559 28-01-2009 23:57:44 0.8 C 3.48 g/m*3 0.8 C 0 km/h
1560 29-01-2009 00:09:44 0.7 C 3.46 g/m*3 0.7 C 0 km/h
1561 29-01-2009 00:21:44 0.7 C 3.46 g/m*3 0.7 C 0 km/h
1562 29-01-2009 00:33:44 0.7 C 3.46 g/m*3 0.7 C 0 km/h
1563 29-01-2009 00:45:44 0.7 C 3.46 g/m*3 0.7 C 0 km/h
1564 29-01-2009 00:57:44 0.7 C 3.46 g/m*3 0.7 C 0 km/h
1565 29-01-2009 01:09:44 0.7 C 3.41 g/m*3 0.7 C 0 km/h
1566 29-01-2009 01:21:44 0.7 C 3.36 g/m*3 0.7 C 0 km/h
1567 29-01-2009 01:33:44 0.6 C 3.38 g/m*3 0.6 C 0 km/h
1568 29-01-2009 01:45:44 0.5 C 3.36 g/m*3 0.5 C 0 km/h
1569 29-01-2009 01:57:44 0.4 C 3.34 g/m*3 0.4 C 0 km/h
1570 29-01-2009 02:09:45 0.4 C 3.19 g/m*3 0.4 C 0 km/h
1571 29-01-2009 02:21:45 0.5 C 3.21 g/m*3 0.5 C 0 km/h
1572 29-01-2009 02:33:45 0.6 C 3.13 g/m*3 0.6 C 0 km/h
1573 29-01-2009 02:45:45 0.6 C 3.08 g/m*3 0.6 C 0 km/h
1574 29-01-2009 02:57:45 0.5 C 3.11 g/m*3 0.5 C 0 km/h
1575 29-01-2009 03:09:45 0.5 C 3.16 g/m*3 0.5 C 0 km/h
Sensor: Nr:Datum:Temp:Abs-Feuchte:Windchill:Wind:
Aussen-T/F 1576 29-01-2009 03:21:45 0.5 C 3.11 g/m*3 0.5 C 0 km/h
1577 29-01-2009 03:33:45 0.6 C 3.13 g/m*3 0.6 C 0 km/h
1578 29-01-2009 03:45:45 0.6 C 3.18 g/m*3 0.6 C 0 km/h
1579 29-01-2009 03:57:45 0.7 C 3.05 g/m*3 0.7 C 0 km/h
1580 29-01-2009 04:09:45 0.6 C 3.13 g/m*3 0.6 C 0 km/h
1581 29-01-2009 04:21:45 0.7 C 3.15 g/m*3 0.7 C 0 km/h
1582 29-01-2009 04:33:45 0.7 C 3.15 g/m*3 0.7 C 0 km/h
1583 29-01-2009 04:45:45 0.6 C 3.18 g/m*3 0.6 C 0 km/h
1584 29-01-2009 04:57:45 0.6 C 3.18 g/m*3 0.6 C 0 km/h
1585 29-01-2009 05:09:45 0.8 C 3.12 g/m*3 0.8 C 0 km/h
1586 29-01-2009 05:21:45 0.8 C 3.17 g/m*3 0.8 C 0 km/h
1587 29-01-2009 05:33:45 0.7 C 3.2 g/m*3 0.7 C 0 km/h
1588 29-01-2009 05:45:45 0.7 C 3.25 g/m*3 0.7 C 0 km/h
1589 29-01-2009 05:57:45 0.7 C 3.3 g/m*3 0.7 C 0 km/h
1590 29-01-2009 06:09:46 0.7 C 3.36 g/m*3 0.7 C 0 km/h
1591 29-01-2009 06:21:46 0.8 C 3.33 g/m*3 0.8 C 0 km/h
1592 29-01-2009 06:33:46 0.8 C 3.28 g/m*3 0.8 C 0 km/h
1593 29-01-2009 06:45:44 0.8 C 3.28 g/m*3 0.8 C 0 km/h
1594 29-01-2009 06:57:44 0.8 C 3.23 g/m*3 0.8 C 0 km/h
1595 29-01-2009 07:09:44 0.9 C 3.25 g/m*3 0.9 C 0 km/h
1596 29-01-2009 07:21:43 0.8 C 3.23 g/m*3 0.8 C 0 km/h
1597 29-01-2009 07:33:43 0.8 C 3.17 g/m*3 0.8 C 0 km/h
1598 29-01-2009 07:45:43 0.8 C 3.17 g/m*3 0.8 C 0 km/h
1599 29-01-2009 07:57:43 0.8 C 3.17 g/m*3 0.8 C 0 km/h
1600 29-01-2009 08:09:43 0.8 C 3.23 g/m*3 0.8 C 0 km/h
Sensor: Nr:Datum:Temp:Abs-Feuchte:Windchill:Wind:
Aussen-T/F 1601 29-01-2009 08:21:42 0.8 C 3.23 g/m*3 0.8 C 0 km/h
1602 29-01-2009 08:33:43 0.8 C 3.17 g/m*3 0.8 C 0 km/h
1603 29-01-2009 08:45:42 0.8 C 3.17 g/m*3 0.8 C 0 km/h
1604 29-01-2009 08:57:42 0.8 C 3.12 g/m*3 0.8 C 0 km/h
1605 29-01-2009 09:09:42 0.9 C 3.14 g/m*3 0.9 C 0 km/h
1606 29-01-2009 09:21:43 1 C 3.06 g/m*3 1 C 0 km/h
1607 29-01-2009 09:33:42 1.1 C 2.98 g/m*3 1.1 C 0 km/h
1608 29-01-2009 09:45:42 1.2 C 3 g/m*3 1.2 C 0 km/h
1609 29-01-2009 09:57:42 1.4 C 3.04 g/m*3 1.4 C 0 km/h
1610 29-01-2009 10:09:42 1.6 C 3.03 g/m*3 1.6 C 0 km/h
1611 29-01-2009 10:21:42 1.5 C 2.95 g/m*3 1.5 C 0 km/h
1612 29-01-2009 10:33:41 1.2 C 2.89 g/m*3 1.2 C 0 km/h
1613 29-01-2009 10:45:41 1 C 2.96 g/m*3 1 C 0 km/h
1614 29-01-2009 10:57:42 1 C 3.01 g/m*3 1 C 0 km/h
1615 29-01-2009 11:09:41 1 C 3.11 g/m*3 1 C 0 km/h
1616 29-01-2009 11:21:41 1.4 C 3.04 g/m*3 1.4 C 0 km/h
1617 29-01-2009 11:33:41 1.6 C 3.03 g/m*3 1.6 C 0 km/h
1618 29-01-2009 11:45:41 1.7 C 2.99 g/m*3 1.7 C 0 km/h
1619 29-01-2009 11:57:41 2 C 3 g/m*3 2 C 0 km/h
1620 29-01-2009 12:09:41 2.2 C 2.99 g/m*3 2.2 C 0 km/h
1621 29-01-2009 12:21:40 2.6 C 3.01 g/m*3 2.6 C 0 km/h
1622 29-01-2009 12:33:40 2.9 C 3.01 g/m*3 2.9 C 0 km/h
1623 29-01-2009 12:45:40 3.3 C 2.97 g/m*3 3.3 C 0 km/h
1624 29-01-2009 12:57:40 3.9 C 2.97 g/m*3 3.9 C 0 km/h
1625 29-01-2009 13:09:40 4.2 C 2.9 g/m*3 4.2 C 0 km/h
Sensor: Nr:Datum:Temp:Abs-Feuchte:Windchill:Wind:
Aussen-T/F 1626 29-01-2009 13:21:39 4.4 C 2.81 g/m*3 4.4 C 0 km/h
1627 29-01-2009 13:33:40 4.8 C 2.82 g/m*3 4.8 C 0 km/h
1628 29-01-2009 13:45:40 5.1 C 2.74 g/m*3 5.1 C 0 km/h
1629 29-01-2009 13:57:40 5.3 C 2.77 g/m*3 5.3 C 0 km/h
1630 29-01-2009 14:09:39 5.5 C 2.67 g/m*3 5.5 C 0 km/h
1631 29-01-2009 14:21:40 5.8 C 2.72 g/m*3 5.8 C 0 km/h
1632 29-01-2009 14:33:39 6.1 C 2.63 g/m*3 6.1 C 0 km/h
1633 29-01-2009 14:45:39 6.2 C 2.65 g/m*3 6.2 C 0 km/h
1634 29-01-2009 14:57:39 6.4 C 2.61 g/m*3 6.4 C 0 km/h
1635 29-01-2009 15:09:39 6.6 C 2.64 g/m*3 6.6 C 0 km/h
1636 29-01-2009 15:21:39 6.8 C 2.68 g/m*3 6.8 C 0 km/h
1637 29-01-2009 15:33:39 6.5 C 2.62 g/m*3 6.5 C 0 km/h
1638 29-01-2009 15:45:39 6.4 C 2.61 g/m*3 6.4 C 0 km/h
1639 29-01-2009 15:57:39 5.6 C 2.55 g/m*3 5.6 C 0 km/h
1640 29-01-2009 16:09:39 4.7 C 2.66 g/m*3 4.7 C 0 km/h
1641 29-01-2009 16:21:38 4 C 2.61 g/m*3 4 C 0 km/h
1642 29-01-2009 16:33:38 3.5 C 2.77 g/m*3 3.5 C 0 km/h
1643 29-01-2009 16:45:38 3 C 2.73 g/m*3 3 C 0 km/h
1644 29-01-2009 16:57:38 2.5 C 2.82 g/m*3 2.5 C 0 km/h
1645 29-01-2009 17:09:38 2.1 C 2.85 g/m*3 2.1 C 0 km/h
1646 29-01-2009 17:21:37 1.7 C 2.89 g/m*3 1.7 C 0 km/h
1647 29-01-2009 17:33:37 1.2 C 2.95 g/m*3 1.2 C 0 km/h
1648 29-01-2009 17:45:37 1 C 2.96 g/m*3 1 C 0 km/h
1649 29-01-2009 17:57:37 0.7 C 3.05 g/m*3 0.7 C 0 km/h
1650 29-01-2009 18:09:37 0.5 C 3.06 g/m*3 0.5 C 0 km/h
Sensor: Nr:Datum:Temp:Abs-Feuchte:Windchill:Wind:
Aussen-T/F 1651 29-01-2009 18:21:38 0.4 C 3.09 g/m*3 0.4 C 0 km/h
1652 29-01-2009 18:33:37 0.3 C 3.12 g/m*3 0.3 C 0 km/h
1653 29-01-2009 18:45:37 0.2 C 3.09 g/m*3 0.2 C 0 km/h
1654 29-01-2009 18:57:37 0.1 C 3.12 g/m*3 0.1 C 0 km/h
1655 29-01-2009 19:09:37 -0.1 C 3.13 g/m*3 -0.1 C 0 km/h
1656 29-01-2009 19:21:36 -0.3 C 3.13 g/m*3 -0.3 C 0 km/h
1657 29-01-2009 19:33:36 -0.4 C 3.11 g/m*3 -0.4 C 0 km/h
1658 29-01-2009 19:45:36 -0.6 C 3.11 g/m*3 -0.6 C 0 km/h
1659 29-01-2009 19:57:37 -0.8 C 3.12 g/m*3 -0.8 C 0 km/h
1660 29-01-2009 20:09:36 -0.9 C 3.14 g/m*3 -0.9 C 0 km/h
1661 29-01-2009 20:21:36 -0.9 C 3.14 g/m*3 -0.9 C 0 km/h
1662 29-01-2009 20:33:36 -1.1 C 3.14 g/m*3 -1.1 C 0 km/h
1663 29-01-2009 20:45:36 -1.1 C 3.14 g/m*3 -1.1 C 0 km/h
1664 29-01-2009 20:57:36 -1.2 C 3.12 g/m*3 -1.2 C 0 km/h
1665 29-01-2009 21:09:35 -1.4 C 3.08 g/m*3 -1.4 C 0 km/h
1666 29-01-2009 21:21:35 -1.5 C 3.1 g/m*3 -1.5 C 0 km/h
1667 29-01-2009 21:34:36 -1.6 C 3.12 g/m*3 -1.6 C 0 km/h
1668 29-01-2009 21:46:36 -1.7 C 3.14 g/m*3 -1.7 C 0 km/h
1669 29-01-2009 21:58:36 -1.8 C 3.12 g/m*3 -1.8 C 0 km/h
1670 29-01-2009 22:10:36 -2 C 3.08 g/m*3 -2 C 0 km/h
1671 29-01-2009 22:22:36 -1.9 C 3.14 g/m*3 -1.9 C 0 km/h
1672 29-01-2009 22:34:36 -2 C 3.12 g/m*3 -2 C 0 km/h
1673 29-01-2009 22:46:36 -2.2 C 3.08 g/m*3 -2.2 C 0 km/h
1674 29-01-2009 22:58:36 -2.4 C 3.03 g/m*3 -2.4 C 0 km/h
1675 29-01-2009 23:10:36 -2.3 C 3.1 g/m*3 -2.3 C 0 km/h
Sensor: Nr:Datum:Temp:Abs-Feuchte:Windchill:Wind:
Aussen-T/F 1676 29-01-2009 23:22:36 -2.4 C 3.07 g/m*3 -2.4 C 0 km/h
1677 29-01-2009 23:34:36 -2.5 C 3.05 g/m*3 -2.5 C 0 km/h
1678 29-01-2009 23:46:36 -2.5 C 3.09 g/m*3 -2.5 C 0 km/h
1679 29-01-2009 23:58:36 -2.5 C 3.09 g/m*3 -2.5 C 0 km/h
1680 30-01-2009 00:10:36 -2.5 C 3.13 g/m*3 -2.5 C 0 km/h
1681 30-01-2009 00:22:37 -2.5 C 3.13 g/m*3 -2.5 C 0 km/h
1682 30-01-2009 00:34:37 -2.5 C 3.13 g/m*3 -2.5 C 0 km/h
1683 30-01-2009 00:46:37 -2.6 C 3.11 g/m*3 -2.6 C 0 km/h
1684 30-01-2009 00:58:37 -2.7 C 3.09 g/m*3 -2.7 C 0 km/h
1685 30-01-2009 01:10:37 -2.7 C 3.09 g/m*3 -2.7 C 0 km/h
1686 30-01-2009 01:22:37 -2.9 C 3.05 g/m*3 -2.9 C 0 km/h
1687 30-01-2009 01:34:37 -2.8 C 3.11 g/m*3 -2.8 C 0 km/h
1688 30-01-2009 01:46:37 -3 C 3.06 g/m*3 -3 C 0 km/h
1689 30-01-2009 01:58:37 -3.1 C 3 g/m*3 -3.1 C 0 km/h
1690 30-01-2009 02:10:37 -3.2 C 3.02 g/m*3 -3.2 C 0 km/h
1691 30-01-2009 02:22:37 -3.2 C 3.02 g/m*3 -3.2 C 0 km/h
1692 30-01-2009 02:34:37 -3.5 C 2.96 g/m*3 -3.5 C 0 km/h
1693 30-01-2009 02:46:37 -3.5 C 2.96 g/m*3 -3.5 C 0 km/h
1694 30-01-2009 02:58:37 -3.5 C 2.96 g/m*3 -3.5 C 0 km/h
1695 30-01-2009 03:10:37 -3.6 C 2.94 g/m*3 -3.6 C 0 km/h
1696 30-01-2009 03:22:37 -3.7 C 2.95 g/m*3 -3.7 C 0 km/h
1697 30-01-2009 03:34:37 -3.8 C 2.93 g/m*3 -3.8 C 0 km/h
1698 30-01-2009 03:46:37 -3.6 C 3.01 g/m*3 -3.6 C 0 km/h
1699 30-01-2009 03:58:37 -3.7 C 2.99 g/m*3 -3.7 C 0 km/h
1700 30-01-2009 04:10:37 -3.8 C 2.97 g/m*3 -3.8 C 0 km/h
Sensor: Nr:Datum:Temp:Abs-Feuchte:Windchill:Wind:
Aussen-T/F 1701 30-01-2009 04:22:37 -3.8 C 2.97 g/m*3 -3.8 C 0 km/h
1702 30-01-2009 04:34:38 -3.9 C 2.95 g/m*3 -3.9 C 0 km/h
1703 30-01-2009 04:46:38 -3.9 C 2.98 g/m*3 -3.9 C 0 km/h
1704 30-01-2009 04:58:38 -3.9 C 2.98 g/m*3 -3.9 C 0 km/h
1705 30-01-2009 05:10:38 -3.9 C 2.98 g/m*3 -3.9 C 0 km/h
1706 30-01-2009 05:22:38 -3.8 C 3.04 g/m*3 -3.8 C 0 km/h
1707 30-01-2009 05:34:38 -3.8 C 3.04 g/m*3 -3.8 C 0 km/h
1708 30-01-2009 05:46:38 -3.8 C 3.04 g/m*3 -3.8 C 0 km/h
1709 30-01-2009 05:58:38 -3.9 C 3.02 g/m*3 -3.9 C 0 km/h
1710 30-01-2009 06:10:38 -3.9 C 3.02 g/m*3 -3.9 C 0 km/h
1711 30-01-2009 06:22:38 -4.1 C 2.98 g/m*3 -4.1 C 0 km/h
1712 30-01-2009 06:34:35 -4.1 C 2.98 g/m*3 -4.1 C 0 km/h
1713 30-01-2009 06:46:35 -4.3 C 2.94 g/m*3 -4.3 C 0 km/h
1714 30-01-2009 06:58:35 -4.3 C 2.94 g/m*3 -4.3 C 0 km/h
1715 30-01-2009 07:10:35 -4.4 C 2.92 g/m*3 -4.4 C 0 km/h
1716 30-01-2009 07:22:35 -4.6 C 2.87 g/m*3 -4.6 C 0 km/h
1717 30-01-2009 07:34:34 -4.8 C 2.83 g/m*3 -4.8 C 0 km/h
1718 30-01-2009 07:46:35 -4.8 C 2.83 g/m*3 -4.8 C 0 km/h
1719 30-01-2009 07:58:35 -4.7 C 2.85 g/m*3 -4.7 C 0 km/h
1720 30-01-2009 08:10:34 -4.7 C 2.89 g/m*3 -4.7 C 0 km/h
1721 30-01-2009 08:22:34 -4.6 C 2.91 g/m*3 -4.6 C 0 km/h
1722 30-01-2009 08:34:34 -4.2 C 3.03 g/m*3 -4.2 C 0 km/h
1723 30-01-2009 08:46:34 -3.6 C 3.2 g/m*3 -3.6 C 0 km/h
1724 30-01-2009 08:58:34 -3.3 C 3.31 g/m*3 -3.3 C 0 km/h
1725 30-01-2009 09:10:33 -3 C 3.38 g/m*3 -3 C 0 km/h
Sensor: Nr:Datum:Temp:Abs-Feuchte:Windchill:Wind:
Aussen-T/F 1726 30-01-2009 09:22:34 -2.7 C 3.45 g/m*3 -2.7 C 0 km/h
1727 30-01-2009 09:34:34 -2.5 C 3.46 g/m*3 -2.5 C 0 km/h
1728 30-01-2009 09:46:33 -2.2 C 3.49 g/m*3 -2.2 C 0 km/h
1729 30-01-2009 09:58:33 -1.8 C 3.55 g/m*3 -1.8 C 0 km/h
1730 30-01-2009 10:10:34 -1.5 C 3.54 g/m*3 -1.5 C 0 km/h
1731 30-01-2009 10:22:33 -1.2 C 3.43 g/m*3 -1.2 C 0 km/h
1732 30-01-2009 10:34:33 -1 C 3.25 g/m*3 -1 C 0 km/h
1733 30-01-2009 10:46:32 -0.8 C 3.21 g/m*3 -0.8 C 0 km/h
1734 30-01-2009 10:58:32 -0.7 C 3.18 g/m*3 -0.7 C 0 km/h
1735 30-01-2009 11:10:33 -0.5 C 3.14 g/m*3 -0.5 C 0 km/h
1736 30-01-2009 11:22:32 -0.3 C 3.08 g/m*3 -0.3 C 0 km/h
1737 30-01-2009 11:34:32 0 C 3.1 g/m*3 0 C 0 km/h
1738 30-01-2009 11:46:32 0.2 C 3.09 g/m*3 0.2 C 0 km/h
1739 30-01-2009 11:58:32 0.5 C 3.16 g/m*3 0.5 C 0 km/h
1740 30-01-2009 12:10:32 0.4 C 2.99 g/m*3 0.4 C 0 km/h
1741 30-01-2009 12:22:32 0.4 C 2.99 g/m*3 0.4 C 0 km/h
1742 30-01-2009 12:34:31 0.4 C 2.99 g/m*3 0.4 C 0 km/h
1743 30-01-2009 12:46:32 0.6 C 3.03 g/m*3 0.6 C 0 km/h
1744 30-01-2009 12:58:32 1.1 C 3.03 g/m*3 1.1 C 0 km/h
1745 30-01-2009 13:10:31 1.4 C 2.99 g/m*3 1.4 C 0 km/h
1746 30-01-2009 13:22:31 2 C 2.95 g/m*3 2 C 0 km/h
1747 30-01-2009 13:34:31 2.5 C 2.93 g/m*3 2.5 C 0 km/h
1748 30-01-2009 13:46:31 2.8 C 2.93 g/m*3 2.8 C 0 km/h
1749 30-01-2009 13:58:31 3 C 2.73 g/m*3 3 C 0 km/h
1750 30-01-2009 14:10:30 3.3 C 2.79 g/m*3 3.3 C 0 km/h
Sensor: Nr:Datum:Temp:Abs-Feuchte:Windchill:Wind:
Aussen-T/F 1751 30-01-2009 14:22:31 3.4 C 2.75 g/m*3 3.4 C 0 km/h
1752 30-01-2009 14:34:30 3.6 C 2.79 g/m*3 3.6 C 0 km/h
1753 30-01-2009 14:46:30 3.8 C 2.82 g/m*3 3.8 C 0 km/h
1754 30-01-2009 14:58:30 3.8 C 2.76 g/m*3 3.8 C 0 km/h
1755 30-01-2009 15:10:30 3.9 C 2.72 g/m*3 3.9 C 0 km/h
1756 30-01-2009 15:22:30 4.2 C 2.71 g/m*3 4.2 C 0 km/h
1757 30-01-2009 15:34:30 3.9 C 2.72 g/m*3 3.9 C 0 km/h
1758 30-01-2009 15:46:30 3.7 C 2.68 g/m*3 3.7 C 0 km/h
1759 30-01-2009 15:58:30 3.6 C 2.72 g/m*3 3.6 C 0 km/h
1760 30-01-2009 16:10:30 2.8 C 2.7 g/m*3 2.8 C 0 km/h
1761 30-01-2009 16:22:29 2 C 2.72 g/m*3 2 C 0 km/h
1762 30-01-2009 16:34:29 1.5 C 2.79 g/m*3 1.5 C 0 km/h
1763 30-01-2009 16:46:29 0.8 C 2.87 g/m*3 0.8 C 0 km/h
1764 30-01-2009 16:58:29 0.4 C 2.89 g/m*3 0.4 C 0 km/h
1765 30-01-2009 17:10:29 0 C 2.91 g/m*3 0 C 0 km/h
1766 30-01-2009 17:22:29 -0.2 C 2.87 g/m*3 -0.2 C 0 km/h
1767 30-01-2009 17:34:29 -0.5 C 2.9 g/m*3 -0.5 C 0 km/h
1768 30-01-2009 17:46:28 -0.8 C 2.89 g/m*3 -0.8 C 0 km/h
1769 30-01-2009 17:58:28 -0.9 C 2.91 g/m*3 -0.9 C 0 km/h
1770 30-01-2009 18:10:29 -1 C 2.94 g/m*3 -1 C 0 km/h
1771 30-01-2009 18:22:29 -1 C 2.98 g/m*3 -1 C 0 km/h
1772 30-01-2009 18:34:28 -1.1 C 2.96 g/m*3 -1.1 C 0 km/h
1773 30-01-2009 18:46:29 -1.1 C 3.01 g/m*3 -1.1 C 0 km/h
1774 30-01-2009 18:58:29 -1.2 C 2.99 g/m*3 -1.2 C 0 km/h
1775 30-01-2009 19:10:28 -1.2 C 3.03 g/m*3 -1.2 C 0 km/h
Sensor: Nr:Datum:Temp:Abs-Feuchte:Windchill:Wind:
Aussen-T/F 1776 30-01-2009 19:22:28 -1.2 C 3.03 g/m*3 -1.2 C 0 km/h
1777 30-01-2009 19:34:27 -1.3 C 3.05 g/m*3 -1.3 C 0 km/h
1778 30-01-2009 19:46:28 -1.5 C 3.06 g/m*3 -1.5 C 0 km/h
1779 30-01-2009 19:58:28 -1.5 C 3.06 g/m*3 -1.5 C 0 km/h
1780 30-01-2009 20:10:27 -1.5 C 3.1 g/m*3 -1.5 C 0 km/h
1781 30-01-2009 20:22:27 -1.7 C 3.06 g/m*3 -1.7 C 0 km/h
1782 30-01-2009 20:34:27 -1.7 C 3.1 g/m*3 -1.7 C 0 km/h
1783 30-01-2009 20:46:27 -1.7 C 3.1 g/m*3 -1.7 C 0 km/h
1784 30-01-2009 20:58:27 -1.8 C 3.08 g/m*3 -1.8 C 0 km/h
1785 30-01-2009 21:10:27 -1.8 C 3.12 g/m*3 -1.8 C 0 km/h
1786 30-01-2009 21:22:26 -1.8 C 3.12 g/m*3 -1.8 C 0 km/h
1787 30-01-2009 21:34:26 -2 C 3.08 g/m*3 -2 C 0 km/h
1788 30-01-2009 21:46:26 -2.1 C 3.1 g/m*3 -2.1 C 0 km/h
1789 30-01-2009 21:58:26 -2 C 3.12 g/m*3 -2 C 0 km/h
1790 30-01-2009 22:10:26 -2.1 C 3.06 g/m*3 -2.1 C 0 km/h
1791 30-01-2009 22:22:26 -2.2 C 3.03 g/m*3 -2.2 C 0 km/h
1792 30-01-2009 22:34:26 -2.3 C 3.01 g/m*3 -2.3 C 0 km/h
1793 30-01-2009 22:46:26 -2.4 C 2.99 g/m*3 -2.4 C 0 km/h
1794 30-01-2009 22:58:26 -2.4 C 2.99 g/m*3 -2.4 C 0 km/h
1795 30-01-2009 23:10:25 -2.4 C 2.99 g/m*3 -2.4 C 0 km/h
1796 30-01-2009 23:22:26 -2.6 C 2.95 g/m*3 -2.6 C 0 km/h
1797 30-01-2009 23:35:25 -2.8 C 2.91 g/m*3 -2.8 C 0 km/h
1798 30-01-2009 23:47:25 -2.8 C 2.95 g/m*3 -2.8 C 0 km/h
1799 30-01-2009 23:59:25 -2.8 C 2.99 g/m*3 -2.8 C 0 km/h
1800 31-01-2009 00:11:25 -2.7 C 3.01 g/m*3 -2.7 C 0 km/h
Sensor: Nr:Datum:Temp:Abs-Feuchte:Windchill:Wind:
Aussen-T/F 1801 31-01-2009 00:23:25 -2.3 C 3.1 g/m*3 -2.3 C 0 km/h
1802 31-01-2009 00:35:25 -2.1 C 3.1 g/m*3 -2.1 C 0 km/h
1803 31-01-2009 00:47:25 -1.8 C 3.12 g/m*3 -1.8 C 0 km/h
1804 31-01-2009 00:59:26 -1.7 C 3.06 g/m*3 -1.7 C 0 km/h
1805 31-01-2009 01:11:26 -1.6 C 3.03 g/m*3 -1.6 C 0 km/h
1806 31-01-2009 01:23:26 -1.5 C 2.97 g/m*3 -1.5 C 0 km/h
1807 31-01-2009 01:35:26 -1.4 C 2.99 g/m*3 -1.4 C 0 km/h
1808 31-01-2009 01:47:26 -1.3 C 2.97 g/m*3 -1.3 C 0 km/h
1809 31-01-2009 01:59:26 -1.2 C 2.9 g/m*3 -1.2 C 0 km/h
1810 31-01-2009 02:11:26 -1.2 C 2.85 g/m*3 -1.2 C 0 km/h
1811 31-01-2009 02:23:26 -1.2 C 2.81 g/m*3 -1.2 C 0 km/h
1812 31-01-2009 02:35:26 -1.2 C 2.81 g/m*3 -1.2 C 0 km/h
1813 31-01-2009 02:47:26 -1.1 C 2.78 g/m*3 -1.1 C 0 km/h
1814 31-01-2009 02:59:26 -1.1 C 2.78 g/m*3 -1.1 C 0 km/h
1815 31-01-2009 03:11:26 -1.1 C 2.74 g/m*3 -1.1 C 0 km/h
1816 31-01-2009 03:23:26 -1.1 C 2.74 g/m*3 -1.1 C 0 km/h
1817 31-01-2009 03:35:26 -1 C 2.71 g/m*3 -1 C 0 km/h
1818 31-01-2009 03:47:26 -1 C 2.76 g/m*3 -1 C 0 km/h
1819 31-01-2009 03:59:26 -1 C 2.71 g/m*3 -1 C 0 km/h
1820 31-01-2009 04:11:26 -0.9 C 2.73 g/m*3 -0.9 C 0 km/h
1821 31-01-2009 04:23:26 -0.9 C 2.73 g/m*3 -0.9 C 0 km/h
1822 31-01-2009 04:35:26 -0.9 C 2.73 g/m*3 -0.9 C 0 km/h
1823 31-01-2009 04:47:26 -0.9 C 2.78 g/m*3 -0.9 C 0 km/h
1824 31-01-2009 04:59:27 -0.9 C 2.73 g/m*3 -0.9 C 0 km/h
1825 31-01-2009 05:11:27 -0.9 C 2.73 g/m*3 -0.9 C 0 km/h
Sensor: Nr:Datum:Temp:Abs-Feuchte:Windchill:Wind:
Aussen-T/F 1826 31-01-2009 05:23:27 -0.8 C 2.7 g/m*3 -0.8 C 0 km/h
1827 31-01-2009 05:35:27 -0.8 C 2.66 g/m*3 -0.8 C 0 km/h
1828 31-01-2009 05:47:27 -0.7 C 2.68 g/m*3 -0.7 C 0 km/h
1829 31-01-2009 05:59:27 -0.7 C 2.72 g/m*3 -0.7 C 0 km/h
1830 31-01-2009 06:11:27 -0.7 C 2.68 g/m*3 -0.7 C 0 km/h
1831 31-01-2009 06:23:27 -0.7 C 2.68 g/m*3 -0.7 C 0 km/h
1832 31-01-2009 06:35:27 -0.6 C 2.65 g/m*3 -0.6 C 0 km/h
1833 31-01-2009 06:47:27 -0.6 C 2.6 g/m*3 -0.6 C 0 km/h
1834 31-01-2009 06:59:27 -0.6 C 2.6 g/m*3 -0.6 C 0 km/h
1835 31-01-2009 07:11:27 -0.6 C 2.6 g/m*3 -0.6 C 0 km/h
1836 31-01-2009 07:23:27 -0.6 C 2.6 g/m*3 -0.6 C 0 km/h
1837 31-01-2009 07:35:27 -0.6 C 2.6 g/m*3 -0.6 C 0 km/h
1838 31-01-2009 07:47:27 -0.6 C 2.6 g/m*3 -0.6 C 0 km/h
1839 31-01-2009 07:59:27 -0.5 C 2.57 g/m*3 -0.5 C 0 km/h
1840 31-01-2009 08:11:27 -0.6 C 2.56 g/m*3 -0.6 C 0 km/h
1841 31-01-2009 08:23:27 -0.5 C 2.57 g/m*3 -0.5 C 0 km/h
1842 31-01-2009 08:35:27 -0.5 C 2.57 g/m*3 -0.5 C 0 km/h
1843 31-01-2009 08:47:27 -0.4 C 2.59 g/m*3 -0.4 C 0 km/h
1844 31-01-2009 08:59:28 -0.4 C 2.59 g/m*3 -0.4 C 0 km/h
1845 31-01-2009 09:11:25 -0.4 C 2.59 g/m*3 -0.4 C 0 km/h
1846 31-01-2009 09:23:25 -0.3 C 2.61 g/m*3 -0.3 C 0 km/h
1847 31-01-2009 09:35:26 -0.3 C 2.56 g/m*3 -0.3 C 0 km/h
1848 31-01-2009 09:47:25 -0.2 C 2.53 g/m*3 -0.2 C 0 km/h
1849 31-01-2009 09:59:25 -0.2 C 2.53 g/m*3 -0.2 C 0 km/h
1850 31-01-2009 10:11:25 -0.1 C 2.55 g/m*3 -0.1 C 0 km/h
Sensor: Nr:Datum:Temp:Abs-Feuchte:Windchill:Wind:
Aussen-T/F 1851 31-01-2009 10:23:25 -0.1 C 2.55 g/m*3 -0.1 C 0 km/h
1852 31-01-2009 10:35:25 0 C 2.62 g/m*3 0 C 0 km/h
1853 31-01-2009 10:47:24 0.1 C 2.59 g/m*3 0.1 C 0 km/h
1854 31-01-2009 10:59:24 0.1 C 2.59 g/m*3 0.1 C 0 km/h
1855 31-01-2009 11:11:25 0.2 C 2.55 g/m*3 0.2 C 0 km/h
1856 31-01-2009 11:23:24 0.3 C 2.57 g/m*3 0.3 C 0 km/h
1857 31-01-2009 11:35:24 0.5 C 2.56 g/m*3 0.5 C 0 km/h
1858 31-01-2009 11:47:23 0.5 C 2.56 g/m*3 0.5 C 0 km/h
1859 31-01-2009 11:59:23 0.6 C 2.52 g/m*3 0.6 C 0 km/h
1860 31-01-2009 12:11:24 0.7 C 2.54 g/m*3 0.7 C 0 km/h
1861 31-01-2009 12:23:23 0.7 C 2.49 g/m*3 0.7 C 0 km/h
1862 31-01-2009 12:35:23 0.6 C 2.47 g/m*3 0.6 C 0 km/h
1863 31-01-2009 12:47:24 0.7 C 2.49 g/m*3 0.7 C 0 km/h
1864 31-01-2009 12:59:24 0.7 C 2.49 g/m*3 0.7 C 0 km/h
1865 31-01-2009 13:11:23 0.6 C 2.42 g/m*3 0.6 C 0 km/h
1866 31-01-2009 13:23:23 0.8 C 2.46 g/m*3 0.8 C 0 km/h
1867 31-01-2009 13:35:23 0.8 C 2.41 g/m*3 0.8 C 0 km/h
1868 31-01-2009 13:47:23 0.8 C 2.41 g/m*3 0.8 C 0 km/h
1869 31-01-2009 13:59:23 0.7 C 2.44 g/m*3 0.7 C 0 km/h
1870 31-01-2009 14:11:22 0.8 C 2.46 g/m*3 0.8 C 0 km/h
1871 31-01-2009 14:23:23 1 C 2.39 g/m*3 1 C 0 km/h
1872 31-01-2009 14:35:22 1.1 C 2.4 g/m*3 1.1 C 0 km/h
1873 31-01-2009 14:47:22 1.3 C 2.44 g/m*3 1.3 C 0 km/h
1874 31-01-2009 14:59:22 1.3 C 2.33 g/m*3 1.3 C 0 km/h
1875 31-01-2009 15:11:22 1.2 C 2.32 g/m*3 1.2 C 0 km/h
Sensor: Nr:Datum:Temp:Abs-Feuchte:Windchill:Wind:
Aussen-T/F 1876 31-01-2009 15:23:22 1.5 C 2.26 g/m*3 1.5 C 0 km/h
1877 31-01-2009 15:35:22 2.5 C 2.3 g/m*3 2.5 C 0 km/h
1878 31-01-2009 15:47:22 3.1 C 2.21 g/m*3 3.1 C 0 km/h
1879 31-01-2009 15:59:22 3.3 C 2.24 g/m*3 3.3 C 0 km/h
1880 31-01-2009 16:11:22 2.5 C 2.3 g/m*3 2.5 C 0 km/h
1881 31-01-2009 16:23:21 1.8 C 2.41 g/m*3 1.8 C 0 km/h
1882 31-01-2009 16:35:21 1.6 C 2.43 g/m*3 1.6 C 0 km/h
1883 31-01-2009 16:47:21 1.4 C 2.45 g/m*3 1.4 C 0 km/h
1884 31-01-2009 16:59:21 0.8 C 2.51 g/m*3 0.8 C 0 km/h
1885 31-01-2009 17:11:21 0.5 C 2.56 g/m*3 0.5 C 0 km/h
1886 31-01-2009 17:23:20 0.2 C 2.51 g/m*3 0.2 C 0 km/h
1887 31-01-2009 17:35:21 0.1 C 2.54 g/m*3 0.1 C 0 km/h
1888 31-01-2009 17:47:20 0.1 C 2.54 g/m*3 0.1 C 0 km/h
1889 31-01-2009 17:59:20 0.1 C 2.49 g/m*3 0.1 C 0 km/h
1890 31-01-2009 18:11:20 0.2 C 2.51 g/m*3 0.2 C 0 km/h
1891 31-01-2009 18:23:20 0.2 C 2.51 g/m*3 0.2 C 0 km/h
1892 31-01-2009 18:35:20 0.4 C 2.44 g/m*3 0.4 C 0 km/h
1893 31-01-2009 18:47:19 0.6 C 2.47 g/m*3 0.6 C 0 km/h
1894 31-01-2009 18:59:19 0.8 C 2.46 g/m*3 0.8 C 0 km/h
1895 31-01-2009 19:11:20 0.8 C 2.46 g/m*3 0.8 C 0 km/h
1896 31-01-2009 19:23:20 0.8 C 2.46 g/m*3 0.8 C 0 km/h
1897 31-01-2009 19:35:19 0.7 C 2.54 g/m*3 0.7 C 0 km/h
1898 31-01-2009 19:47:20 0.7 C 2.49 g/m*3 0.7 C 0 km/h
1899 31-01-2009 19:59:20 0.7 C 2.54 g/m*3 0.7 C 0 km/h
1900 31-01-2009 20:11:19 1 C 2.44 g/m*3 1 C 0 km/h
Sensor: Nr:Datum:Temp:Abs-Feuchte:Windchill:Wind:
Aussen-T/F 1901 31-01-2009 20:23:19 1.1 C 2.35 g/m*3 1.1 C 0 km/h
1902 31-01-2009 20:35:18 1 C 2.39 g/m*3 1 C 0 km/h
1903 31-01-2009 20:47:19 1.1 C 2.3 g/m*3 1.1 C 0 km/h
1904 31-01-2009 20:59:19 1.2 C 2.32 g/m*3 1.2 C 0 km/h
1905 31-01-2009 21:11:18 1.2 C 2.26 g/m*3 1.2 C 0 km/h
1906 31-01-2009 21:23:19 1.1 C 2.3 g/m*3 1.1 C 0 km/h
1907 31-01-2009 21:35:18 1.2 C 2.21 g/m*3 1.2 C 0 km/h
1908 31-01-2009 21:47:18 1 C 2.23 g/m*3 1 C 0 km/h
1909 31-01-2009 21:59:18 1 C 2.28 g/m*3 1 C 0 km/h
1910 31-01-2009 22:11:18 0.7 C 2.39 g/m*3 0.7 C 0 km/h
1911 31-01-2009 22:24:20 0.6 C 2.42 g/m*3 0.6 C 0 km/h
1912 31-01-2009 22:36:20 0.5 C 2.46 g/m*3 0.5 C 0 km/h
1913 31-01-2009 22:48:20 0.3 C 2.52 g/m*3 0.3 C 0 km/h
1914 31-01-2009 23:00:20 0.5 C 2.61 g/m*3 0.5 C 0 km/h
1915 31-01-2009 23:12:20 0.3 C 2.62 g/m*3 0.3 C 0 km/h
1916 31-01-2009 23:24:20 0 C 2.62 g/m*3 0 C 0 km/h
1917 31-01-2009 23:36:20 -0.3 C 2.61 g/m*3 -0.3 C 0 km/h
1918 31-01-2009 23:48:20 -0.4 C 2.64 g/m*3 -0.4 C 0 km/h
1919 01-02-2009 00:00:20 -0.4 C 2.69 g/m*3 -0.4 C 0 km/h
1920 01-02-2009 00:12:20 -0.3 C 2.66 g/m*3 -0.3 C 0 km/h
1921 01-02-2009 00:24:20 -0.3 C 2.66 g/m*3 -0.3 C 0 km/h
1922 01-02-2009 00:36:20 -0.3 C 2.66 g/m*3 -0.3 C 0 km/h
1923 01-02-2009 00:48:20 -0.2 C 2.63 g/m*3 -0.2 C 0 km/h
1924 01-02-2009 01:00:20 -0.2 C 2.48 g/m*3 -0.2 C 0 km/h
1925 01-02-2009 01:12:20 -0.2 C 2.39 g/m*3 -0.2 C 0 km/h
Sensor: Nr:Datum:Temp:Abs-Feuchte:Windchill:Wind:
Aussen-T/F 1926 01-02-2009 01:24:20 -0.2 C 2.34 g/m*3 -0.2 C 0 km/h
1927 01-02-2009 01:36:20 -0.2 C 2.29 g/m*3 -0.2 C 0 km/h
1928 01-02-2009 01:48:21 -0.1 C 2.21 g/m*3 -0.1 C 0 km/h
1929 01-02-2009 02:00:21 -0.1 C 2.17 g/m*3 -0.1 C 0 km/h
1930 01-02-2009 02:12:21 -0.1 C 2.17 g/m*3 -0.1 C 0 km/h
1931 01-02-2009 02:24:21 -0.1 C 2.17 g/m*3 -0.1 C 0 km/h
1932 01-02-2009 02:36:21 -0.2 C 2.15 g/m*3 -0.2 C 0 km/h
1933 01-02-2009 02:48:21 -0.2 C 2.1 g/m*3 -0.2 C 0 km/h
1934 01-02-2009 03:00:21 -0.1 C 2.02 g/m*3 -0.1 C 0 km/h
1935 01-02-2009 03:12:21 -0.1 C 1.97 g/m*3 -0.1 C 0 km/h
1936 01-02-2009 03:24:21 -0.1 C 2.02 g/m*3 -0.1 C 0 km/h
1937 01-02-2009 03:36:21 -0.2 C 2.01 g/m*3 -0.2 C 0 km/h
1938 01-02-2009 03:48:21 -0.2 C 2.05 g/m*3 -0.2 C 0 km/h
1939 01-02-2009 04:00:21 -0.2 C 1.96 g/m*3 -0.2 C 0 km/h
1940 01-02-2009 04:12:21 -0.1 C 1.97 g/m*3 -0.1 C 0 km/h
1941 01-02-2009 04:24:21 -0.2 C 1.96 g/m*3 -0.2 C 0 km/h
1942 01-02-2009 04:36:21 -0.3 C 2.04 g/m*3 -0.3 C 0 km/h
1943 01-02-2009 04:48:21 -0.4 C 2.12 g/m*3 -0.4 C 0 km/h
1944 01-02-2009 05:00:21 -0.4 C 2.22 g/m*3 -0.4 C 0 km/h
1945 01-02-2009 05:12:21 -0.5 C 2.29 g/m*3 -0.5 C 0 km/h
1946 01-02-2009 05:24:21 -0.4 C 2.36 g/m*3 -0.4 C 0 km/h
1947 01-02-2009 05:36:21 -0.5 C 2.25 g/m*3 -0.5 C 0 km/h
1948 01-02-2009 05:48:22 -0.5 C 2.15 g/m*3 -0.5 C 0 km/h
1949 01-02-2009 06:00:22 -0.6 C 2.09 g/m*3 -0.6 C 0 km/h
1950 01-02-2009 06:12:22 -0.6 C 2.05 g/m*3 -0.6 C 0 km/h
Sensor: Nr:Datum:Temp:Abs-Feuchte:Windchill:Wind:
Aussen-T/F 1951 01-02-2009 06:24:22 -0.7 C 1.98 g/m*3 -0.7 C 0 km/h
1952 01-02-2009 06:36:22 -0.7 C 1.98 g/m*3 -0.7 C 0 km/h
1953 01-02-2009 06:48:22 -0.8 C 1.97 g/m*3 -0.8 C 0 km/h
1954 01-02-2009 07:00:22 -0.9 C 1.96 g/m*3 -0.9 C 0 km/h
1955 01-02-2009 07:12:22 -0.9 C 1.96 g/m*3 -0.9 C 0 km/h
1956 01-02-2009 07:24:22 -1 C 1.94 g/m*3 -1 C 0 km/h
1957 01-02-2009 07:36:22 -1 C 1.94 g/m*3 -1 C 0 km/h
1958 01-02-2009 07:48:22 -1 C 1.99 g/m*3 -1 C 0 km/h
1959 01-02-2009 08:00:22 -1.1 C 2.02 g/m*3 -1.1 C 0 km/h
1960 01-02-2009 08:12:22 -1.1 C 2.02 g/m*3 -1.1 C 0 km/h
1961 01-02-2009 08:24:22 -1.1 C 2.07 g/m*3 -1.1 C 0 km/h
1962 01-02-2009 08:36:19 -1.1 C 2.11 g/m*3 -1.1 C 0 km/h
1963 01-02-2009 08:48:19 -1.1 C 2.11 g/m*3 -1.1 C 0 km/h
1964 01-02-2009 09:00:19 -1 C 2.12 g/m*3 -1 C 0 km/h
1965 01-02-2009 09:12:19 -0.9 C 2.14 g/m*3 -0.9 C 0 km/h
1966 01-02-2009 09:24:18 -0.8 C 2.15 g/m*3 -0.8 C 0 km/h
1967 01-02-2009 09:36:19 -0.8 C 2.15 g/m*3 -0.8 C 0 km/h
1968 01-02-2009 09:48:18 -0.8 C 2.15 g/m*3 -0.8 C 0 km/h
1969 01-02-2009 10:00:18 -0.6 C 2.14 g/m*3 -0.6 C 0 km/h
1970 01-02-2009 10:12:18 -0.4 C 2.17 g/m*3 -0.4 C 0 km/h
1971 01-02-2009 10:24:18 -0.2 C 2.2 g/m*3 -0.2 C 0 km/h
1972 01-02-2009 10:36:18 -0.1 C 2.12 g/m*3 -0.1 C 0 km/h
1973 01-02-2009 10:48:17 0 C 2.18 g/m*3 0 C 0 km/h
1974 01-02-2009 11:00:18 0 C 2.13 g/m*3 0 C 0 km/h
1975 01-02-2009 11:12:18 0.2 C 2.16 g/m*3 0.2 C 0 km/h
Sensor: Nr:Datum:Temp:Abs-Feuchte:Windchill:Wind:
Aussen-T/F 1976 01-02-2009 11:24:18 0.1 C 2.15 g/m*3 0.1 C 0 km/h
1977 01-02-2009 11:36:17 0.4 C 2.24 g/m*3 0.4 C 0 km/h
1978 01-02-2009 11:48:18 0.6 C 2.12 g/m*3 0.6 C 0 km/h
1979 01-02-2009 12:00:17 0.8 C 2.15 g/m*3 0.8 C 0 km/h
1980 01-02-2009 12:12:17 1 C 2.08 g/m*3 1 C 0 km/h
1981 01-02-2009 12:24:17 1.1 C 2.14 g/m*3 1.1 C 0 km/h
1982 01-02-2009 12:36:17 0.5 C 2.21 g/m*3 0.5 C 0 km/h
1983 01-02-2009 12:48:17 0.5 C 2.31 g/m*3 0.5 C 0 km/h
1984 01-02-2009 13:00:16 0.8 C 2.41 g/m*3 0.8 C 0 km/h
1985 01-02-2009 13:12:16 0.9 C 2.32 g/m*3 0.9 C 0 km/h
1986 01-02-2009 13:24:17 1.2 C 2.16 g/m*3 1.2 C 0 km/h
1987 01-02-2009 13:36:17 1.3 C 2.12 g/m*3 1.3 C 0 km/h
1988 01-02-2009 13:48:16 1.5 C 2.09 g/m*3 1.5 C 0 km/h
1989 01-02-2009 14:00:16 1.8 C 2.19 g/m*3 1.8 C 0 km/h
1990 01-02-2009 14:12:16 2.1 C 2.07 g/m*3 2.1 C 0 km/h
1991 01-02-2009 14:24:16 2.5 C 2.01 g/m*3 2.5 C 0 km/h
1992 01-02-2009 14:36:15 2.1 C 1.96 g/m*3 2.1 C 0 km/h
1993 01-02-2009 14:48:16 1.8 C 1.97 g/m*3 1.8 C 0 km/h
1994 01-02-2009 15:00:15 1.9 C 2.1 g/m*3 1.9 C 0 km/h
1995 01-02-2009 15:12:15 1.7 C 2.01 g/m*3 1.7 C 0 km/h
1996 01-02-2009 15:24:15 1.6 C 2.11 g/m*3 1.6 C 0 km/h
1997 01-02-2009 15:36:16 1.4 C 2.08 g/m*3 1.4 C 0 km/h
1998 01-02-2009 15:48:15 1.3 C 2.07 g/m*3 1.3 C 0 km/h
1999 01-02-2009 16:00:15 1 C 2.08 g/m*3 1 C 0 km/h
2000 01-02-2009 16:12:15 1 C 2.13 g/m*3 1 C 0 km/h
Sensor: Nr:Datum:Temp:Abs-Feuchte:Windchill:Wind:
Aussen-T/F 2001 01-02-2009 16:24:14 0.9 C 2.22 g/m*3 0.9 C 0 km/h
2002 01-02-2009 16:36:15 0.8 C 2.25 g/m*3 0.8 C 0 km/h
2003 01-02-2009 16:48:14 0.7 C 2.29 g/m*3 0.7 C 0 km/h
2004 01-02-2009 17:00:14 0.6 C 2.32 g/m*3 0.6 C 0 km/h
2005 01-02-2009 17:12:14 0.6 C 2.47 g/m*3 0.6 C 0 km/h
2006 01-02-2009 17:24:14 0.4 C 2.49 g/m*3 0.4 C 0 km/h
2007 01-02-2009 17:36:14 0.3 C 2.52 g/m*3 0.3 C 0 km/h
2008 01-02-2009 17:48:13 0.2 C 2.51 g/m*3 0.2 C 0 km/h
2009 01-02-2009 18:00:14 0.2 C 2.51 g/m*3 0.2 C 0 km/h
2010 01-02-2009 18:12:14 0.2 C 2.46 g/m*3 0.2 C 0 km/h
2011 01-02-2009 18:24:13 0.1 C 2.44 g/m*3 0.1 C 0 km/h
2012 01-02-2009 18:36:13 0 C 2.47 g/m*3 0 C 0 km/h
2013 01-02-2009 18:48:13 -0.1 C 2.5 g/m*3 -0.1 C 0 km/h
2014 01-02-2009 19:00:13 -0.2 C 2.53 g/m*3 -0.2 C 0 km/h
2015 01-02-2009 19:12:13 -0.4 C 2.5 g/m*3 -0.4 C 0 km/h
2016 01-02-2009 19:24:13 -0.5 C 2.53 g/m*3 -0.5 C 0 km/h
2017 01-02-2009 19:36:13 -0.6 C 2.46 g/m*3 -0.6 C 0 km/h
2018 01-02-2009 19:48:13 -0.7 C 2.45 g/m*3 -0.7 C 0 km/h
2019 01-02-2009 20:00:12 -0.8 C 2.43 g/m*3 -0.8 C 0 km/h
2020 01-02-2009 20:12:12 -0.9 C 2.41 g/m*3 -0.9 C 0 km/h
2021 01-02-2009 20:24:13 -1 C 2.4 g/m*3 -1 C 0 km/h
2022 01-02-2009 20:36:12 -1 C 2.4 g/m*3 -1 C 0 km/h
2023 01-02-2009 20:48:12 -1.1 C 2.38 g/m*3 -1.1 C 0 km/h
2024 01-02-2009 21:00:12 -1.2 C 2.36 g/m*3 -1.2 C 0 km/h
2025 01-02-2009 21:12:13 -1.1 C 2.38 g/m*3 -1.1 C 0 km/h
Sensor: Nr:Datum:Temp:Abs-Feuchte:Windchill:Wind:
Aussen-T/F 2026 01-02-2009 21:24:11 -1 C 2.4 g/m*3 -1 C 0 km/h
2027 01-02-2009 21:36:12 -1 C 2.35 g/m*3 -1 C 0 km/h
2028 01-02-2009 21:48:11 -1 C 2.35 g/m*3 -1 C 0 km/h
2029 01-02-2009 22:00:11 -0.9 C 2.37 g/m*3 -0.9 C 0 km/h
2030 01-02-2009 22:12:11 -1 C 2.35 g/m*3 -1 C 0 km/h
2031 01-02-2009 22:24:12 -1 C 2.35 g/m*3 -1 C 0 km/h
2032 01-02-2009 22:36:11 -0.9 C 2.37 g/m*3 -0.9 C 0 km/h
2033 01-02-2009 22:49:13 -1 C 2.35 g/m*3 -1 C 0 km/h
2034 01-02-2009 23:01:13 -1 C 2.35 g/m*3 -1 C 0 km/h
2035 01-02-2009 23:13:13 -1.1 C 2.38 g/m*3 -1.1 C 0 km/h
2036 01-02-2009 23:25:13 -1.1 C 2.38 g/m*3 -1.1 C 0 km/h
2037 01-02-2009 23:37:13 -1.2 C 2.36 g/m*3 -1.2 C 0 km/h
2038 01-02-2009 23:49:13 -1.1 C 2.42 g/m*3 -1.1 C 0 km/h
2039 02-02-2009 00:01:13 -1 C 2.44 g/m*3 -1 C 0 km/h
2040 02-02-2009 00:13:13 -1 C 2.44 g/m*3 -1 C 0 km/h
2041 02-02-2009 00:25:13 -1.2 C 2.41 g/m*3 -1.2 C 0 km/h
2042 02-02-2009 00:37:13 -1.4 C 2.42 g/m*3 -1.4 C 0 km/h
2043 02-02-2009 00:49:13 -1.7 C 2.41 g/m*3 -1.7 C 0 km/h
2044 02-02-2009 01:01:13 -1.8 C 2.39 g/m*3 -1.8 C 0 km/h
2045 02-02-2009 01:13:13 -1.8 C 2.44 g/m*3 -1.8 C 0 km/h
2046 02-02-2009 01:25:13 -2.1 C 2.43 g/m*3 -2.1 C 0 km/h
2047 02-02-2009 01:37:13 -2.1 C 2.47 g/m*3 -2.1 C 0 km/h
2048 02-02-2009 01:49:13 -2.3 C 2.44 g/m*3 -2.3 C 0 km/h
2049 02-02-2009 02:01:14 -2.3 C 2.48 g/m*3 -2.3 C 0 km/h
2050 02-02-2009 02:13:14 -2.1 C 2.55 g/m*3 -2.1 C 0 km/h
Sensor: Nr:Datum:Temp:Abs-Feuchte:Windchill:Wind:
Aussen-T/F 2051 02-02-2009 02:25:14 -1.9 C 2.55 g/m*3 -1.9 C 0 km/h
2052 02-02-2009 02:37:14 -1.7 C 2.58 g/m*3 -1.7 C 0 km/h
2053 02-02-2009 02:49:14 -1.5 C 2.58 g/m*3 -1.5 C 0 km/h
2054 02-02-2009 03:01:14 -1.3 C 2.57 g/m*3 -1.3 C 0 km/h
2055 02-02-2009 03:13:14 -1.3 C 2.52 g/m*3 -1.3 C 0 km/h
2056 02-02-2009 03:25:14 -1.3 C 2.52 g/m*3 -1.3 C 0 km/h
2057 02-02-2009 03:37:14 -1.2 C 2.54 g/m*3 -1.2 C 0 km/h
2058 02-02-2009 03:49:14 -1.1 C 2.56 g/m*3 -1.1 C 0 km/h
2059 02-02-2009 04:01:14 -1 C 2.58 g/m*3 -1 C 0 km/h
2060 02-02-2009 04:13:14 -0.8 C 2.57 g/m*3 -0.8 C 0 km/h
2061 02-02-2009 04:25:14 -0.7 C 2.58 g/m*3 -0.7 C 0 km/h
2062 02-02-2009 04:37:14 -0.7 C 2.54 g/m*3 -0.7 C 0 km/h
2063 02-02-2009 04:49:14 -0.8 C 2.52 g/m*3 -0.8 C 0 km/h
2064 02-02-2009 05:01:14 -0.8 C 2.57 g/m*3 -0.8 C 0 km/h
2065 02-02-2009 05:13:14 -0.8 C 2.57 g/m*3 -0.8 C 0 km/h
2066 02-02-2009 05:25:14 -0.8 C 2.57 g/m*3 -0.8 C 0 km/h
2067 02-02-2009 05:37:14 -0.7 C 2.58 g/m*3 -0.7 C 0 km/h
2068 02-02-2009 05:49:15 -0.8 C 2.61 g/m*3 -0.8 C 0 km/h
2069 02-02-2009 06:01:15 -0.7 C 2.58 g/m*3 -0.7 C 0 km/h
2070 02-02-2009 06:13:15 -0.8 C 2.61 g/m*3 -0.8 C 0 km/h
2071 02-02-2009 06:25:15 -0.8 C 2.66 g/m*3 -0.8 C 0 km/h
2072 02-02-2009 06:37:15 -0.8 C 2.66 g/m*3 -0.8 C 0 km/h
2073 02-02-2009 06:49:12 -0.8 C 2.66 g/m*3 -0.8 C 0 km/h
2074 02-02-2009 07:01:12 -0.9 C 2.64 g/m*3 -0.9 C 0 km/h
2075 02-02-2009 07:13:12 -0.9 C 2.69 g/m*3 -0.9 C 0 km/h
Sensor: Nr:Datum:Temp:Abs-Feuchte:Windchill:Wind:
Aussen-T/F 2076 02-02-2009 07:25:12 -0.8 C 2.75 g/m*3 -0.8 C 0 km/h
2077 02-02-2009 07:37:12 -0.6 C 2.79 g/m*3 -0.6 C 0 km/h
2078 02-02-2009 07:49:11 -0.5 C 2.86 g/m*3 -0.5 C 0 km/h
2079 02-02-2009 08:01:11 -0.5 C 2.86 g/m*3 -0.5 C 0 km/h
2080 02-02-2009 08:13:12 -0.4 C 2.83 g/m*3 -0.4 C 0 km/h
2081 02-02-2009 08:25:11 -0.3 C 2.8 g/m*3 -0.3 C 0 km/h
2082 02-02-2009 08:37:11 -0.6 C 2.79 g/m*3 -0.6 C 0 km/h
2083 02-02-2009 08:49:10 -0.8 C 2.8 g/m*3 -0.8 C 0 km/h
2084 02-02-2009 09:01:11 -0.7 C 2.77 g/m*3 -0.7 C 0 km/h
2085 02-02-2009 09:13:11 -0.5 C 2.81 g/m*3 -0.5 C 0 km/h
2086 02-02-2009 09:25:11 -0.2 C 2.72 g/m*3 -0.2 C 0 km/h
2087 02-02-2009 09:37:10 -0.2 C 2.77 g/m*3 -0.2 C 0 km/h
2088 02-02-2009 09:49:11 -0.1 C 2.79 g/m*3 -0.1 C 0 km/h
2089 02-02-2009 10:01:10 0.1 C 2.78 g/m*3 0.1 C 0 km/h
2090 02-02-2009 10:13:10 0.3 C 2.77 g/m*3 0.3 C 0 km/h
2091 02-02-2009 10:25:10 0.4 C 2.74 g/m*3 0.4 C 0 km/h
2092 02-02-2009 10:37:09 0.9 C 2.73 g/m*3 0.9 C 0 km/h
2093 02-02-2009 10:49:10 1.2 C 2.74 g/m*3 1.2 C 0 km/h
2094 02-02-2009 11:01:10 1.5 C 2.69 g/m*3 1.5 C 0 km/h
2095 02-02-2009 11:13:10 1.8 C 2.69 g/m*3 1.8 C 0 km/h
2096 02-02-2009 11:25:09 2.1 C 2.63 g/m*3 2.1 C 0 km/h
2097 02-02-2009 11:37:10 2.5 C 2.64 g/m*3 2.5 C 0 km/h
2098 02-02-2009 11:49:09 2.8 C 2.7 g/m*3 2.8 C 0 km/h
2099 02-02-2009 12:01:09 3.3 C 2.73 g/m*3 3.3 C 0 km/h
2100 02-02-2009 12:13:09 4 C 2.67 g/m*3 4 C 0 km/h
Sensor: Nr:Datum:Temp:Abs-Feuchte:Windchill:Wind:
Aussen-T/F 2101 02-02-2009 12:25:09 4.2 C 2.58 g/m*3 4.2 C 0 km/h
2102 02-02-2009 12:37:09 4.4 C 2.48 g/m*3 4.4 C 0 km/h
2103 02-02-2009 12:49:08 4.6 C 2.51 g/m*3 4.6 C 0 km/h
2104 02-02-2009 13:01:09 4.6 C 2.45 g/m*3 4.6 C 0 km/h
2105 02-02-2009 13:13:09 4.7 C 2.53 g/m*3 4.7 C 0 km/h
2106 02-02-2009 13:25:08 4.8 C 2.55 g/m*3 4.8 C 0 km/h
2107 02-02-2009 13:37:08 4.9 C 2.5 g/m*3 4.9 C 0 km/h
2108 02-02-2009 13:49:08 5 C 2.45 g/m*3 5 C 0 km/h
2109 02-02-2009 14:01:08 5.3 C 2.5 g/m*3 5.3 C 0 km/h
2110 02-02-2009 14:13:08 5.3 C 2.5 g/m*3 5.3 C 0 km/h
2111 02-02-2009 14:25:08 5.4 C 2.51 g/m*3 5.4 C 0 km/h
2112 02-02-2009 14:37:07 5.1 C 2.53 g/m*3 5.1 C 0 km/h
2113 02-02-2009 14:49:08 5.1 C 2.67 g/m*3 5.1 C 0 km/h
2114 02-02-2009 15:01:07 5.2 C 2.62 g/m*3 5.2 C 0 km/h
2115 02-02-2009 15:13:07 5.1 C 2.67 g/m*3 5.1 C 0 km/h
2116 02-02-2009 15:25:07 5.1 C 2.67 g/m*3 5.1 C 0 km/h
2117 02-02-2009 15:37:07 5.1 C 2.67 g/m*3 5.1 C 0 km/h
2118 02-02-2009 15:49:07 5 C 2.72 g/m*3 5 C 0 km/h
2119 02-02-2009 16:01:06 4.9 C 2.7 g/m*3 4.9 C 0 km/h
2120 02-02-2009 16:13:06 4.6 C 2.78 g/m*3 4.6 C 0 km/h
2121 02-02-2009 16:25:07 4.3 C 2.79 g/m*3 4.3 C 0 km/h
2122 02-02-2009 16:37:07 3.9 C 2.91 g/m*3 3.9 C 0 km/h
2123 02-02-2009 16:49:06 3.7 C 2.93 g/m*3 3.7 C 0 km/h
2124 02-02-2009 17:01:06 3.5 C 2.95 g/m*3 3.5 C 0 km/h
2125 02-02-2009 17:13:06 3.3 C 2.97 g/m*3 3.3 C 0 km/h
Sensor: Nr:Datum:Temp:Abs-Feuchte:Windchill:Wind:
Aussen-T/F 2126 02-02-2009 17:25:06 3.1 C 2.99 g/m*3 3.1 C 0 km/h
2127 02-02-2009 17:37:06 3.1 C 2.99 g/m*3 3.1 C 0 km/h
2128 02-02-2009 17:49:06 3 C 3.03 g/m*3 3 C 0 km/h
2129 02-02-2009 18:01:05 2.6 C 3.07 g/m*3 2.6 C 0 km/h
2130 02-02-2009 18:13:05 2.7 C 3.09 g/m*3 2.7 C 0 km/h
2131 02-02-2009 18:25:06 2.6 C 3.07 g/m*3 2.6 C 0 km/h
2132 02-02-2009 18:37:06 2.2 C 3.1 g/m*3 2.2 C 0 km/h
2133 02-02-2009 18:49:06 2.1 C 3.13 g/m*3 2.1 C 0 km/h
2134 02-02-2009 19:01:06 1.8 C 3.18 g/m*3 1.8 C 0 km/h
2135 02-02-2009 19:13:06 1.5 C 3.17 g/m*3 1.5 C 0 km/h
2136 02-02-2009 19:25:05 1.3 C 3.23 g/m*3 1.3 C 0 km/h
2137 02-02-2009 19:37:05 1.1 C 3.24 g/m*3 1.1 C 0 km/h
2138 02-02-2009 19:49:04 1.3 C 3.28 g/m*3 1.3 C 0 km/h
2139 02-02-2009 20:01:05 1.2 C 3.21 g/m*3 1.2 C 0 km/h
2140 02-02-2009 20:13:05 1 C 3.27 g/m*3 1 C 0 km/h
2141 02-02-2009 20:25:04 1.3 C 3.34 g/m*3 1.3 C 0 km/h
2142 02-02-2009 20:37:04 1.2 C 3.26 g/m*3 1.2 C 0 km/h
2143 02-02-2009 20:49:05 1.4 C 3.31 g/m*3 1.4 C 0 km/h
2144 02-02-2009 21:01:03 1.6 C 3.35 g/m*3 1.6 C 0 km/h
2145 02-02-2009 21:13:03 1.3 C 3.28 g/m*3 1.3 C 0 km/h
2146 02-02-2009 21:26:05 1.5 C 3.33 g/m*3 1.5 C 0 km/h
2147 02-02-2009 21:38:05 1.4 C 3.31 g/m*3 1.4 C 0 km/h
2148 02-02-2009 21:50:06 1.2 C 3.26 g/m*3 1.2 C 0 km/h
2149 02-02-2009 22:02:06 1.1 C 3.34 g/m*3 1.1 C 0 km/h
2150 02-02-2009 22:14:06 0.8 C 3.33 g/m*3 0.8 C 0 km/h
Sensor: Nr:Datum:Temp:Abs-Feuchte:Windchill:Wind:
Aussen-T/F 2151 02-02-2009 22:26:06 0.6 C 3.43 g/m*3 0.6 C 0 km/h
2152 02-02-2009 22:38:06 0.4 C 3.44 g/m*3 0.4 C 0 km/h
2153 02-02-2009 22:50:06 0.3 C 3.46 g/m*3 0.3 C 0 km/h
2154 02-02-2009 23:02:06 0.1 C 3.42 g/m*3 0.1 C 0 km/h
2155 02-02-2009 23:14:06 0 C 3.44 g/m*3 0 C 0 km/h
2156 02-02-2009 23:26:06 -0.1 C 3.46 g/m*3 -0.1 C 0 km/h
2157 02-02-2009 23:38:06 -0.3 C 3.42 g/m*3 -0.3 C 0 km/h
2158 02-02-2009 23:50:06 -0.3 C 3.46 g/m*3 -0.3 C 0 km/h
2159 03-02-2009 00:02:06 -0.4 C 3.49 g/m*3 -0.4 C 0 km/h
2160 03-02-2009 00:14:06 -0.5 C 3.46 g/m*3 -0.5 C 0 km/h
2161 03-02-2009 00:26:06 -0.7 C 3.42 g/m*3 -0.7 C 0 km/h
2162 03-02-2009 00:38:06 -0.9 C 3.41 g/m*3 -0.9 C 0 km/h
2163 03-02-2009 00:50:06 -1.1 C 3.37 g/m*3 -1.1 C 0 km/h
2164 03-02-2009 01:02:06 -1.2 C 3.43 g/m*3 -1.2 C 0 km/h
2165 03-02-2009 01:14:06 -1.3 C 3.41 g/m*3 -1.3 C 0 km/h
2166 03-02-2009 01:26:06 -1.3 C 3.45 g/m*3 -1.3 C 0 km/h
2167 03-02-2009 01:38:06 -1.4 C 3.43 g/m*3 -1.4 C 0 km/h
2168 03-02-2009 01:50:07 -1.4 C 3.47 g/m*3 -1.4 C 0 km/h
2169 03-02-2009 02:02:07 -1.4 C 3.47 g/m*3 -1.4 C 0 km/h
2170 03-02-2009 02:14:07 -1.4 C 3.52 g/m*3 -1.4 C 0 km/h
2171 03-02-2009 02:26:07 -1.4 C 3.56 g/m*3 -1.4 C 0 km/h
2172 03-02-2009 02:38:07 -1.6 C 3.51 g/m*3 -1.6 C 0 km/h
2173 03-02-2009 02:50:07 -1.7 C 3.49 g/m*3 -1.7 C 0 km/h
2174 03-02-2009 03:02:07 -1.7 C 3.49 g/m*3 -1.7 C 0 km/h
2175 03-02-2009 03:14:07 -1.9 C 3.44 g/m*3 -1.9 C 0 km/h
Sensor: Nr:Datum:Temp:Abs-Feuchte:Windchill:Wind:
Aussen-T/F 2176 03-02-2009 03:26:07 -2 C 3.41 g/m*3 -2 C 0 km/h
2177 03-02-2009 03:38:07 -1.9 C 3.44 g/m*3 -1.9 C 0 km/h
2178 03-02-2009 03:50:07 -2 C 3.46 g/m*3 -2 C 0 km/h
2179 03-02-2009 04:02:07 -2.1 C 3.43 g/m*3 -2.1 C 0 km/h
2180 03-02-2009 04:14:07 -2.3 C 3.38 g/m*3 -2.3 C 0 km/h
2181 03-02-2009 04:26:07 -2.3 C 3.43 g/m*3 -2.3 C 0 km/h
2182 03-02-2009 04:38:07 -2.3 C 3.43 g/m*3 -2.3 C 0 km/h
2183 03-02-2009 04:50:07 -2.5 C 3.38 g/m*3 -2.5 C 0 km/h
2184 03-02-2009 05:02:07 -2.3 C 3.43 g/m*3 -2.3 C 0 km/h
2185 03-02-2009 05:14:07 -2.3 C 3.47 g/m*3 -2.3 C 0 km/h
2186 03-02-2009 05:26:07 -2.4 C 3.44 g/m*3 -2.4 C 0 km/h
2187 03-02-2009 05:38:08 -2.4 C 3.44 g/m*3 -2.4 C 0 km/h
2188 03-02-2009 05:50:08 -2.6 C 3.39 g/m*3 -2.6 C 0 km/h
2189 03-02-2009 06:02:08 -2.6 C 3.39 g/m*3 -2.6 C 0 km/h
2190 03-02-2009 06:14:08 -2.6 C 3.39 g/m*3 -2.6 C 0 km/h
2191 03-02-2009 06:26:08 -2.8 C 3.35 g/m*3 -2.8 C 0 km/h
2192 03-02-2009 06:38:08 -2.8 C 3.35 g/m*3 -2.8 C 0 km/h
2193 03-02-2009 06:50:08 -2.9 C 3.32 g/m*3 -2.9 C 0 km/h
2194 03-02-2009 07:02:04 -3 C 3.3 g/m*3 -3 C 0 km/h
2195 03-02-2009 07:14:05 -3 C 3.3 g/m*3 -3 C 0 km/h
2196 03-02-2009 07:26:05 -3 C 3.3 g/m*3 -3 C 0 km/h
2197 03-02-2009 07:38:04 -3 C 3.3 g/m*3 -3 C 0 km/h
2198 03-02-2009 07:50:04 -3.1 C 3.28 g/m*3 -3.1 C 0 km/h
2199 03-02-2009 08:02:04 -3.1 C 3.28 g/m*3 -3.1 C 0 km/h
2200 03-02-2009 08:14:04 -3.1 C 3.28 g/m*3 -3.1 C 0 km/h
Sensor: Nr:Datum:Temp:Abs-Feuchte:Windchill:Wind:
Aussen-T/F 2201 03-02-2009 08:26:04 -3.1 C 3.28 g/m*3 -3.1 C 0 km/h
2202 03-02-2009 08:38:03 -2.8 C 3.35 g/m*3 -2.8 C 0 km/h
2203 03-02-2009 08:50:04 -2.7 C 3.37 g/m*3 -2.7 C 0 km/h
2204 03-02-2009 09:02:04 -2.7 C 3.37 g/m*3 -2.7 C 0 km/h
2205 03-02-2009 09:14:03 -2.7 C 3.37 g/m*3 -2.7 C 0 km/h
2206 03-02-2009 09:26:03 -2.5 C 3.42 g/m*3 -2.5 C 0 km/h
2207 03-02-2009 09:38:03 -2.3 C 3.47 g/m*3 -2.3 C 0 km/h
2208 03-02-2009 09:50:03 -2.1 C 3.52 g/m*3 -2.1 C 0 km/h
2209 03-02-2009 10:02:03 -1.9 C 3.57 g/m*3 -1.9 C 0 km/h
2210 03-02-2009 10:14:02 -1.8 C 3.59 g/m*3 -1.8 C 0 km/h
2211 03-02-2009 10:26:02 -1.6 C 3.64 g/m*3 -1.6 C 0 km/h
2212 03-02-2009 10:38:03 -1.3 C 3.72 g/m*3 -1.3 C 0 km/h
2213 03-02-2009 10:50:02 -0.9 C 3.82 g/m*3 -0.9 C 0 km/h
2214 03-02-2009 11:02:02 -0.2 C 4.06 g/m*3 -0.2 C 0 km/h
2215 03-02-2009 11:14:03 0.3 C 4.16 g/m*3 0.3 C 0 km/h
2216 03-02-2009 11:26:03 0.6 C 4.24 g/m*3 0.6 C 0 km/h
2217 03-02-2009 11:38:02 1 C 4.2 g/m*3 1 C 0 km/h
2218 03-02-2009 11:50:02 1.2 C 4.21 g/m*3 1.2 C 0 km/h
2219 03-02-2009 12:02:01 1.4 C 4.21 g/m*3 1.4 C 0 km/h
2220 03-02-2009 12:14:02 2 C 4.28 g/m*3 2 C 0 km/h
2221 03-02-2009 12:26:02 2.5 C 4.31 g/m*3 2.5 C 0 km/h
2222 03-02-2009 12:38:01 3 C 4.22 g/m*3 3 C 0 km/h
2223 03-02-2009 12:50:01 3.2 C 4.1 g/m*3 3.2 C 0 km/h
2224 03-02-2009 13:02:01 3.7 C 4.05 g/m*3 3.7 C 0 km/h
2225 03-02-2009 13:14:01 4.2 C 3.99 g/m*3 4.2 C 0 km/h
Sensor: Nr:Datum:Temp:Abs-Feuchte:Windchill:Wind:
Aussen-T/F 2226 03-02-2009 13:26:01 4.7 C 4.06 g/m*3 4.7 C 0 km/h
2227 03-02-2009 13:38:01 5.5 C 3.93 g/m*3 5.5 C 0 km/h
2228 03-02-2009 13:50:01 5.9 C 3.89 g/m*3 5.9 C 0 km/h
2229 03-02-2009 14:02:01 6 C 3.77 g/m*3 6 C 0 km/h
2230 03-02-2009 14:14:00 6.5 C 3.75 g/m*3 6.5 C 0 km/h
2231 03-02-2009 14:26:00 6.3 C 3.63 g/m*3 6.3 C 0 km/h
2232 03-02-2009 14:38:00 6.2 C 3.68 g/m*3 6.2 C 0 km/h
2233 03-02-2009 14:50:00 6.1 C 3.65 g/m*3 6.1 C 0 km/h
2234 03-02-2009 15:02:00 6.2 C 3.75 g/m*3 6.2 C 0 km/h
2235 03-02-2009 15:14:59 5.9 C 3.75 g/m*3 5.9 C 0 km/h
2236 03-02-2009 15:25:59 5.7 C 3.77 g/m*3 5.7 C 0 km/h
2237 03-02-2009 15:38:00 5.8 C 3.8 g/m*3 5.8 C 0 km/h
2238 03-02-2009 15:50:59 5.5 C 3.72 g/m*3 5.5 C 0 km/h
2239 03-02-2009 16:02:59 5.7 C 3.84 g/m*3 5.7 C 0 km/h
2240 03-02-2009 16:14:00 5.8 C 3.8 g/m*3 5.8 C 0 km/h
2241 03-02-2009 16:26:00 5.3 C 3.74 g/m*3 5.3 C 0 km/h
2242 03-02-2009 16:38:59 4.6 C 3.77 g/m*3 4.6 C 0 km/h
2243 03-02-2009 16:50:59 4.1 C 3.78 g/m*3 4.1 C 0 km/h
2244 03-02-2009 17:02:59 3.6 C 3.84 g/m*3 3.6 C 0 km/h
2245 03-02-2009 17:14:59 3.3 C 3.82 g/m*3 3.3 C 0 km/h
2246 03-02-2009 17:26:59 3.1 C 3.89 g/m*3 3.1 C 0 km/h
2247 03-02-2009 17:38:58 2.9 C 3.9 g/m*3 2.9 C 0 km/h
2248 03-02-2009 17:50:59 2.5 C 3.85 g/m*3 2.5 C 0 km/h
2249 03-02-2009 18:02:58 2.3 C 3.91 g/m*3 2.3 C 0 km/h
2250 03-02-2009 18:14:58 2 C 3.89 g/m*3 2 C 0 km/h
Sensor: Nr:Datum:Temp:Abs-Feuchte:Windchill:Wind:
Aussen-T/F 2251 03-02-2009 18:26:58 2 C 3.95 g/m*3 2 C 0 km/h
2252 03-02-2009 18:38:58 1.8 C 4 g/m*3 1.8 C 0 km/h
2253 03-02-2009 18:50:58 1.7 C 4.03 g/m*3 1.7 C 0 km/h
2254 03-02-2009 19:02:58 1.7 C 4.03 g/m*3 1.7 C 0 km/h
2255 03-02-2009 19:14:57 1.7 C 4.08 g/m*3 1.7 C 0 km/h
2256 03-02-2009 19:26:57 1.6 C 4 g/m*3 1.6 C 0 km/h
2257 03-02-2009 19:38:58 1.7 C 4.08 g/m*3 1.7 C 0 km/h
2258 03-02-2009 19:50:57 1.5 C 4.03 g/m*3 1.5 C 0 km/h
2259 03-02-2009 20:02:57 1.3 C 3.97 g/m*3 1.3 C 0 km/h
2260 03-02-2009 20:14:57 1.2 C 4 g/m*3 1.2 C 0 km/h
2261 03-02-2009 20:26:57 1.2 C 4.05 g/m*3 1.2 C 0 km/h
2262 03-02-2009 20:38:57 1.3 C 4.13 g/m*3 1.3 C 0 km/h
2263 03-02-2009 20:50:56 1.3 C 4.19 g/m*3 1.3 C 0 km/h
2264 03-02-2009 21:02:56 1.2 C 4.1 g/m*3 1.2 C 0 km/h
2265 03-02-2009 21:14:57 1 C 4.05 g/m*3 1 C 0 km/h
2266 03-02-2009 21:26:57 1.1 C 4.13 g/m*3 1.1 C 0 km/h
2267 03-02-2009 21:38:56 1.4 C 4.32 g/m*3 1.4 C 0 km/h
2268 03-02-2009 21:50:56 1.5 C 4.35 g/m*3 1.5 C 0 km/h
2269 03-02-2009 22:03:57 1.7 C 4.52 g/m*3 1.7 C 0 km/h
2270 03-02-2009 22:15:57 1.9 C 4.58 g/m*3 1.9 C 0 km/h
2271 03-02-2009 22:27:57 2 C 4.56 g/m*3 2 C 0 km/h
2272 03-02-2009 22:39:57 2.1 C 4.59 g/m*3 2.1 C 0 km/h
2273 03-02-2009 22:51:57 2.1 C 4.53 g/m*3 2.1 C 0 km/h
2274 03-02-2009 23:03:57 2 C 4.5 g/m*3 2 C 0 km/h
2275 03-02-2009 23:15:57 2 C 4.45 g/m*3 2 C 0 km/h
Sensor: Nr:Datum:Temp:Abs-Feuchte:Windchill:Wind:
Aussen-T/F 2276 03-02-2009 23:27:57 2.1 C 4.48 g/m*3 2.1 C 0 km/h
2277 03-02-2009 23:39:57 2.1 C 4.48 g/m*3 2.1 C 0 km/h
2278 03-02-2009 23:51:58 2.1 C 4.42 g/m*3 2.1 C 0 km/h
2279 04-02-2009 00:03:58 2.2 C 4.51 g/m*3 2.2 C 0 km/h
2280 04-02-2009 00:15:58 2.2 C 4.45 g/m*3 2.2 C 0 km/h
2281 04-02-2009 00:27:58 2.2 C 4.45 g/m*3 2.2 C 0 km/h
2282 04-02-2009 00:39:58 2.2 C 4.51 g/m*3 2.2 C 0 km/h
2283 04-02-2009 00:51:58 2.2 C 4.51 g/m*3 2.2 C 0 km/h
2284 04-02-2009 01:03:58 2.3 C 4.54 g/m*3 2.3 C 0 km/h
2285 04-02-2009 01:15:58 2.2 C 4.51 g/m*3 2.2 C 0 km/h
2286 04-02-2009 01:27:58 2.2 C 4.51 g/m*3 2.2 C 0 km/h
2287 04-02-2009 01:39:58 2.2 C 4.51 g/m*3 2.2 C 0 km/h
2288 04-02-2009 01:51:58 2.2 C 4.51 g/m*3 2.2 C 0 km/h
2289 04-02-2009 02:03:58 2.2 C 4.51 g/m*3 2.2 C 0 km/h
2290 04-02-2009 02:15:58 2.2 C 4.45 g/m*3 2.2 C 0 km/h
2291 04-02-2009 02:27:58 2.1 C 4.42 g/m*3 2.1 C 0 km/h
2292 04-02-2009 02:39:58 2.1 C 4.42 g/m*3 2.1 C 0 km/h
2293 04-02-2009 02:51:58 2.1 C 4.42 g/m*3 2.1 C 0 km/h
2294 04-02-2009 03:03:58 2 C 4.45 g/m*3 2 C 0 km/h
2295 04-02-2009 03:15:58 2 C 4.45 g/m*3 2 C 0 km/h
2296 04-02-2009 03:27:58 2 C 4.45 g/m*3 2 C 0 km/h
2297 04-02-2009 03:39:59 2 C 4.45 g/m*3 2 C 0 km/h
2298 04-02-2009 03:51:59 2 C 4.45 g/m*3 2 C 0 km/h
2299 04-02-2009 04:03:59 2 C 4.45 g/m*3 2 C 0 km/h
2300 04-02-2009 04:15:59 1.9 C 4.42 g/m*3 1.9 C 0 km/h
Sensor: Nr:Datum:Temp:Abs-Feuchte:Windchill:Wind:
Aussen-T/F 2301 04-02-2009 04:27:59 1.8 C 4.39 g/m*3 1.8 C 0 km/h
2302 04-02-2009 04:39:59 1.8 C 4.39 g/m*3 1.8 C 0 km/h
2303 04-02-2009 04:51:59 1.8 C 4.39 g/m*3 1.8 C 0 km/h
2304 04-02-2009 05:03:59 1.8 C 4.39 g/m*3 1.8 C 0 km/h
2305 04-02-2009 05:15:59 1.8 C 4.39 g/m*3 1.8 C 0 km/h
2306 04-02-2009 05:27:59 1.8 C 4.39 g/m*3 1.8 C 0 km/h
2307 04-02-2009 05:39:59 1.8 C 4.39 g/m*3 1.8 C 0 km/h
2308 04-02-2009 05:51:59 1.6 C 4.33 g/m*3 1.6 C 0 km/h
2309 04-02-2009 06:03:59 1.5 C 4.3 g/m*3 1.5 C 0 km/h
2310 04-02-2009 06:15:59 1.5 C 4.35 g/m*3 1.5 C 0 km/h
2311 04-02-2009 06:27:59 1.6 C 4.38 g/m*3 1.6 C 0 km/h
2312 04-02-2009 06:39:58 1.6 C 4.43 g/m*3 1.6 C 0 km/h
2313 04-02-2009 06:51:57 1.6 C 4.43 g/m*3 1.6 C 0 km/h
2314 04-02-2009 07:03:57 1.6 C 4.43 g/m*3 1.6 C 0 km/h
2315 04-02-2009 07:15:57 1.6 C 4.43 g/m*3 1.6 C 0 km/h
2316 04-02-2009 07:27:57 1.7 C 4.46 g/m*3 1.7 C 0 km/h
2317 04-02-2009 07:39:57 1.7 C 4.46 g/m*3 1.7 C 0 km/h
2318 04-02-2009 07:51:57 1.7 C 4.46 g/m*3 1.7 C 0 km/h
2319 04-02-2009 08:03:57 1.7 C 4.46 g/m*3 1.7 C 0 km/h
2320 04-02-2009 08:15:56 1.6 C 4.43 g/m*3 1.6 C 0 km/h
2321 04-02-2009 08:27:56 1.7 C 4.46 g/m*3 1.7 C 0 km/h
2322 04-02-2009 08:39:56 1.7 C 4.52 g/m*3 1.7 C 0 km/h
2323 04-02-2009 08:51:56 1.7 C 4.46 g/m*3 1.7 C 0 km/h
2324 04-02-2009 09:03:56 1.7 C 4.46 g/m*3 1.7 C 0 km/h
2325 04-02-2009 09:15:55 1.7 C 4.46 g/m*3 1.7 C 0 km/h
Sensor: Nr:Datum:Temp:Abs-Feuchte:Windchill:Wind:
Aussen-T/F 2326 04-02-2009 09:27:55 1.7 C 4.52 g/m*3 1.7 C 0 km/h
2327 04-02-2009 09:39:56 1.8 C 4.55 g/m*3 1.8 C 0 km/h
2328 04-02-2009 09:51:55 1.9 C 4.58 g/m*3 1.9 C 0 km/h
2329 04-02-2009 10:03:55 2.1 C 4.64 g/m*3 2.1 C 0 km/h
2330 04-02-2009 10:15:56 2.2 C 4.62 g/m*3 2.2 C 0 km/h
2331 04-02-2009 10:27:56 2.3 C 4.65 g/m*3 2.3 C 0 km/h
2332 04-02-2009 10:39:55 2.4 C 4.68 g/m*3 2.4 C 0 km/h
2333 04-02-2009 10:51:55 2.8 C 4.81 g/m*3 2.8 C 0 km/h
2334 04-02-2009 11:03:55 3 C 4.76 g/m*3 3 C 0 km/h
2335 04-02-2009 11:15:55 3.1 C 4.73 g/m*3 3.1 C 0 km/h
2336 04-02-2009 11:27:55 3.1 C 4.67 g/m*3 3.1 C 0 km/h
2337 04-02-2009 11:39:54 3.3 C 4.67 g/m*3 3.3 C 0 km/h
2338 04-02-2009 11:51:54 3.2 C 4.58 g/m*3 3.2 C 0 km/h
2339 04-02-2009 12:03:54 3.1 C 4.55 g/m*3 3.1 C 0 km/h
2340 04-02-2009 12:15:54 3.4 C 4.7 g/m*3 3.4 C 0 km/h
2341 04-02-2009 12:27:54 3.9 C 4.86 g/m*3 3.9 C 0 km/h
2342 04-02-2009 12:39:54 4.1 C 4.93 g/m*3 4.1 C 0 km/h
2343 04-02-2009 12:51:54 4.4 C 5.03 g/m*3 4.4 C 0 km/h
2344 04-02-2009 13:03:54 4.6 C 5.1 g/m*3 4.6 C 0 km/h
2345 04-02-2009 13:15:53 4.8 C 5.1 g/m*3 4.8 C 0 km/h
2346 04-02-2009 13:27:53 5 C 5.03 g/m*3 5 C 0 km/h
2347 04-02-2009 13:39:53 5.3 C 5.06 g/m*3 5.3 C 0 km/h
2348 04-02-2009 13:51:53 5.7 C 5.05 g/m*3 5.7 C 0 km/h
2349 04-02-2009 14:03:53 6 C 4.94 g/m*3 6 C 0 km/h
2350 04-02-2009 14:15:52 6.1 C 4.82 g/m*3 6.1 C 0 km/h
Sensor: Nr:Datum:Temp:Abs-Feuchte:Windchill:Wind:
Aussen-T/F 2351 04-02-2009 14:27:52 6.2 C 4.85 g/m*3 6.2 C 0 km/h
2352 04-02-2009 14:39:53 6.2 C 4.85 g/m*3 6.2 C 0 km/h
2353 04-02-2009 14:51:52 5.9 C 4.76 g/m*3 5.9 C 0 km/h
2354 04-02-2009 15:03:52 6 C 4.79 g/m*3 6 C 0 km/h
2355 04-02-2009 15:15:53 6.7 C 4.94 g/m*3 6.7 C 0 km/h
2356 04-02-2009 15:27:53 6.3 C 4.74 g/m*3 6.3 C 0 km/h
2357 04-02-2009 15:39:52 6.1 C 4.75 g/m*3 6.1 C 0 km/h
2358 04-02-2009 15:51:52 6 C 4.79 g/m*3 6 C 0 km/h
2359 04-02-2009 16:03:52 6.1 C 4.89 g/m*3 6.1 C 0 km/h
2360 04-02-2009 16:15:52 6.1 C 4.89 g/m*3 6.1 C 0 km/h
2361 04-02-2009 16:27:53 5.9 C 4.83 g/m*3 5.9 C 0 km/h
2362 04-02-2009 16:39:51 5.7 C 4.84 g/m*3 5.7 C 0 km/h
2363 04-02-2009 16:51:51 4.7 C 4.73 g/m*3 4.7 C 0 km/h
2364 04-02-2009 17:03:52 4.6 C 4.83 g/m*3 4.6 C 0 km/h
2365 04-02-2009 17:15:51 4.5 C 4.86 g/m*3 4.5 C 0 km/h
2366 04-02-2009 17:27:51 4.5 C 4.86 g/m*3 4.5 C 0 km/h
2367 04-02-2009 17:39:51 4.5 C 4.86 g/m*3 4.5 C 0 km/h
2368 04-02-2009 17:51:51 4.6 C 4.9 g/m*3 4.6 C 0 km/h
2369 04-02-2009 18:03:51 4.4 C 4.83 g/m*3 4.4 C 0 km/h
2370 04-02-2009 18:15:50 4.2 C 4.77 g/m*3 4.2 C 0 km/h
2371 04-02-2009 18:27:50 4 C 4.77 g/m*3 4 C 0 km/h
2372 04-02-2009 18:39:51 3.7 C 4.74 g/m*3 3.7 C 0 km/h
2373 04-02-2009 18:51:50 3.4 C 4.7 g/m*3 3.4 C 0 km/h
2374 04-02-2009 19:03:50 3.3 C 4.67 g/m*3 3.3 C 0 km/h
2375 04-02-2009 19:15:49 3.3 C 4.73 g/m*3 3.3 C 0 km/h
Sensor: Nr:Datum:Temp:Abs-Feuchte:Windchill:Wind:
Aussen-T/F 2376 04-02-2009 19:27:49 3.2 C 4.7 g/m*3 3.2 C 0 km/h
2377 04-02-2009 19:39:50 3.3 C 4.73 g/m*3 3.3 C 0 km/h
2378 04-02-2009 19:51:49 3.2 C 4.7 g/m*3 3.2 C 0 km/h
2379 04-02-2009 20:03:49 3.1 C 4.61 g/m*3 3.1 C 0 km/h
2380 04-02-2009 20:15:50 3.1 C 4.67 g/m*3 3.1 C 0 km/h
2381 04-02-2009 20:27:50 3 C 4.64 g/m*3 3 C 0 km/h
2382 04-02-2009 20:39:49 3.2 C 4.7 g/m*3 3.2 C 0 km/h
2383 04-02-2009 20:51:49 2.9 C 4.67 g/m*3 2.9 C 0 km/h
2384 04-02-2009 21:03:49 2.9 C 4.61 g/m*3 2.9 C 0 km/h
2385 04-02-2009 21:15:48 2.9 C 4.67 g/m*3 2.9 C 0 km/h
2386 04-02-2009 21:27:48 2.8 C 4.58 g/m*3 2.8 C 0 km/h
2387 04-02-2009 21:39:49 2.7 C 4.54 g/m*3 2.7 C 0 km/h
2388 04-02-2009 21:51:48 2.4 C 4.45 g/m*3 2.4 C 0 km/h
2389 04-02-2009 22:04:49 2 C 4.33 g/m*3 2 C 0 km/h
2390 04-02-2009 22:16:50 1.9 C 4.42 g/m*3 1.9 C 0 km/h
2391 04-02-2009 22:28:50 2.1 C 4.48 g/m*3 2.1 C 0 km/h
2392 04-02-2009 22:40:50 2 C 4.39 g/m*3 2 C 0 km/h
2393 04-02-2009 22:52:50 1.6 C 4.33 g/m*3 1.6 C 0 km/h
2394 04-02-2009 23:04:50 1.6 C 4.38 g/m*3 1.6 C 0 km/h
2395 04-02-2009 23:16:50 1.4 C 4.32 g/m*3 1.4 C 0 km/h
2396 04-02-2009 23:28:50 1.5 C 4.4 g/m*3 1.5 C 0 km/h
2397 04-02-2009 23:40:50 1.3 C 4.34 g/m*3 1.3 C 0 km/h
2398 04-02-2009 23:52:50 1.2 C 4.31 g/m*3 1.2 C 0 km/h
2399 05-02-2009 00:04:50 1 C 4.26 g/m*3 1 C 0 km/h
2400 05-02-2009 00:16:50 0.9 C 4.28 g/m*3 0.9 C 0 km/h
Sensor: Nr:Datum:Temp:Abs-Feuchte:Windchill:Wind:
Aussen-T/F 2401 05-02-2009 00:28:50 0.6 C 4.19 g/m*3 0.6 C 0 km/h
2402 05-02-2009 00:40:50 0.4 C 4.13 g/m*3 0.4 C 0 km/h
2403 05-02-2009 00:52:50 0.3 C 4.16 g/m*3 0.3 C 0 km/h
2404 05-02-2009 01:04:50 0.1 C 4.1 g/m*3 0.1 C 0 km/h
2405 05-02-2009 01:16:50 -0.1 C 4.04 g/m*3 -0.1 C 0 km/h
2406 05-02-2009 01:28:50 -0.2 C 4.01 g/m*3 -0.2 C 0 km/h
2407 05-02-2009 01:40:50 -0.5 C 3.93 g/m*3 -0.5 C 0 km/h
2408 05-02-2009 01:52:50 -0.6 C 3.9 g/m*3 -0.6 C 0 km/h
2409 05-02-2009 02:04:51 -0.6 C 3.95 g/m*3 -0.6 C 0 km/h
2410 05-02-2009 02:16:51 -0.8 C 3.94 g/m*3 -0.8 C 0 km/h
2411 05-02-2009 02:28:51 -1 C 3.89 g/m*3 -1 C 0 km/h
2412 05-02-2009 02:40:51 -1 C 3.89 g/m*3 -1 C 0 km/h
2413 05-02-2009 02:52:51 -1.1 C 3.91 g/m*3 -1.1 C 0 km/h
2414 05-02-2009 03:04:51 -1.1 C 3.91 g/m*3 -1.1 C 0 km/h
2415 05-02-2009 03:16:51 -1.2 C 3.92 g/m*3 -1.2 C 0 km/h
2416 05-02-2009 03:28:51 -1.2 C 3.92 g/m*3 -1.2 C 0 km/h
2417 05-02-2009 03:40:51 -1.1 C 4 g/m*3 -1.1 C 0 km/h
2418 05-02-2009 03:52:51 -0.9 C 4.05 g/m*3 -0.9 C 0 km/h
2419 05-02-2009 04:04:51 -0.9 C 4.05 g/m*3 -0.9 C 0 km/h
2420 05-02-2009 04:16:51 -0.9 C 4.05 g/m*3 -0.9 C 0 km/h
2421 05-02-2009 04:28:51 -0.6 C 4.18 g/m*3 -0.6 C 0 km/h
2422 05-02-2009 04:40:51 -0.9 C 4.05 g/m*3 -0.9 C 0 km/h
2423 05-02-2009 04:52:51 -0.7 C 4.15 g/m*3 -0.7 C 0 km/h
2424 05-02-2009 05:04:51 -0.8 C 4.13 g/m*3 -0.8 C 0 km/h
2425 05-02-2009 05:16:51 -0.7 C 4.15 g/m*3 -0.7 C 0 km/h
Sensor: Nr:Datum:Temp:Abs-Feuchte:Windchill:Wind:
Aussen-T/F 2426 05-02-2009 05:28:51 -0.7 C 4.15 g/m*3 -0.7 C 0 km/h
2427 05-02-2009 05:40:51 -0.6 C 4.18 g/m*3 -0.6 C 0 km/h
2428 05-02-2009 05:52:52 -0.8 C 4.13 g/m*3 -0.8 C 0 km/h
2429 05-02-2009 06:04:52 -0.9 C 4.1 g/m*3 -0.9 C 0 km/h
2430 05-02-2009 06:16:52 -1 C 4.07 g/m*3 -1 C 0 km/h
2431 05-02-2009 06:28:52 -1.1 C 4.04 g/m*3 -1.1 C 0 km/h
2432 05-02-2009 06:40:52 -1.2 C 4.01 g/m*3 -1.2 C 0 km/h
2433 05-02-2009 06:52:52 -1.3 C 3.98 g/m*3 -1.3 C 0 km/h
2434 05-02-2009 07:04:49 -1.4 C 3.96 g/m*3 -1.4 C 0 km/h
2435 05-02-2009 07:16:49 -1.2 C 4.01 g/m*3 -1.2 C 0 km/h
2436 05-02-2009 07:28:49 -1.1 C 4.09 g/m*3 -1.1 C 0 km/h
2437 05-02-2009 07:40:49 -1.1 C 4.09 g/m*3 -1.1 C 0 km/h
2438 05-02-2009 07:52:49 -1 C 4.11 g/m*3 -1 C 0 km/h
2439 05-02-2009 08:04:48 -0.9 C 4.14 g/m*3 -0.9 C 0 km/h
2440 05-02-2009 08:16:48 -0.6 C 4.28 g/m*3 -0.6 C 0 km/h
2441 05-02-2009 08:28:49 -0.3 C 4.37 g/m*3 -0.3 C 0 km/h
2442 05-02-2009 08:40:48 0 C 4.46 g/m*3 0 C 0 km/h
2443 05-02-2009 08:52:48 0.2 C 4.57 g/m*3 0.2 C 0 km/h
2444 05-02-2009 09:04:47 0.6 C 4.7 g/m*3 0.6 C 0 km/h
2445 05-02-2009 09:16:48 0.9 C 4.79 g/m*3 0.9 C 0 km/h
2446 05-02-2009 09:28:48 0.7 C 4.68 g/m*3 0.7 C 0 km/h
2447 05-02-2009 09:40:48 1 C 4.72 g/m*3 1 C 0 km/h
2448 05-02-2009 09:52:47 1 C 4.72 g/m*3 1 C 0 km/h
2449 05-02-2009 10:04:48 1.2 C 4.79 g/m*3 1.2 C 0 km/h
2450 05-02-2009 10:16:47 1.5 C 4.83 g/m*3 1.5 C 0 km/h
Sensor: Nr:Datum:Temp:Abs-Feuchte:Windchill:Wind:
Aussen-T/F 2451 05-02-2009 10:28:47 1.7 C 4.85 g/m*3 1.7 C 0 km/h
2452 05-02-2009 10:40:47 1.9 C 4.91 g/m*3 1.9 C 0 km/h
2453 05-02-2009 10:52:47 2.4 C 5.08 g/m*3 2.4 C 0 km/h
2454 05-02-2009 11:04:47 3.1 C 5.21 g/m*3 3.1 C 0 km/h
2455 05-02-2009 11:16:46 3.6 C 5.39 g/m*3 3.6 C 0 km/h
2456 05-02-2009 11:28:46 3.8 C 5.4 g/m*3 3.8 C 0 km/h
2457 05-02-2009 11:40:46 4.3 C 5.25 g/m*3 4.3 C 0 km/h
2458 05-02-2009 11:52:46 4.7 C 5.2 g/m*3 4.7 C 0 km/h
2459 05-02-2009 12:04:46 5.1 C 4.99 g/m*3 5.1 C 0 km/h
2460 05-02-2009 12:16:46 5.7 C 5.05 g/m*3 5.7 C 0 km/h
2461 05-02-2009 12:28:46 6.2 C 4.93 g/m*3 6.2 C 0 km/h
2462 05-02-2009 12:40:46 7 C 4.88 g/m*3 7 C 0 km/h
2463 05-02-2009 12:52:46 8.1 C 4.74 g/m*3 8.1 C 0 km/h
2464 05-02-2009 13:04:45 8.8 C 4.79 g/m*3 8.8 C 0 km/h
2465 05-02-2009 13:16:46 8.8 C 4.7 g/m*3 8.8 C 0 km/h
2466 05-02-2009 13:28:46 8.7 C 4.76 g/m*3 8.7 C 0 km/h
2467 05-02-2009 13:40:45 9.3 C 4.76 g/m*3 9.3 C 0 km/h
2468 05-02-2009 13:52:45 9.5 C 4.73 g/m*3 9.5 C 0 km/h
2469 05-02-2009 14:04:45 9.8 C 4.73 g/m*3 9.8 C 0 km/h
2470 05-02-2009 14:16:45 10.2 C 4.66 g/m*3 10.2 C 0 km/h
2471 05-02-2009 14:28:45 10.6 C 4.59 g/m*3 10.6 C 0 km/h
2472 05-02-2009 14:40:45 10.3 C 4.6 g/m*3 10.3 C 0 km/h
2473 05-02-2009 14:52:44 10.1 C 4.54 g/m*3 10.1 C 0 km/h
2474 05-02-2009 15:04:45 10.2 C 4.66 g/m*3 10.2 C 0 km/h
2475 05-02-2009 15:16:44 10 C 4.7 g/m*3 10 C 0 km/h
Sensor: Nr:Datum:Temp:Abs-Feuchte:Windchill:Wind:
Aussen-T/F 2476 05-02-2009 15:28:44 9.8 C 4.73 g/m*3 9.8 C 0 km/h
2477 05-02-2009 15:40:44 9.8 C 4.73 g/m*3 9.8 C 0 km/h
2478 05-02-2009 15:52:44 10 C 4.79 g/m*3 10 C 0 km/h
2479 05-02-2009 16:04:44 9.9 C 4.86 g/m*3 9.9 C 0 km/h
2480 05-02-2009 16:16:44 9.7 C 4.79 g/m*3 9.7 C 0 km/h
2481 05-02-2009 16:28:44 9.5 C 4.82 g/m*3 9.5 C 0 km/h
2482 05-02-2009 16:40:43 9.6 C 4.76 g/m*3 9.6 C 0 km/h
2483 05-02-2009 16:52:44 9.2 C 4.73 g/m*3 9.2 C 0 km/h
2484 05-02-2009 17:04:43 8.6 C 4.81 g/m*3 8.6 C 0 km/h
2485 05-02-2009 17:16:43 7.8 C 4.73 g/m*3 7.8 C 0 km/h
2486 05-02-2009 17:28:43 7.2 C 4.79 g/m*3 7.2 C 0 km/h
2487 05-02-2009 17:40:43 6.9 C 4.85 g/m*3 6.9 C 0 km/h
2488 05-02-2009 17:52:43 6.5 C 4.8 g/m*3 6.5 C 0 km/h
2489 05-02-2009 18:04:43 6.1 C 4.82 g/m*3 6.1 C 0 km/h
2490 05-02-2009 18:16:42 5.8 C 4.87 g/m*3 5.8 C 0 km/h
2491 05-02-2009 18:28:42 5.5 C 4.85 g/m*3 5.5 C 0 km/h
2492 05-02-2009 18:40:43 5 C 4.76 g/m*3 5 C 0 km/h
2493 05-02-2009 18:52:42 4.8 C 4.9 g/m*3 4.8 C 0 km/h
2494 05-02-2009 19:04:42 4.6 C 4.83 g/m*3 4.6 C 0 km/h
2495 05-02-2009 19:16:42 4.4 C 4.9 g/m*3 4.4 C 0 km/h
2496 05-02-2009 19:28:42 4.1 C 4.8 g/m*3 4.1 C 0 km/h
2497 05-02-2009 19:40:42 4 C 4.83 g/m*3 4 C 0 km/h
2498 05-02-2009 19:52:41 3.8 C 4.89 g/m*3 3.8 C 0 km/h
2499 05-02-2009 20:04:42 3.7 C 4.92 g/m*3 3.7 C 0 km/h
2500 05-02-2009 20:16:42 3.7 C 4.99 g/m*3 3.7 C 0 km/h
Sensor: Nr:Datum:Temp:Abs-Feuchte:Windchill:Wind:
Aussen-T/F 2501 05-02-2009 20:28:42 3.8 C 5.08 g/m*3 3.8 C 0 km/h
2502 05-02-2009 20:40:41 4.1 C 5.18 g/m*3 4.1 C 0 km/h
2503 05-02-2009 20:52:42 3.9 C 5.05 g/m*3 3.9 C 0 km/h
2504 05-02-2009 21:04:41 3.7 C 4.99 g/m*3 3.7 C 0 km/h
2505 05-02-2009 21:16:41 3.7 C 5.11 g/m*3 3.7 C 0 km/h
2506 05-02-2009 21:28:41 3.5 C 5.04 g/m*3 3.5 C 0 km/h
2507 05-02-2009 21:40:41 3.4 C 5.07 g/m*3 3.4 C 0 km/h
2508 05-02-2009 21:52:41 3.4 C 5.07 g/m*3 3.4 C 0 km/h
2509 05-02-2009 22:04:40 3.4 C 5.13 g/m*3 3.4 C 0 km/h
2510 05-02-2009 22:16:41 3.4 C 5.13 g/m*3 3.4 C 0 km/h
2511 05-02-2009 22:28:41 3.4 C 5.13 g/m*3 3.4 C 0 km/h
2512 05-02-2009 22:40:40 3.5 C 5.23 g/m*3 3.5 C 0 km/h
2513 05-02-2009 22:52:40 3.6 C 5.26 g/m*3 3.6 C 0 km/h
2514 05-02-2009 23:04:40 3.9 C 5.37 g/m*3 3.9 C 0 km/h
2515 05-02-2009 23:16:40 3.8 C 5.21 g/m*3 3.8 C 0 km/h
2516 05-02-2009 23:28:40 3.7 C 5.17 g/m*3 3.7 C 0 km/h
2517 05-02-2009 23:40:40 3.8 C 5.14 g/m*3 3.8 C 0 km/h
2518 05-02-2009 23:52:39 3.7 C 5.11 g/m*3 3.7 C 0 km/h
2519 06-02-2009 00:04:40 3.3 C 4.91 g/m*3 3.3 C 0 km/h
2520 06-02-2009 00:16:39 3 C 4.82 g/m*3 3 C 0 km/h
2521 06-02-2009 00:28:39 2.4 C 4.68 g/m*3 2.4 C 0 km/h
2522 06-02-2009 00:40:39 2.3 C 4.65 g/m*3 2.3 C 0 km/h
2523 06-02-2009 00:52:39 2.1 C 4.64 g/m*3 2.1 C 0 km/h
2524 06-02-2009 01:04:38 2 C 4.61 g/m*3 2 C 0 km/h
2525 06-02-2009 01:16:39 1.9 C 4.64 g/m*3 1.9 C 0 km/h
Sensor: Nr:Datum:Temp:Abs-Feuchte:Windchill:Wind:
Aussen-T/F 2526 06-02-2009 01:28:39 1.9 C 4.69 g/m*3 1.9 C 0 km/h
2527 06-02-2009 01:40:38 1.7 C 4.63 g/m*3 1.7 C 0 km/h
2528 06-02-2009 01:52:38 1.6 C 4.6 g/m*3 1.6 C 0 km/h
2529 06-02-2009 02:04:39 1.5 C 4.57 g/m*3 1.5 C 0 km/h
2530 06-02-2009 02:16:38 1.5 C 4.57 g/m*3 1.5 C 0 km/h
2531 06-02-2009 02:28:38 1.4 C 4.53 g/m*3 1.4 C 0 km/h
2532 06-02-2009 02:40:38 1.4 C 4.59 g/m*3 1.4 C 0 km/h
2533 06-02-2009 02:53:40 1.3 C 4.56 g/m*3 1.3 C 0 km/h
2534 06-02-2009 03:05:40 1.2 C 4.53 g/m*3 1.2 C 0 km/h
2535 06-02-2009 03:17:40 1.3 C 4.56 g/m*3 1.3 C 0 km/h
2536 06-02-2009 03:29:39 1.3 C 4.56 g/m*3 1.3 C 0 km/h
2537 06-02-2009 03:41:39 1.4 C 4.64 g/m*3 1.4 C 0 km/h
2538 06-02-2009 03:53:39 1.7 C 4.74 g/m*3 1.7 C 0 km/h
2539 06-02-2009 04:05:39 1.6 C 4.7 g/m*3 1.6 C 0 km/h
2540 06-02-2009 04:17:39 1.6 C 4.65 g/m*3 1.6 C 0 km/h
2541 06-02-2009 04:29:39 1.6 C 4.65 g/m*3 1.6 C 0 km/h
2542 06-02-2009 04:41:39 1.7 C 4.68 g/m*3 1.7 C 0 km/h
2543 06-02-2009 04:53:38 1.8 C 4.71 g/m*3 1.8 C 0 km/h
2544 06-02-2009 05:05:38 1.7 C 4.68 g/m*3 1.7 C 0 km/h
2545 06-02-2009 05:17:39 1.6 C 4.65 g/m*3 1.6 C 0 km/h
2546 06-02-2009 05:29:38 1.6 C 4.65 g/m*3 1.6 C 0 km/h
2547 06-02-2009 05:41:38 1.5 C 4.62 g/m*3 1.5 C 0 km/h
2548 06-02-2009 05:53:38 1.5 C 4.62 g/m*3 1.5 C 0 km/h
2549 06-02-2009 06:05:38 1.1 C 4.49 g/m*3 1.1 C 0 km/h
2550 06-02-2009 06:17:38 0.9 C 4.48 g/m*3 0.9 C 0 km/h
Sensor: Nr:Datum:Temp:Abs-Feuchte:Windchill:Wind:
Aussen-T/F 2551 06-02-2009 06:29:37 0.9 C 4.48 g/m*3 0.9 C 0 km/h
2552 06-02-2009 06:41:37 0.8 C 4.51 g/m*3 0.8 C 0 km/h
2553 06-02-2009 06:53:38 0.8 C 4.51 g/m*3 0.8 C 0 km/h
2554 06-02-2009 07:05:37 1 C 4.57 g/m*3 1 C 0 km/h
2555 06-02-2009 07:17:37 0.7 C 4.53 g/m*3 0.7 C 0 km/h
2556 06-02-2009 07:29:37 1 C 4.62 g/m*3 1 C 0 km/h
2557 06-02-2009 07:41:37 1 C 4.67 g/m*3 1 C 0 km/h
2558 06-02-2009 07:53:37 1 C 4.67 g/m*3 1 C 0 km/h
2559 06-02-2009 08:05:36 1 C 4.67 g/m*3 1 C 0 km/h
2560 06-02-2009 08:17:37 0.9 C 4.69 g/m*3 0.9 C 0 km/h
2561 06-02-2009 08:29:37 0.7 C 4.58 g/m*3 0.7 C 0 km/h
2562 06-02-2009 08:41:37 0.9 C 4.64 g/m*3 0.9 C 0 km/h
2563 06-02-2009 08:53:36 1.1 C 4.7 g/m*3 1.1 C 0 km/h
2564 06-02-2009 09:05:37 1 C 4.67 g/m*3 1 C 0 km/h
2565 06-02-2009 09:17:36 1.1 C 4.7 g/m*3 1.1 C 0 km/h
2566 06-02-2009 09:29:36 1 C 4.67 g/m*3 1 C 0 km/h
2567 06-02-2009 09:41:36 1 C 4.72 g/m*3 1 C 0 km/h
2568 06-02-2009 09:53:36 1.2 C 4.79 g/m*3 1.2 C 0 km/h
2569 06-02-2009 10:05:36 1.6 C 4.92 g/m*3 1.6 C 0 km/h
2570 06-02-2009 10:17:35 2 C 5.06 g/m*3 2 C 0 km/h
2571 06-02-2009 10:29:35 2.2 C 5.13 g/m*3 2.2 C 0 km/h
2572 06-02-2009 10:41:35 2.6 C 5.27 g/m*3 2.6 C 0 km/h
2573 06-02-2009 10:53:35 3.1 C 5.45 g/m*3 3.1 C 0 km/h
2574 06-02-2009 11:05:35 3.7 C 5.67 g/m*3 3.7 C 0 km/h
2575 06-02-2009 11:17:35 4.3 C 5.84 g/m*3 4.3 C 0 km/h
Sensor: Nr:Datum:Temp:Abs-Feuchte:Windchill:Wind:
Aussen-T/F 2576 06-02-2009 11:29:34 4.7 C 5.93 g/m*3 4.7 C 0 km/h
2577 06-02-2009 11:41:34 5.2 C 6.06 g/m*3 5.2 C 0 km/h
2578 06-02-2009 11:53:35 5 C 5.71 g/m*3 5 C 0 km/h
2579 06-02-2009 12:05:34 5.2 C 5.58 g/m*3 5.2 C 0 km/h
2580 06-02-2009 12:17:34 5.8 C 5.8 g/m*3 5.8 C 0 km/h
2581 06-02-2009 12:29:34 6.4 C 5.89 g/m*3 6.4 C 0 km/h
2582 06-02-2009 12:41:34 6.6 C 5.59 g/m*3 6.6 C 0 km/h
2583 06-02-2009 12:53:34 7.1 C 5.62 g/m*3 7.1 C 0 km/h
2584 06-02-2009 13:05:33 7.7 C 5.68 g/m*3 7.7 C 0 km/h
2585 06-02-2009 13:17:38 7.9 C 5.34 g/m*3 7.9 C 0 km/h
2586 06-02-2009 13:29:34 7.9 C 5.17 g/m*3 7.9 C 0 km/h
2587 06-02-2009 13:41:34 7.9 C 5.17 g/m*3 7.9 C 0 km/h
2588 06-02-2009 13:53:33 8.3 C 5.14 g/m*3 8.3 C 0 km/h
2589 06-02-2009 14:05:33 9.1 C 5.32 g/m*3 9.1 C 0 km/h
2590 06-02-2009 14:17:33 9.2 C 5.09 g/m*3 9.2 C 0 km/h
2591 06-02-2009 14:29:33 9.2 C 5 g/m*3 9.2 C 0 km/h
2592 06-02-2009 14:41:33 9 C 5.03 g/m*3 9 C 0 km/h
2593 06-02-2009 14:53:33 9.1 C 4.97 g/m*3 9.1 C 0 km/h
2594 06-02-2009 15:05:33 9 C 4.94 g/m*3 9 C 0 km/h
2595 06-02-2009 15:17:32 9 C 4.94 g/m*3 9 C 0 km/h
2596 06-02-2009 15:29:32 8.9 C 4.99 g/m*3 8.9 C 0 km/h
2597 06-02-2009 15:41:32 8.7 C 4.93 g/m*3 8.7 C 0 km/h
2598 06-02-2009 15:53:32 8.4 C 4.92 g/m*3 8.4 C 0 km/h
2599 06-02-2009 16:05:33 8.1 C 4.91 g/m*3 8.1 C 0 km/h
2600 06-02-2009 16:17:32 7.9 C 5.01 g/m*3 7.9 C 0 km/h
Sensor: Nr:Datum:Temp:Abs-Feuchte:Windchill:Wind:
Aussen-T/F 2601 06-02-2009 16:29:32 7.8 C 4.98 g/m*3 7.8 C 0 km/h
2602 06-02-2009 16:41:32 7.7 C 5.03 g/m*3 7.7 C 0 km/h
2603 06-02-2009 16:53:31 7.6 C 4.99 g/m*3 7.6 C 0 km/h
2604 06-02-2009 17:05:32 7.5 C 5.04 g/m*3 7.5 C 0 km/h
2605 06-02-2009 17:17:31 7.3 C 4.98 g/m*3 7.3 C 0 km/h
2606 06-02-2009 17:29:31 7.1 C 4.99 g/m*3 7.1 C 0 km/h
2607 06-02-2009 17:41:31 7 C 4.96 g/m*3 7 C 0 km/h
2608 06-02-2009 17:53:31 6.9 C 5.08 g/m*3 6.9 C 0 km/h
2609 06-02-2009 18:05:31 6.9 C 5.08 g/m*3 6.9 C 0 km/h
2610 06-02-2009 18:17:31 6.7 C 5.09 g/m*3 6.7 C 0 km/h
2611 06-02-2009 18:29:31 6.6 C 5.06 g/m*3 6.6 C 0 km/h
2612 06-02-2009 18:41:31 6.4 C 5.07 g/m*3 6.4 C 0 km/h
2613 06-02-2009 18:53:31 6.3 C 5.03 g/m*3 6.3 C 0 km/h
2614 06-02-2009 19:05:30 6.3 C 5.11 g/m*3 6.3 C 0 km/h
2615 06-02-2009 19:17:31 6.2 C 5.15 g/m*3 6.2 C 0 km/h
2616 06-02-2009 19:29:30 6.1 C 5.11 g/m*3 6.1 C 0 km/h
2617 06-02-2009 19:41:30 6.2 C 5.22 g/m*3 6.2 C 0 km/h
2618 06-02-2009 19:53:30 6.2 C 5.22 g/m*3 6.2 C 0 km/h
2619 06-02-2009 20:05:29 6.1 C 5.19 g/m*3 6.1 C 0 km/h
2620 06-02-2009 20:17:30 6 C 5.15 g/m*3 6 C 0 km/h
2621 06-02-2009 20:29:30 5.9 C 5.19 g/m*3 5.9 C 0 km/h
2622 06-02-2009 20:41:30 5.8 C 5.23 g/m*3 5.8 C 0 km/h
2623 06-02-2009 20:53:29 5.9 C 5.26 g/m*3 5.9 C 0 km/h
2624 06-02-2009 21:05:29 5.9 C 5.26 g/m*3 5.9 C 0 km/h
2625 06-02-2009 21:17:29 5.9 C 5.34 g/m*3 5.9 C 0 km/h
Sensor: Nr:Datum:Temp:Abs-Feuchte:Windchill:Wind:
Aussen-T/F 2626 06-02-2009 21:29:29 5.9 C 5.26 g/m*3 5.9 C 0 km/h
2627 06-02-2009 21:41:29 5.8 C 5.23 g/m*3 5.8 C 0 km/h
2628 06-02-2009 21:53:29 5.9 C 5.34 g/m*3 5.9 C 0 km/h
2629 06-02-2009 22:05:29 5.6 C 5.23 g/m*3 5.6 C 0 km/h
2630 06-02-2009 22:17:28 5.6 C 5.23 g/m*3 5.6 C 0 km/h
2631 06-02-2009 22:29:29 5.6 C 5.3 g/m*3 5.6 C 0 km/h
2632 06-02-2009 22:41:29 5.4 C 5.23 g/m*3 5.4 C 0 km/h
2633 06-02-2009 22:54:28 5.3 C 5.27 g/m*3 5.3 C 0 km/h
2634 06-02-2009 23:06:28 5 C 5.16 g/m*3 5 C 0 km/h
2635 06-02-2009 23:18:28 4.9 C 5.2 g/m*3 4.9 C 0 km/h
2636 06-02-2009 23:30:28 4.8 C 5.23 g/m*3 4.8 C 0 km/h
2637 06-02-2009 23:42:28 4.8 C 5.23 g/m*3 4.8 C 0 km/h
2638 06-02-2009 23:54:28 4.8 C 5.3 g/m*3 4.8 C 0 km/h
2639 07-02-2009 00:06:28 4.9 C 5.33 g/m*3 4.9 C 0 km/h
2640 07-02-2009 00:18:28 5 C 5.3 g/m*3 5 C 0 km/h
2641 07-02-2009 00:30:28 5 C 5.23 g/m*3 5 C 0 km/h
2642 07-02-2009 00:42:28 5.1 C 5.27 g/m*3 5.1 C 0 km/h
2643 07-02-2009 00:54:28 5 C 5.23 g/m*3 5 C 0 km/h
2644 07-02-2009 01:06:28 5 C 5.23 g/m*3 5 C 0 km/h
2645 07-02-2009 01:18:28 4.9 C 5.27 g/m*3 4.9 C 0 km/h
2646 07-02-2009 01:30:28 4.8 C 5.16 g/m*3 4.8 C 0 km/h
2647 07-02-2009 01:42:29 4.7 C 5.13 g/m*3 4.7 C 0 km/h
2648 07-02-2009 01:54:29 4.7 C 5.2 g/m*3 4.7 C 0 km/h
2649 07-02-2009 02:06:29 4.8 C 5.23 g/m*3 4.8 C 0 km/h
2650 07-02-2009 02:18:29 4.8 C 5.23 g/m*3 4.8 C 0 km/h
Sensor: Nr:Datum:Temp:Abs-Feuchte:Windchill:Wind:
Aussen-T/F 2651 07-02-2009 02:30:29 4.8 C 5.23 g/m*3 4.8 C 0 km/h
2652 07-02-2009 02:42:29 4.7 C 5.2 g/m*3 4.7 C 0 km/h
2653 07-02-2009 02:54:29 4.6 C 5.16 g/m*3 4.6 C 0 km/h
2654 07-02-2009 03:06:29 4.6 C 5.16 g/m*3 4.6 C 0 km/h
2655 07-02-2009 03:18:29 4.5 C 5.19 g/m*3 4.5 C 0 km/h
2656 07-02-2009 03:30:29 4.4 C 5.16 g/m*3 4.4 C 0 km/h
2657 07-02-2009 03:42:29 4.4 C 5.16 g/m*3 4.4 C 0 km/h
2658 07-02-2009 03:54:29 4.3 C 5.12 g/m*3 4.3 C 0 km/h
2659 07-02-2009 04:06:29 4.3 C 5.12 g/m*3 4.3 C 0 km/h
2660 07-02-2009 04:18:29 4.3 C 5.12 g/m*3 4.3 C 0 km/h
2661 07-02-2009 04:30:29 4.2 C 5.09 g/m*3 4.2 C 0 km/h
2662 07-02-2009 04:42:29 4.1 C 5.06 g/m*3 4.1 C 0 km/h
2663 07-02-2009 04:54:29 4.1 C 5.06 g/m*3 4.1 C 0 km/h
2664 07-02-2009 05:06:29 4.1 C 5.06 g/m*3 4.1 C 0 km/h
2665 07-02-2009 05:18:29 4 C 5.02 g/m*3 4 C 0 km/h
2666 07-02-2009 05:30:29 3.9 C 5.05 g/m*3 3.9 C 0 km/h
2667 07-02-2009 05:42:30 3.9 C 5.05 g/m*3 3.9 C 0 km/h
2668 07-02-2009 05:54:30 3.8 C 5.02 g/m*3 3.8 C 0 km/h
2669 07-02-2009 06:06:30 3.8 C 5.02 g/m*3 3.8 C 0 km/h
2670 07-02-2009 06:18:30 3.7 C 4.99 g/m*3 3.7 C 0 km/h
2671 07-02-2009 06:30:30 3.6 C 4.95 g/m*3 3.6 C 0 km/h
2672 07-02-2009 06:42:30 3.7 C 5.05 g/m*3 3.7 C 0 km/h
2673 07-02-2009 06:54:30 3.6 C 5.01 g/m*3 3.6 C 0 km/h
2674 07-02-2009 07:06:30 3.6 C 5.01 g/m*3 3.6 C 0 km/h
2675 07-02-2009 07:18:28 3.7 C 5.05 g/m*3 3.7 C 0 km/h
Sensor: Nr:Datum:Temp:Abs-Feuchte:Windchill:Wind:
Aussen-T/F 2676 07-02-2009 07:30:29 3.7 C 5.05 g/m*3 3.7 C 0 km/h
2677 07-02-2009 07:42:30 3.7 C 5.05 g/m*3 3.7 C 0 km/h
2678 07-02-2009 07:54:28 3.6 C 5.01 g/m*3 3.6 C 0 km/h
2679 07-02-2009 08:06:28 3.6 C 5.01 g/m*3 3.6 C 0 km/h
2680 07-02-2009 08:18:28 3.5 C 5.04 g/m*3 3.5 C 0 km/h
2681 07-02-2009 08:30:28 3.5 C 5.04 g/m*3 3.5 C 0 km/h
2682 07-02-2009 08:42:28 3.5 C 5.1 g/m*3 3.5 C 0 km/h
2683 07-02-2009 08:54:28 3.6 C 5.2 g/m*3 3.6 C 0 km/h
2684 07-02-2009 09:06:28 3.6 C 5.2 g/m*3 3.6 C 0 km/h
2685 07-02-2009 09:18:27 3.7 C 5.36 g/m*3 3.7 C 0 km/h
2686 07-02-2009 09:30:27 3.8 C 5.46 g/m*3 3.8 C 0 km/h
2687 07-02-2009 09:42:28 3.8 C 5.52 g/m*3 3.8 C 0 km/h
2688 07-02-2009 09:54:27 3.6 C 5.45 g/m*3 3.6 C 0 km/h
2689 07-02-2009 10:06:27 3.8 C 5.58 g/m*3 3.8 C 0 km/h
2690 07-02-2009 10:18:26 4 C 5.66 g/m*3 4 C 0 km/h
2691 07-02-2009 10:30:27 4.2 C 5.73 g/m*3 4.2 C 0 km/h
2692 07-02-2009 10:42:27 4.2 C 5.73 g/m*3 4.2 C 0 km/h
2693 07-02-2009 10:54:26 4.3 C 5.77 g/m*3 4.3 C 0 km/h
2694 07-02-2009 11:06:26 4.2 C 5.73 g/m*3 4.2 C 0 km/h
2695 07-02-2009 11:18:27 4.5 C 5.85 g/m*3 4.5 C 0 km/h
2696 07-02-2009 11:30:26 4.6 C 5.89 g/m*3 4.6 C 0 km/h
2697 07-02-2009 11:42:26 4.6 C 5.89 g/m*3 4.6 C 0 km/h
2698 07-02-2009 11:54:26 4.7 C 5.93 g/m*3 4.7 C 0 km/h
2699 07-02-2009 12:06:26 4.8 C 5.97 g/m*3 4.8 C 0 km/h
2700 07-02-2009 12:18:26 4.8 C 5.97 g/m*3 4.8 C 0 km/h
Sensor: Nr:Datum:Temp:Abs-Feuchte:Windchill:Wind:
Aussen-T/F 2701 07-02-2009 12:30:25 4.8 C 5.97 g/m*3 4.8 C 0 km/h
2702 07-02-2009 12:42:25 4.9 C 6.01 g/m*3 4.9 C 0 km/h
2703 07-02-2009 12:54:26 5 C 5.98 g/m*3 5 C 0 km/h
2704 07-02-2009 13:06:25 5 C 5.98 g/m*3 5 C 0 km/h
2705 07-02-2009 13:18:25 5 C 6.05 g/m*3 5 C 0 km/h
2706 07-02-2009 13:30:25 5 C 6.05 g/m*3 5 C 0 km/h
2707 07-02-2009 13:42:25 5 C 6.05 g/m*3 5 C 0 km/h
2708 07-02-2009 13:54:01 5.3 C 6.24 g/m*3 5.3 C 0 km/h
2709 07-02-2009 14:06:01 5.4 C 6.28 g/m*3 5.4 C 0 km/h
2710 07-02-2009 14:18:01 5.8 C 6.45 g/m*3 5.8 C 0 km/h
2711 07-02-2009 14:30:01 5.7 C 6.4 g/m*3 5.7 C 0 km/h
2712 07-02-2009 14:42:00 5.6 C 6.29 g/m*3 5.6 C 0 km/h
2713 07-02-2009 14:54:01 5.8 C 6.38 g/m*3 5.8 C 0 km/h
2714 07-02-2009 15:06:01 5.7 C 6.26 g/m*3 5.7 C 0 km/h
2715 07-02-2009 15:18:00 5.4 C 6.07 g/m*3 5.4 C 0 km/h
2716 07-02-2009 15:30:00 5.1 C 5.88 g/m*3 5.1 C 0 km/h
2717 07-02-2009 15:42:00 4.6 C 5.76 g/m*3 4.6 C 0 km/h
2718 07-02-2009 15:54:00 4.4 C 5.68 g/m*3 4.4 C 0 km/h
2719 07-02-2009 16:06:00 4.3 C 5.64 g/m*3 4.3 C 0 km/h
2720 07-02-2009 16:18:59 4.2 C 5.61 g/m*3 4.2 C 0 km/h
2721 07-02-2009 16:30:00 4.2 C 5.61 g/m*3 4.2 C 0 km/h
2722 07-02-2009 16:42:00 4.1 C 5.5 g/m*3 4.1 C 0 km/h
2723 07-02-2009 16:54:59 4 C 5.4 g/m*3 4 C 0 km/h
2724 07-02-2009 17:06:59 3.9 C 5.43 g/m*3 3.9 C 0 km/h
2725 07-02-2009 17:18:00 3.7 C 5.36 g/m*3 3.7 C 0 km/h
Sensor: Nr:Datum:Temp:Abs-Feuchte:Windchill:Wind:
Aussen-T/F 2726 07-02-2009 17:30:00 3.6 C 5.32 g/m*3 3.6 C 0 km/h
2727 07-02-2009 17:42:59 3.6 C 5.39 g/m*3 3.6 C 0 km/h
2728 07-02-2009 17:54:59 3.4 C 5.25 g/m*3 3.4 C 0 km/h
2729 07-02-2009 18:06:59 3.4 C 5.25 g/m*3 3.4 C 0 km/h
2730 07-02-2009 18:18:59 3.3 C 5.22 g/m*3 3.3 C 0 km/h
2731 07-02-2009 18:30:58 3.2 C 5.18 g/m*3 3.2 C 0 km/h
2732 07-02-2009 18:42:58 3.3 C 5.22 g/m*3 3.3 C 0 km/h
2733 07-02-2009 18:54:59 3.1 C 5.09 g/m*3 3.1 C 0 km/h
2734 07-02-2009 19:06:58 3 C 5.11 g/m*3 3 C 0 km/h
2735 07-02-2009 19:18:58 3.1 C 5.15 g/m*3 3.1 C 0 km/h
2736 07-02-2009 19:30:58 3 C 5.05 g/m*3 3 C 0 km/h
2737 07-02-2009 19:42:58 3 C 5.05 g/m*3 3 C 0 km/h
2738 07-02-2009 19:54:58 3.1 C 5.03 g/m*3 3.1 C 0 km/h
2739 07-02-2009 20:06:58 3.1 C 4.97 g/m*3 3.1 C 0 km/h
2740 07-02-2009 20:18:57 3.1 C 4.97 g/m*3 3.1 C 0 km/h
2741 07-02-2009 20:30:58 3 C 4.88 g/m*3 3 C 0 km/h
2742 07-02-2009 20:42:58 3 C 4.82 g/m*3 3 C 0 km/h
2743 07-02-2009 20:54:57 3 C 4.76 g/m*3 3 C 0 km/h
2744 07-02-2009 21:06:57 3 C 4.76 g/m*3 3 C 0 km/h
2745 07-02-2009 21:18:56 3 C 4.7 g/m*3 3 C 0 km/h
2746 07-02-2009 21:30:57 3.1 C 4.67 g/m*3 3.1 C 0 km/h
2747 07-02-2009 21:42:57 3.1 C 4.61 g/m*3 3.1 C 0 km/h
2748 07-02-2009 21:54:56 3.1 C 4.61 g/m*3 3.1 C 0 km/h
2749 07-02-2009 22:07:57 3.1 C 4.55 g/m*3 3.1 C 0 km/h
2750 07-02-2009 22:19:57 3.1 C 4.49 g/m*3 3.1 C 0 km/h
Sensor: Nr:Datum:Temp:Abs-Feuchte:Windchill:Wind:
Aussen-T/F 2751 07-02-2009 22:31:57 3 C 4.46 g/m*3 3 C 0 km/h
2752 07-02-2009 22:43:58 3 C 4.4 g/m*3 3 C 0 km/h
2753 07-02-2009 22:55:58 2.9 C 4.37 g/m*3 2.9 C 0 km/h
2754 07-02-2009 23:07:58 2.8 C 4.34 g/m*3 2.8 C 0 km/h
2755 07-02-2009 23:19:58 2.7 C 4.31 g/m*3 2.7 C 0 km/h
2756 07-02-2009 23:31:58 2.5 C 4.25 g/m*3 2.5 C 0 km/h
2757 07-02-2009 23:43:58 2.7 C 4.31 g/m*3 2.7 C 0 km/h
2758 07-02-2009 23:55:58 2.5 C 4.14 g/m*3 2.5 C 0 km/h
2759 08-02-2009 00:07:58 2.3 C 4.14 g/m*3 2.3 C 0 km/h
2760 08-02-2009 00:19:58 2.3 C 4.2 g/m*3 2.3 C 0 km/h
2761 08-02-2009 00:31:58 2 C 4.11 g/m*3 2 C 0 km/h
2762 08-02-2009 00:43:58 1.8 C 4.11 g/m*3 1.8 C 0 km/h
2763 08-02-2009 00:55:58 1.7 C 4.03 g/m*3 1.7 C 0 km/h
2764 08-02-2009 01:07:58 1.7 C 4.03 g/m*3 1.7 C 0 km/h
2765 08-02-2009 01:19:58 1.6 C 4 g/m*3 1.6 C 0 km/h
2766 08-02-2009 01:31:58 1.8 C 4 g/m*3 1.8 C 0 km/h
2767 08-02-2009 01:43:58 1.9 C 3.97 g/m*3 1.9 C 0 km/h
2768 08-02-2009 01:55:58 1.9 C 3.97 g/m*3 1.9 C 0 km/h
2769 08-02-2009 02:07:58 2 C 3.95 g/m*3 2 C 0 km/h
2770 08-02-2009 02:19:58 2 C 3.95 g/m*3 2 C 0 km/h
2771 08-02-2009 02:31:58 1.9 C 3.97 g/m*3 1.9 C 0 km/h
2772 08-02-2009 02:43:58 1.8 C 3.95 g/m*3 1.8 C 0 km/h
2773 08-02-2009 02:55:59 1.8 C 4 g/m*3 1.8 C 0 km/h
2774 08-02-2009 03:07:59 1.8 C 3.89 g/m*3 1.8 C 0 km/h
2775 08-02-2009 03:19:59 1.7 C 3.87 g/m*3 1.7 C 0 km/h
Sensor: Nr:Datum:Temp:Abs-Feuchte:Windchill:Wind:
Aussen-T/F 2776 08-02-2009 03:31:59 1.6 C 3.84 g/m*3 1.6 C 0 km/h
2777 08-02-2009 03:43:59 1.7 C 3.87 g/m*3 1.7 C 0 km/h
2778 08-02-2009 03:55:59 1.7 C 3.87 g/m*3 1.7 C 0 km/h
2779 08-02-2009 04:07:59 1.7 C 3.81 g/m*3 1.7 C 0 km/h
2780 08-02-2009 04:19:59 1.7 C 3.81 g/m*3 1.7 C 0 km/h
2781 08-02-2009 04:31:59 1.7 C 3.81 g/m*3 1.7 C 0 km/h
2782 08-02-2009 04:43:59 1.7 C 3.81 g/m*3 1.7 C 0 km/h
2783 08-02-2009 04:55:59 1.7 C 3.81 g/m*3 1.7 C 0 km/h
2784 08-02-2009 05:07:59 1.7 C 3.81 g/m*3 1.7 C 0 km/h
2785 08-02-2009 05:19:59 1.7 C 3.81 g/m*3 1.7 C 0 km/h
2786 08-02-2009 05:31:59 1.7 C 3.76 g/m*3 1.7 C 0 km/h
2787 08-02-2009 05:43:59 1.6 C 3.73 g/m*3 1.6 C 0 km/h
2788 08-02-2009 05:55:59 1.5 C 3.71 g/m*3 1.5 C 0 km/h
2789 08-02-2009 06:07:59 1.4 C 3.68 g/m*3 1.4 C 0 km/h
2790 08-02-2009 06:19:59 1.4 C 3.73 g/m*3 1.4 C 0 km/h
2791 08-02-2009 06:31:59 1.3 C 3.71 g/m*3 1.3 C 0 km/h
2792 08-02-2009 06:43:59 1.3 C 3.71 g/m*3 1.3 C 0 km/h
2793 08-02-2009 06:56:00 1.3 C 3.6 g/m*3 1.3 C 0 km/h
2794 08-02-2009 07:08:00 1.5 C 3.44 g/m*3 1.5 C 0 km/h
2795 08-02-2009 07:19:57 1.3 C 3.39 g/m*3 1.3 C 0 km/h
2796 08-02-2009 07:31:57 1.3 C 3.39 g/m*3 1.3 C 0 km/h
2797 08-02-2009 07:43:58 1.4 C 3.36 g/m*3 1.4 C 0 km/h
2798 08-02-2009 07:55:56 1.4 C 3.36 g/m*3 1.4 C 0 km/h
2799 08-02-2009 08:07:57 1.5 C 3.38 g/m*3 1.5 C 0 km/h
2800 08-02-2009 08:19:56 1.6 C 3.35 g/m*3 1.6 C 0 km/h
Sensor: Nr:Datum:Temp:Abs-Feuchte:Windchill:Wind:
Aussen-T/F 2801 08-02-2009 08:31:56 1.7 C 3.32 g/m*3 1.7 C 0 km/h
2802 08-02-2009 08:43:56 1.7 C 3.43 g/m*3 1.7 C 0 km/h
2803 08-02-2009 08:55:56 1.8 C 3.4 g/m*3 1.8 C 0 km/h
2804 08-02-2009 09:07:56 1.9 C 3.37 g/m*3 1.9 C 0 km/h
2805 08-02-2009 09:19:55 2 C 3.33 g/m*3 2 C 0 km/h
2806 08-02-2009 09:31:55 2.1 C 3.3 g/m*3 2.1 C 0 km/h
2807 08-02-2009 09:43:55 2.1 C 3.3 g/m*3 2.1 C 0 km/h
2808 08-02-2009 09:55:55 2.2 C 3.32 g/m*3 2.2 C 0 km/h
2809 08-02-2009 10:07:55 2.3 C 3.4 g/m*3 2.3 C 0 km/h
2810 08-02-2009 10:19:55 2.5 C 3.33 g/m*3 2.5 C 0 km/h
2811 08-02-2009 10:31:55 2.7 C 3.32 g/m*3 2.7 C 0 km/h
2812 08-02-2009 10:43:55 2.9 C 3.31 g/m*3 2.9 C 0 km/h
2813 08-02-2009 10:55:55 3.3 C 3.28 g/m*3 3.3 C 0 km/h
2814 08-02-2009 11:07:54 3.4 C 3.24 g/m*3 3.4 C 0 km/h
2815 08-02-2009 11:19:55 3.4 C 3.3 g/m*3 3.4 C 0 km/h
2816 08-02-2009 11:31:54 3.6 C 3.34 g/m*3 3.6 C 0 km/h
2817 08-02-2009 11:43:54 3.8 C 3.32 g/m*3 3.8 C 0 km/h
2818 08-02-2009 11:55:54 4 C 3.24 g/m*3 4 C 0 km/h
2819 08-02-2009 12:07:55 4.1 C 3.2 g/m*3 4.1 C 0 km/h
2820 08-02-2009 12:19:54 4.3 C 3.18 g/m*3 4.3 C 0 km/h
2821 08-02-2009 12:31:53 4.3 C 2.98 g/m*3 4.3 C 0 km/h
2822 08-02-2009 12:43:53 4.4 C 3 g/m*3 4.4 C 0 km/h
2823 08-02-2009 12:55:54 4.4 C 3.07 g/m*3 4.4 C 0 km/h
2824 08-02-2009 13:07:53 4.5 C 3.02 g/m*3 4.5 C 0 km/h
2825 08-02-2009 13:19:53 4.5 C 3.09 g/m*3 4.5 C 0 km/h
Sensor: Nr:Datum:Temp:Abs-Feuchte:Windchill:Wind:
Aussen-T/F 2826 08-02-2009 13:31:54 4.6 C 3.18 g/m*3 4.6 C 0 km/h
2827 08-02-2009 13:43:54 4.5 C 3.09 g/m*3 4.5 C 0 km/h
2828 08-02-2009 13:55:53 4.5 C 3.02 g/m*3 4.5 C 0 km/h
2829 08-02-2009 14:07:53 4.8 C 3.08 g/m*3 4.8 C 0 km/h
2830 08-02-2009 14:19:53 5.3 C 3.05 g/m*3 5.3 C 0 km/h
2831 08-02-2009 14:31:53 5.6 C 2.97 g/m*3 5.6 C 0 km/h
2832 08-02-2009 14:43:54 5.7 C 2.78 g/m*3 5.7 C 0 km/h
2833 08-02-2009 14:55:52 5.1 C 2.74 g/m*3 5.1 C 0 km/h
2834 08-02-2009 15:07:52 4.7 C 2.86 g/m*3 4.7 C 0 km/h
2835 08-02-2009 15:19:52 4.7 C 2.86 g/m*3 4.7 C 0 km/h
2836 08-02-2009 15:31:52 4.7 C 2.86 g/m*3 4.7 C 0 km/h
2837 08-02-2009 15:43:52 4.5 C 2.76 g/m*3 4.5 C 0 km/h
2838 08-02-2009 15:55:51 4.4 C 2.94 g/m*3 4.4 C 0 km/h
2839 08-02-2009 16:07:52 4.1 C 3.01 g/m*3 4.1 C 0 km/h
2840 08-02-2009 16:19:52 4 C 3.05 g/m*3 4 C 0 km/h
2841 08-02-2009 16:31:51 3.8 C 3.07 g/m*3 3.8 C 0 km/h
2842 08-02-2009 16:43:51 3.8 C 3.14 g/m*3 3.8 C 0 km/h
2843 08-02-2009 16:55:52 3.7 C 3.12 g/m*3 3.7 C 0 km/h
2844 08-02-2009 17:07:51 3.6 C 2.85 g/m*3 3.6 C 0 km/h
2845 08-02-2009 17:19:51 3.5 C 2.71 g/m*3 3.5 C 0 km/h
2846 08-02-2009 17:31:51 3.4 C 2.63 g/m*3 3.4 C 0 km/h
2847 08-02-2009 17:43:51 3.4 C 2.63 g/m*3 3.4 C 0 km/h
2848 08-02-2009 17:55:51 3.2 C 2.59 g/m*3 3.2 C 0 km/h
2849 08-02-2009 18:07:51 3.2 C 2.65 g/m*3 3.2 C 0 km/h
2850 08-02-2009 18:19:50 3.1 C 2.57 g/m*3 3.1 C 0 km/h
Sensor: Nr:Datum:Temp:Abs-Feuchte:Windchill:Wind:
Aussen-T/F 2851 08-02-2009 18:31:51 3 C 2.56 g/m*3 3 C 0 km/h
2852 08-02-2009 18:43:51 2.9 C 2.6 g/m*3 2.9 C 0 km/h
2853 08-02-2009 18:55:50 2.8 C 2.58 g/m*3 2.8 C 0 km/h
2854 08-02-2009 19:07:50 2.6 C 2.6 g/m*3 2.6 C 0 km/h
2855 08-02-2009 19:19:49 2.3 C 2.61 g/m*3 2.3 C 0 km/h
2856 08-02-2009 19:31:50 2.1 C 2.63 g/m*3 2.1 C 0 km/h
2857 08-02-2009 19:43:50 2.1 C 2.63 g/m*3 2.1 C 0 km/h
2858 08-02-2009 19:55:49 2.1 C 2.74 g/m*3 2.1 C 0 km/h
2859 08-02-2009 20:07:50 2.1 C 2.74 g/m*3 2.1 C 0 km/h
2860 08-02-2009 20:19:49 2.3 C 2.72 g/m*3 2.3 C 0 km/h
2861 08-02-2009 20:31:49 2.2 C 2.7 g/m*3 2.2 C 0 km/h
2862 08-02-2009 20:43:49 2.2 C 2.76 g/m*3 2.2 C 0 km/h
2863 08-02-2009 20:55:49 2.1 C 2.8 g/m*3 2.1 C 0 km/h
2864 08-02-2009 21:07:49 2.2 C 2.82 g/m*3 2.2 C 0 km/h
2865 08-02-2009 21:19:49 2.2 C 2.82 g/m*3 2.2 C 0 km/h
2866 08-02-2009 21:31:49 2.3 C 2.84 g/m*3 2.3 C 0 km/h
2867 08-02-2009 21:43:49 2.2 C 2.82 g/m*3 2.2 C 0 km/h
2868 08-02-2009 21:55:48 2.1 C 2.85 g/m*3 2.1 C 0 km/h
2869 08-02-2009 22:07:49 2.2 C 2.93 g/m*3 2.2 C 0 km/h
2870 08-02-2009 22:20:49 2.2 C 2.99 g/m*3 2.2 C 0 km/h
2871 08-02-2009 22:32:49 2.3 C 3.01 g/m*3 2.3 C 0 km/h
2872 08-02-2009 22:44:49 2.3 C 3.06 g/m*3 2.3 C 0 km/h
2873 08-02-2009 22:56:49 2.2 C 3.1 g/m*3 2.2 C 0 km/h
2874 08-02-2009 23:08:49 2.2 C 3.1 g/m*3 2.2 C 0 km/h
2875 08-02-2009 23:20:49 2.1 C 3.13 g/m*3 2.1 C 0 km/h
Sensor: Nr:Datum:Temp:Abs-Feuchte:Windchill:Wind:
Aussen-T/F 2876 08-02-2009 23:32:50 2.2 C 3.15 g/m*3 2.2 C 0 km/h
2877 08-02-2009 23:44:50 2.3 C 3.18 g/m*3 2.3 C 0 km/h
2878 08-02-2009 23:56:50 2.3 C 3.18 g/m*3 2.3 C 0 km/h
2879 09-02-2009 00:08:50 2.4 C 3.2 g/m*3 2.4 C 0 km/h
2880 09-02-2009 00:20:50 2.4 C 3.2 g/m*3 2.4 C 0 km/h
2881 09-02-2009 00:32:50 2.3 C 3.23 g/m*3 2.3 C 0 km/h
2882 09-02-2009 00:44:50 2.3 C 3.23 g/m*3 2.3 C 0 km/h
2883 09-02-2009 00:56:50 2.3 C 3.23 g/m*3 2.3 C 0 km/h
2884 09-02-2009 01:08:50 2.3 C 3.23 g/m*3 2.3 C 0 km/h
2885 09-02-2009 01:20:50 2.3 C 3.23 g/m*3 2.3 C 0 km/h
2886 09-02-2009 01:32:50 2.2 C 3.21 g/m*3 2.2 C 0 km/h
2887 09-02-2009 01:44:50 2.2 C 3.27 g/m*3 2.2 C 0 km/h
2888 09-02-2009 01:56:50 2.1 C 3.24 g/m*3 2.1 C 0 km/h
2889 09-02-2009 02:08:50 2.1 C 3.24 g/m*3 2.1 C 0 km/h
2890 09-02-2009 02:20:50 2.2 C 3.27 g/m*3 2.2 C 0 km/h
2891 09-02-2009 02:32:50 2.2 C 3.27 g/m*3 2.2 C 0 km/h
2892 09-02-2009 02:44:50 2.1 C 3.24 g/m*3 2.1 C 0 km/h
2893 09-02-2009 02:56:50 2.1 C 3.24 g/m*3 2.1 C 0 km/h
2894 09-02-2009 03:08:50 1.8 C 3.29 g/m*3 1.8 C 0 km/h
2895 09-02-2009 03:20:50 1.6 C 3.24 g/m*3 1.6 C 0 km/h
2896 09-02-2009 03:32:50 1.7 C 3.32 g/m*3 1.7 C 0 km/h
2897 09-02-2009 03:44:51 1.5 C 3.28 g/m*3 1.5 C 0 km/h
2898 09-02-2009 03:56:51 1.4 C 3.31 g/m*3 1.4 C 0 km/h
2899 09-02-2009 04:08:51 1.3 C 3.34 g/m*3 1.3 C 0 km/h
2900 09-02-2009 04:20:51 1.1 C 3.34 g/m*3 1.1 C 0 km/h
Sensor: Nr:Datum:Temp:Abs-Feuchte:Windchill:Wind:
Aussen-T/F 2901 09-02-2009 04:32:51 0.9 C 3.35 g/m*3 0.9 C 0 km/h
2902 09-02-2009 04:44:51 0.4 C 3.29 g/m*3 0.4 C 0 km/h
2903 09-02-2009 04:56:51 0 C 3.25 g/m*3 0 C 0 km/h
2904 09-02-2009 05:08:51 0.1 C 3.42 g/m*3 0.1 C 0 km/h
2905 09-02-2009 05:20:51 0.5 C 3.46 g/m*3 0.5 C 0 km/h
2906 09-02-2009 05:32:51 1.2 C 3.31 g/m*3 1.2 C 0 km/h
2907 09-02-2009 05:44:51 1.4 C 3.2 g/m*3 1.4 C 0 km/h
2908 09-02-2009 05:56:51 1.4 C 3.2 g/m*3 1.4 C 0 km/h
2909 09-02-2009 06:08:51 1.5 C 3.17 g/m*3 1.5 C 0 km/h
2910 09-02-2009 06:20:51 1.7 C 3.21 g/m*3 1.7 C 0 km/h
2911 09-02-2009 06:32:51 1.8 C 3.12 g/m*3 1.8 C 0 km/h
2912 09-02-2009 06:44:48 1.9 C 3.2 g/m*3 1.9 C 0 km/h
2913 09-02-2009 06:56:48 1.9 C 3.2 g/m*3 1.9 C 0 km/h
2914 09-02-2009 07:08:49 1.8 C 3.23 g/m*3 1.8 C 0 km/h
2915 09-02-2009 07:20:48 1.9 C 3.26 g/m*3 1.9 C 0 km/h
2916 09-02-2009 07:32:48 2 C 3.22 g/m*3 2 C 0 km/h
2917 09-02-2009 07:44:48 1.9 C 3.26 g/m*3 1.9 C 0 km/h
2918 09-02-2009 07:56:48 1.8 C 3.23 g/m*3 1.8 C 0 km/h
2919 09-02-2009 08:08:48 2 C 3.22 g/m*3 2 C 0 km/h
2920 09-02-2009 08:20:48 2.1 C 3.19 g/m*3 2.1 C 0 km/h
2921 09-02-2009 08:32:48 2.2 C 3.21 g/m*3 2.2 C 0 km/h
2922 09-02-2009 08:44:48 2.3 C 3.23 g/m*3 2.3 C 0 km/h
2923 09-02-2009 08:56:48 2.1 C 3.3 g/m*3 2.1 C 0 km/h
2924 09-02-2009 09:08:47 1.8 C 3.45 g/m*3 1.8 C 0 km/h
2925 09-02-2009 09:20:48 1.9 C 3.59 g/m*3 1.9 C 0 km/h
Sensor: Nr:Datum:Temp:Abs-Feuchte:Windchill:Wind:
Aussen-T/F 2926 09-02-2009 09:32:47 2 C 3.56 g/m*3 2 C 0 km/h
2927 09-02-2009 09:44:47 2.1 C 3.47 g/m*3 2.1 C 0 km/h
2928 09-02-2009 09:56:47 2.2 C 3.49 g/m*3 2.2 C 0 km/h
2929 09-02-2009 10:08:46 2.4 C 3.48 g/m*3 2.4 C 0 km/h
2930 09-02-2009 10:20:47 2.5 C 3.51 g/m*3 2.5 C 0 km/h
2931 09-02-2009 10:32:47 2.6 C 3.53 g/m*3 2.6 C 0 km/h
2932 09-02-2009 10:44:46 2.7 C 3.5 g/m*3 2.7 C 0 km/h
2933 09-02-2009 10:56:46 2.9 C 3.48 g/m*3 2.9 C 0 km/h
2934 09-02-2009 11:08:47 3 C 3.45 g/m*3 3 C 0 km/h
2935 09-02-2009 11:20:46 3.1 C 3.47 g/m*3 3.1 C 0 km/h
2936 09-02-2009 11:32:46 3.2 C 3.5 g/m*3 3.2 C 0 km/h
2937 09-02-2009 11:44:46 3.2 C 3.56 g/m*3 3.2 C 0 km/h
2938 09-02-2009 11:56:46 3.2 C 3.56 g/m*3 3.2 C 0 km/h
2939 09-02-2009 12:08:46 3.4 C 3.6 g/m*3 3.4 C 0 km/h
2940 09-02-2009 12:20:46 3.4 C 3.66 g/m*3 3.4 C 0 km/h
2941 09-02-2009 12:32:45 3.5 C 3.75 g/m*3 3.5 C 0 km/h
2942 09-02-2009 12:44:46 3.5 C 3.75 g/m*3 3.5 C 0 km/h
2943 09-02-2009 12:56:46 3.8 C 3.83 g/m*3 3.8 C 0 km/h
2944 09-02-2009 13:08:45 3.8 C 3.83 g/m*3 3.8 C 0 km/h
2945 09-02-2009 13:20:45 4.1 C 3.71 g/m*3 4.1 C 0 km/h
2946 09-02-2009 13:32:45 4.3 C 3.76 g/m*3 4.3 C 0 km/h
2947 09-02-2009 13:44:45 4.2 C 3.67 g/m*3 4.2 C 0 km/h
2948 09-02-2009 13:56:45 4 C 3.75 g/m*3 4 C 0 km/h
2949 09-02-2009 14:08:44 4 C 3.75 g/m*3 4 C 0 km/h
2950 09-02-2009 14:20:45 4.5 C 3.81 g/m*3 4.5 C 0 km/h
Sensor: Nr:Datum:Temp:Abs-Feuchte:Windchill:Wind:
Aussen-T/F 2951 09-02-2009 14:32:45 4.4 C 3.72 g/m*3 4.4 C 0 km/h
2952 09-02-2009 14:44:45 4.4 C 3.79 g/m*3 4.4 C 0 km/h
2953 09-02-2009 14:56:45 4.2 C 3.8 g/m*3 4.2 C 0 km/h
2954 09-02-2009 15:08:45 4 C 3.75 g/m*3 4 C 0 km/h
2955 09-02-2009 15:20:44 4 C 3.81 g/m*3 4 C 0 km/h
2956 09-02-2009 15:32:44 4 C 3.81 g/m*3 4 C 0 km/h
2957 09-02-2009 15:44:43 3.9 C 3.92 g/m*3 3.9 C 0 km/h
2958 09-02-2009 15:56:43 3.9 C 3.92 g/m*3 3.9 C 0 km/h
2959 09-02-2009 16:08:43 3.8 C 3.89 g/m*3 3.8 C 0 km/h
2960 09-02-2009 16:20:44 3.8 C 3.89 g/m*3 3.8 C 0 km/h
2961 09-02-2009 16:32:43 3.7 C 3.93 g/m*3 3.7 C 0 km/h
2962 09-02-2009 16:44:43 3.6 C 3.9 g/m*3 3.6 C 0 km/h
2963 09-02-2009 16:56:43 3.6 C 3.9 g/m*3 3.6 C 0 km/h
2964 09-02-2009 17:08:43 3.5 C 3.87 g/m*3 3.5 C 0 km/h
2965 09-02-2009 17:20:43 3.4 C 3.91 g/m*3 3.4 C 0 km/h
2966 09-02-2009 17:32:43 3.3 C 3.94 g/m*3 3.3 C 0 km/h
2967 09-02-2009 17:44:43 3.3 C 3.94 g/m*3 3.3 C 0 km/h
2968 09-02-2009 17:56:43 3.1 C 3.95 g/m*3 3.1 C 0 km/h
2969 09-02-2009 18:08:43 3 C 3.98 g/m*3 3 C 0 km/h
2970 09-02-2009 18:20:42 2.8 C 4.11 g/m*3 2.8 C 0 km/h
2971 09-02-2009 18:32:42 2.6 C 4.22 g/m*3 2.6 C 0 km/h
2972 09-02-2009 18:44:42 2.4 C 4.34 g/m*3 2.4 C 0 km/h
2973 09-02-2009 18:56:42 2.2 C 4.39 g/m*3 2.2 C 0 km/h
2974 09-02-2009 19:08:42 2.1 C 4.48 g/m*3 2.1 C 0 km/h
2975 09-02-2009 19:20:41 2 C 4.56 g/m*3 2 C 0 km/h
Sensor: Nr:Datum:Temp:Abs-Feuchte:Windchill:Wind:
Aussen-T/F 2976 09-02-2009 19:32:42 2 C 4.61 g/m*3 2 C 0 km/h
2977 09-02-2009 19:44:42 2 C 4.67 g/m*3 2 C 0 km/h
2978 09-02-2009 19:56:42 1.8 C 4.66 g/m*3 1.8 C 0 km/h
2979 09-02-2009 20:08:41 1.8 C 4.71 g/m*3 1.8 C 0 km/h
2980 09-02-2009 20:20:41 1.7 C 4.68 g/m*3 1.7 C 0 km/h
2981 09-02-2009 20:32:41 1.7 C 4.74 g/m*3 1.7 C 0 km/h
2982 09-02-2009 20:44:41 1.7 C 4.74 g/m*3 1.7 C 0 km/h
2983 09-02-2009 20:56:41 1.6 C 4.7 g/m*3 1.6 C 0 km/h
2984 09-02-2009 21:08:40 1.3 C 4.61 g/m*3 1.3 C 0 km/h
2985 09-02-2009 21:20:41 1.4 C 4.69 g/m*3 1.4 C 0 km/h
2986 09-02-2009 21:33:40 1.4 C 4.75 g/m*3 1.4 C 0 km/h
2987 09-02-2009 21:45:40 1.3 C 4.72 g/m*3 1.3 C 0 km/h
2988 09-02-2009 21:57:40 1.1 C 4.65 g/m*3 1.1 C 0 km/h
2989 09-02-2009 22:09:40 1 C 4.62 g/m*3 1 C 0 km/h
2990 09-02-2009 22:21:40 1.3 C 4.77 g/m*3 1.3 C 0 km/h
2991 09-02-2009 22:33:40 1.4 C 4.8 g/m*3 1.4 C 0 km/h
2992 09-02-2009 22:45:40 1.5 C 4.89 g/m*3 1.5 C 0 km/h
2993 09-02-2009 22:57:40 1.7 C 4.95 g/m*3 1.7 C 0 km/h
2994 09-02-2009 23:09:40 1.7 C 4.95 g/m*3 1.7 C 0 km/h
2995 09-02-2009 23:21:40 1.7 C 4.95 g/m*3 1.7 C 0 km/h
2996 09-02-2009 23:33:40 1.7 C 4.95 g/m*3 1.7 C 0 km/h
2997 09-02-2009 23:45:40 1.7 C 4.95 g/m*3 1.7 C 0 km/h
2998 09-02-2009 23:57:40 1.8 C 5.04 g/m*3 1.8 C 0 km/h
2999 10-02-2009 00:09:40 1.8 C 5.04 g/m*3 1.8 C 0 km/h
3000 10-02-2009 00:21:41 1.9 C 5.08 g/m*3 1.9 C 0 km/h
Sensor: Nr:Datum:Temp:Abs-Feuchte:Windchill:Wind:
Aussen-T/F 3001 10-02-2009 00:33:41 1.9 C 5.13 g/m*3 1.9 C 0 km/h
3002 10-02-2009 00:45:41 2 C 5.11 g/m*3 2 C 0 km/h
3003 10-02-2009 00:57:41 2 C 5.17 g/m*3 2 C 0 km/h
3004 10-02-2009 01:09:41 2.1 C 5.2 g/m*3 2.1 C 0 km/h
3005 10-02-2009 01:21:41 2.2 C 5.24 g/m*3 2.2 C 0 km/h
3006 10-02-2009 01:33:41 2.3 C 5.27 g/m*3 2.3 C 0 km/h
3007 10-02-2009 01:45:41 2.4 C 5.37 g/m*3 2.4 C 0 km/h
3008 10-02-2009 01:57:41 2.5 C 5.4 g/m*3 2.5 C 0 km/h
3009 10-02-2009 02:09:41 2.6 C 5.44 g/m*3 2.6 C 0 km/h
3010 10-02-2009 02:21:41 2.8 C 5.51 g/m*3 2.8 C 0 km/h
3011 10-02-2009 02:33:41 3 C 5.59 g/m*3 3 C 0 km/h
3012 10-02-2009 02:45:41 3.3 C 5.7 g/m*3 3.3 C 0 km/h
3013 10-02-2009 02:57:41 3.4 C 5.8 g/m*3 3.4 C 0 km/h
3014 10-02-2009 03:09:41 3.6 C 5.88 g/m*3 3.6 C 0 km/h
3015 10-02-2009 03:21:41 3.8 C 5.96 g/m*3 3.8 C 0 km/h
3016 10-02-2009 03:33:41 3.9 C 6 g/m*3 3.9 C 0 km/h
3017 10-02-2009 03:45:41 4.1 C 6.08 g/m*3 4.1 C 0 km/h
3018 10-02-2009 03:57:41 4.3 C 6.16 g/m*3 4.3 C 0 km/h
3019 10-02-2009 04:09:41 4.5 C 6.24 g/m*3 4.5 C 0 km/h
3020 10-02-2009 04:21:42 4.8 C 6.37 g/m*3 4.8 C 0 km/h
3021 10-02-2009 04:33:42 5.1 C 6.5 g/m*3 5.1 C 0 km/h
3022 10-02-2009 04:45:42 5.1 C 6.5 g/m*3 5.1 C 0 km/h
3023 10-02-2009 04:57:42 5.2 C 6.54 g/m*3 5.2 C 0 km/h
3024 10-02-2009 05:09:42 5.3 C 6.58 g/m*3 5.3 C 0 km/h
3025 10-02-2009 05:21:42 5.7 C 6.76 g/m*3 5.7 C 0 km/h
Sensor: Nr:Datum:Temp:Abs-Feuchte:Windchill:Wind:
Aussen-T/F 3026 10-02-2009 05:33:40 5.7 C 6.76 g/m*3 5.7 C 0 km/h
3027 10-02-2009 05:45:40 5.9 C 6.85 g/m*3 5.9 C 0 km/h
3028 10-02-2009 05:57:40 6.2 C 6.99 g/m*3 6.2 C 0 km/h
3029 10-02-2009 06:09:41 6.4 C 7.08 g/m*3 6.4 C 0 km/h
3030 10-02-2009 06:21:40 6.4 C 7.08 g/m*3 6.4 C 0 km/h
3031 10-02-2009 06:33:40 6.4 C 7 g/m*3 6.4 C 0 km/h
3032 10-02-2009 06:45:39 6.4 C 7 g/m*3 6.4 C 0 km/h
3033 10-02-2009 06:57:39 6.5 C 7.05 g/m*3 6.5 C 0 km/h
3034 10-02-2009 07:09:40 6.5 C 6.97 g/m*3 6.5 C 0 km/h
3035 10-02-2009 07:21:40 6.4 C 6.93 g/m*3 6.4 C 0 km/h
3036 10-02-2009 07:33:39 6.3 C 6.88 g/m*3 6.3 C 0 km/h
3037 10-02-2009 07:45:39 6.5 C 6.9 g/m*3 6.5 C 0 km/h
3038 10-02-2009 07:57:39 6.5 C 6.9 g/m*3 6.5 C 0 km/h
3039 10-02-2009 08:09:39 6.5 C 6.75 g/m*3 6.5 C 0 km/h
3040 10-02-2009 08:21:39 6.4 C 6.71 g/m*3 6.4 C 0 km/h
3041 10-02-2009 08:33:38 6.4 C 6.71 g/m*3 6.4 C 0 km/h
3042 10-02-2009 08:45:39 6.4 C 6.71 g/m*3 6.4 C 0 km/h
3043 10-02-2009 08:57:39 6.6 C 6.72 g/m*3 6.6 C 0 km/h
3044 10-02-2009 09:09:39 6.6 C 6.64 g/m*3 6.6 C 0 km/h
3045 10-02-2009 09:21:38 6.6 C 6.49 g/m*3 6.6 C 0 km/h
3046 10-02-2009 09:33:38 6.6 C 6.49 g/m*3 6.6 C 0 km/h
3047 10-02-2009 09:45:38 6.8 C 6.58 g/m*3 6.8 C 0 km/h
3048 10-02-2009 09:57:38 6.8 C 6.58 g/m*3 6.8 C 0 km/h
3049 10-02-2009 10:09:38 6.9 C 6.62 g/m*3 6.9 C 0 km/h
3050 10-02-2009 10:21:37 7.1 C 6.55 g/m*3 7.1 C 0 km/h
Sensor: Nr:Datum:Temp:Abs-Feuchte:Windchill:Wind:
Aussen-T/F 3051 10-02-2009 10:33:38 7.5 C 6.4 g/m*3 7.5 C 0 km/h
3052 10-02-2009 10:45:37 7.6 C 5.96 g/m*3 7.6 C 0 km/h
3053 10-02-2009 10:57:37 7.2 C 5.34 g/m*3 7.2 C 0 km/h
3054 10-02-2009 11:09:37 6.7 C 5.24 g/m*3 6.7 C 0 km/h
3055 10-02-2009 11:21:38 6.1 C 4.89 g/m*3 6.1 C 0 km/h
3056 10-02-2009 11:33:37 5.7 C 4.91 g/m*3 5.7 C 0 km/h
3057 10-02-2009 11:45:37 6 C 4.57 g/m*3 6 C 0 km/h
3058 10-02-2009 11:57:37 6.1 C 4.6 g/m*3 6.1 C 0 km/h
3059 10-02-2009 12:09:37 6.4 C 4.55 g/m*3 6.4 C 0 km/h
3060 10-02-2009 12:21:37 6.3 C 4.37 g/m*3 6.3 C 0 km/h
3061 10-02-2009 12:33:36 5.8 C 4.3 g/m*3 5.8 C 0 km/h
3062 10-02-2009 12:45:37 5.2 C 4.2 g/m*3 5.2 C 0 km/h
3063 10-02-2009 12:57:37 5 C 4.21 g/m*3 5 C 0 km/h
3064 10-02-2009 13:09:36 4.7 C 4.26 g/m*3 4.7 C 0 km/h
3065 10-02-2009 13:21:36 4.4 C 4.44 g/m*3 4.4 C 0 km/h
3066 10-02-2009 13:33:36 4.4 C 4.37 g/m*3 4.4 C 0 km/h
3067 10-02-2009 13:45:36 4.4 C 4.37 g/m*3 4.4 C 0 km/h
3068 10-02-2009 13:57:36 4.3 C 4.28 g/m*3 4.3 C 0 km/h
3069 10-02-2009 14:09:36 4.4 C 4.31 g/m*3 4.4 C 0 km/h
3070 10-02-2009 14:21:35 4.4 C 4.31 g/m*3 4.4 C 0 km/h
3071 10-02-2009 14:33:36 4.4 C 4.24 g/m*3 4.4 C 0 km/h
3072 10-02-2009 14:45:35 4.4 C 4.18 g/m*3 4.4 C 0 km/h
3073 10-02-2009 14:57:35 4.3 C 4.15 g/m*3 4.3 C 0 km/h
3074 10-02-2009 15:09:35 4.3 C 4.15 g/m*3 4.3 C 0 km/h
3075 10-02-2009 15:21:35 4.2 C 4.12 g/m*3 4.2 C 0 km/h
Sensor: Nr:Datum:Temp:Abs-Feuchte:Windchill:Wind:
Aussen-T/F 3076 10-02-2009 15:33:35 4.1 C 3.9 g/m*3 4.1 C 0 km/h
3077 10-02-2009 15:45:34 3.7 C 3.86 g/m*3 3.7 C 0 km/h
3078 10-02-2009 15:57:34 3.7 C 3.93 g/m*3 3.7 C 0 km/h
3079 10-02-2009 16:09:34 3.3 C 4 g/m*3 3.3 C 0 km/h
3080 10-02-2009 16:21:35 2.7 C 4.25 g/m*3 2.7 C 0 km/h
3081 10-02-2009 16:33:34 2.1 C 4.42 g/m*3 2.1 C 0 km/h
3082 10-02-2009 16:45:34 1.9 C 4.58 g/m*3 1.9 C 0 km/h
3083 10-02-2009 16:57:34 1.9 C 4.64 g/m*3 1.9 C 0 km/h
3084 10-02-2009 17:09:34 1.9 C 4.64 g/m*3 1.9 C 0 km/h
3085 10-02-2009 17:21:34 2 C 4.61 g/m*3 2 C 0 km/h
3086 10-02-2009 17:33:33 2 C 4.56 g/m*3 2 C 0 km/h
3087 10-02-2009 17:45:34 2.1 C 4.64 g/m*3 2.1 C 0 km/h
3088 10-02-2009 17:57:34 2.1 C 4.7 g/m*3 2.1 C 0 km/h
3089 10-02-2009 18:09:33 2.2 C 4.68 g/m*3 2.2 C 0 km/h
3090 10-02-2009 18:21:33 2.3 C 4.65 g/m*3 2.3 C 0 km/h
3091 10-02-2009 18:33:33 2.5 C 4.54 g/m*3 2.5 C 0 km/h
3092 10-02-2009 18:45:33 2.5 C 4.54 g/m*3 2.5 C 0 km/h
3093 10-02-2009 18:57:33 2.6 C 4.51 g/m*3 2.6 C 0 km/h
3094 10-02-2009 19:09:33 2.5 C 4.48 g/m*3 2.5 C 0 km/h
3095 10-02-2009 19:21:32 2.6 C 4.46 g/m*3 2.6 C 0 km/h
3096 10-02-2009 19:33:33 2.6 C 4.46 g/m*3 2.6 C 0 km/h
3097 10-02-2009 19:45:32 2.5 C 4.43 g/m*3 2.5 C 0 km/h
3098 10-02-2009 19:57:32 2.4 C 4.51 g/m*3 2.4 C 0 km/h
3099 10-02-2009 20:09:32 2.6 C 4.46 g/m*3 2.6 C 0 km/h
3100 10-02-2009 20:21:32 2.9 C 4.31 g/m*3 2.9 C 0 km/h
Sensor: Nr:Datum:Temp:Abs-Feuchte:Windchill:Wind:
Aussen-T/F 3101 10-02-2009 20:33:32 2.9 C 4.13 g/m*3 2.9 C 0 km/h
3102 10-02-2009 20:45:32 3 C 3.98 g/m*3 3 C 0 km/h
3103 10-02-2009 20:57:32 3 C 3.92 g/m*3 3 C 0 km/h
3104 10-02-2009 21:09:31 3.1 C 3.95 g/m*3 3.1 C 0 km/h
3105 10-02-2009 21:22:32 3 C 3.92 g/m*3 3 C 0 km/h
3106 10-02-2009 21:34:32 3.1 C 3.89 g/m*3 3.1 C 0 km/h
3107 10-02-2009 21:46:32 2.7 C 4.02 g/m*3 2.7 C 0 km/h
3108 10-02-2009 21:58:32 2.1 C 4.25 g/m*3 2.1 C 0 km/h
3109 10-02-2009 22:10:32 2 C 4.45 g/m*3 2 C 0 km/h
3110 10-02-2009 22:22:32 2.1 C 4.42 g/m*3 2.1 C 0 km/h
3111 10-02-2009 22:34:32 2.1 C 4.36 g/m*3 2.1 C 0 km/h
3112 10-02-2009 22:46:32 2.3 C 4.31 g/m*3 2.3 C 0 km/h
3113 10-02-2009 22:58:32 2.4 C 4.23 g/m*3 2.4 C 0 km/h
3114 10-02-2009 23:10:32 2.5 C 4.08 g/m*3 2.5 C 0 km/h
3115 10-02-2009 23:22:32 2.6 C 4.11 g/m*3 2.6 C 0 km/h
3116 10-02-2009 23:34:32 2.8 C 4.05 g/m*3 2.8 C 0 km/h
3117 10-02-2009 23:46:32 2.8 C 3.99 g/m*3 2.8 C 0 km/h
3118 10-02-2009 23:58:32 2.8 C 3.93 g/m*3 2.8 C 0 km/h
3119 11-02-2009 00:10:32 2.9 C 3.9 g/m*3 2.9 C 0 km/h
3120 11-02-2009 00:22:32 2.8 C 3.81 g/m*3 2.8 C 0 km/h
3121 11-02-2009 00:34:32 2.8 C 3.81 g/m*3 2.8 C 0 km/h
3122 11-02-2009 00:46:32 2.8 C 3.81 g/m*3 2.8 C 0 km/h
3123 11-02-2009 00:58:32 2.7 C 3.73 g/m*3 2.7 C 0 km/h
3124 11-02-2009 01:10:33 2.7 C 3.67 g/m*3 2.7 C 0 km/h
3125 11-02-2009 01:22:33 2.6 C 3.7 g/m*3 2.6 C 0 km/h
Sensor: Nr:Datum:Temp:Abs-Feuchte:Windchill:Wind:
Aussen-T/F 3126 11-02-2009 01:34:33 2.5 C 3.62 g/m*3 2.5 C 0 km/h
3127 11-02-2009 01:46:33 2.4 C 3.54 g/m*3 2.4 C 0 km/h
3128 11-02-2009 01:58:33 2.5 C 3.62 g/m*3 2.5 C 0 km/h
3129 11-02-2009 02:10:33 2.5 C 3.68 g/m*3 2.5 C 0 km/h
3130 11-02-2009 02:22:33 2.5 C 3.79 g/m*3 2.5 C 0 km/h
3131 11-02-2009 02:34:33 2.6 C 3.82 g/m*3 2.6 C 0 km/h
3132 11-02-2009 02:46:33 2.5 C 3.74 g/m*3 2.5 C 0 km/h
3133 11-02-2009 02:58:33 2.3 C 3.69 g/m*3 2.3 C 0 km/h
3134 11-02-2009 03:10:33 2.3 C 3.74 g/m*3 2.3 C 0 km/h
3135 11-02-2009 03:22:33 2.2 C 3.72 g/m*3 2.2 C 0 km/h
3136 11-02-2009 03:34:33 2.3 C 3.86 g/m*3 2.3 C 0 km/h
3137 11-02-2009 03:46:33 2.4 C 3.83 g/m*3 2.4 C 0 km/h
3138 11-02-2009 03:58:33 2.5 C 3.85 g/m*3 2.5 C 0 km/h
3139 11-02-2009 04:10:33 2.4 C 3.88 g/m*3 2.4 C 0 km/h
3140 11-02-2009 04:22:33 2.3 C 3.91 g/m*3 2.3 C 0 km/h
3141 11-02-2009 04:34:33 2.2 C 4 g/m*3 2.2 C 0 km/h
3142 11-02-2009 04:46:33 2.2 C 4.06 g/m*3 2.2 C 0 km/h
3143 11-02-2009 04:58:34 2.2 C 4.06 g/m*3 2.2 C 0 km/h
3144 11-02-2009 05:10:34 2.2 C 4 g/m*3 2.2 C 0 km/h
3145 11-02-2009 05:22:34 2.2 C 3.94 g/m*3 2.2 C 0 km/h
3146 11-02-2009 05:34:34 2.1 C 3.92 g/m*3 2.1 C 0 km/h
3147 11-02-2009 05:46:34 2.2 C 3.89 g/m*3 2.2 C 0 km/h
3148 11-02-2009 05:58:34 2.1 C 3.86 g/m*3 2.1 C 0 km/h
3149 11-02-2009 06:10:34 2.1 C 3.86 g/m*3 2.1 C 0 km/h
3150 11-02-2009 06:22:34 2.2 C 3.77 g/m*3 2.2 C 0 km/h
Sensor: Nr:Datum:Temp:Abs-Feuchte:Windchill:Wind:
Aussen-T/F 3151 11-02-2009 06:34:34 2.2 C 3.72 g/m*3 2.2 C 0 km/h
3152 11-02-2009 06:46:34 2.1 C 3.75 g/m*3 2.1 C 0 km/h
3153 11-02-2009 06:58:34 2.1 C 3.75 g/m*3 2.1 C 0 km/h
3154 11-02-2009 07:10:32 2 C 3.72 g/m*3 2 C 0 km/h
3155 11-02-2009 07:22:32 2.1 C 3.69 g/m*3 2.1 C 0 km/h
3156 11-02-2009 07:34:32 2.1 C 3.64 g/m*3 2.1 C 0 km/h
3157 11-02-2009 07:46:32 2 C 3.61 g/m*3 2 C 0 km/h
3158 11-02-2009 07:58:32 2 C 3.61 g/m*3 2 C 0 km/h
3159 11-02-2009 08:10:31 2 C 3.56 g/m*3 2 C 0 km/h
3160 11-02-2009 08:22:32 2.1 C 3.64 g/m*3 2.1 C 0 km/h
3161 11-02-2009 08:34:31 2 C 3.56 g/m*3 2 C 0 km/h
3162 11-02-2009 08:46:31 1.7 C 3.59 g/m*3 1.7 C 0 km/h
3163 11-02-2009 08:58:31 1.7 C 3.59 g/m*3 1.7 C 0 km/h
3164 11-02-2009 09:10:31 1.9 C 3.7 g/m*3 1.9 C 0 km/h
3165 11-02-2009 09:22:31 1.8 C 3.62 g/m*3 1.8 C 0 km/h
3166 11-02-2009 09:34:31 1.8 C 3.62 g/m*3 1.8 C 0 km/h
3167 11-02-2009 09:46:31 1.7 C 3.65 g/m*3 1.7 C 0 km/h
3168 11-02-2009 09:58:31 2.4 C 3.71 g/m*3 2.4 C 0 km/h
3169 11-02-2009 10:10:31 2.9 C 3.66 g/m*3 2.9 C 0 km/h
3170 11-02-2009 10:22:30 3 C 3.51 g/m*3 3 C 0 km/h
3171 11-02-2009 10:34:30 3.2 C 3.43 g/m*3 3.2 C 0 km/h
3172 11-02-2009 10:46:30 3.2 C 3.37 g/m*3 3.2 C 0 km/h
3173 11-02-2009 10:58:30 3.7 C 3.43 g/m*3 3.7 C 0 km/h
3174 11-02-2009 11:10:30 3.8 C 3.32 g/m*3 3.8 C 0 km/h
3175 11-02-2009 11:22:29 3.8 C 3.26 g/m*3 3.8 C 0 km/h
Sensor: Nr:Datum:Temp:Abs-Feuchte:Windchill:Wind:
Aussen-T/F 3176 11-02-2009 11:34:30 4 C 3.05 g/m*3 4 C 0 km/h
3177 11-02-2009 11:46:29 4.5 C 3.02 g/m*3 4.5 C 0 km/h
3178 11-02-2009 11:58:29 4.6 C 2.85 g/m*3 4.6 C 0 km/h
3179 11-02-2009 12:10:29 4.6 C 2.85 g/m*3 4.6 C 0 km/h
3180 11-02-2009 12:22:29 4.5 C 2.76 g/m*3 4.5 C 0 km/h
3181 11-02-2009 12:34:29 3.6 C 3.16 g/m*3 3.6 C 0 km/h
3182 11-02-2009 12:46:29 3.7 C 3.49 g/m*3 3.7 C 0 km/h
3183 11-02-2009 12:58:29 3.4 C 3.42 g/m*3 3.4 C 0 km/h
3184 11-02-2009 13:10:28 3.3 C 3.64 g/m*3 3.3 C 0 km/h
3185 11-02-2009 13:22:29 3.6 C 3.96 g/m*3 3.6 C 0 km/h
3186 11-02-2009 13:34:28 3.7 C 3.93 g/m*3 3.7 C 0 km/h
3187 11-02-2009 13:46:28 3.7 C 3.68 g/m*3 3.7 C 0 km/h
3188 11-02-2009 13:58:28 4.4 C 3.66 g/m*3 4.4 C 0 km/h
3189 11-02-2009 14:10:28 5.2 C 3.03 g/m*3 5.2 C 0 km/h
3190 11-02-2009 14:22:28 6.5 C 2.7 g/m*3 6.5 C 0 km/h
3191 11-02-2009 14:34:28 6.2 C 2.57 g/m*3 6.2 C 0 km/h
3192 11-02-2009 14:46:28 5.9 C 2.31 g/m*3 5.9 C 0 km/h
3193 11-02-2009 14:58:28 5.6 C 2.12 g/m*3 5.6 C 0 km/h
3194 11-02-2009 15:10:28 5.6 C 2.26 g/m*3 5.6 C 0 km/h
3195 11-02-2009 15:22:27 5.3 C 2.15 g/m*3 5.3 C 0 km/h
3196 11-02-2009 15:34:27 5 C 2.45 g/m*3 5 C 0 km/h
3197 11-02-2009 15:46:27 4.7 C 2.73 g/m*3 4.7 C 0 km/h
3198 11-02-2009 15:58:27 4.6 C 2.71 g/m*3 4.6 C 0 km/h
3199 11-02-2009 16:10:27 4.6 C 2.71 g/m*3 4.6 C 0 km/h
3200 11-02-2009 16:22:26 4.3 C 2.72 g/m*3 4.3 C 0 km/h
Sensor: Nr:Datum:Temp:Abs-Feuchte:Windchill:Wind:
Aussen-T/F 3201 11-02-2009 16:34:27 4.2 C 2.77 g/m*3 4.2 C 0 km/h
3202 11-02-2009 16:46:26 4 C 2.86 g/m*3 4 C 0 km/h
3203 11-02-2009 16:58:26 3.8 C 3.01 g/m*3 3.8 C 0 km/h
3204 11-02-2009 17:10:26 3.7 C 3.12 g/m*3 3.7 C 0 km/h
3205 11-02-2009 17:22:27 3.6 C 3.1 g/m*3 3.6 C 0 km/h
3206 11-02-2009 17:34:26 3.5 C 3.2 g/m*3 3.5 C 0 km/h
3207 11-02-2009 17:46:26 3.4 C 3.18 g/m*3 3.4 C 0 km/h
3208 11-02-2009 17:58:26 3.4 C 3.24 g/m*3 3.4 C 0 km/h
3209 11-02-2009 18:10:26 3.4 C 3.36 g/m*3 3.4 C 0 km/h
3210 11-02-2009 18:22:26 3.2 C 3.37 g/m*3 3.2 C 0 km/h
3211 11-02-2009 18:34:25 3.1 C 3.47 g/m*3 3.1 C 0 km/h
3212 11-02-2009 18:46:26 3.1 C 3.47 g/m*3 3.1 C 0 km/h
3213 11-02-2009 18:58:26 3 C 3.45 g/m*3 3 C 0 km/h
3214 11-02-2009 19:10:25 2.9 C 3.54 g/m*3 2.9 C 0 km/h
3215 11-02-2009 19:22:25 2.9 C 3.54 g/m*3 2.9 C 0 km/h
3216 11-02-2009 19:34:25 3 C 3.45 g/m*3 3 C 0 km/h
3217 11-02-2009 19:46:25 3 C 3.45 g/m*3 3 C 0 km/h
3218 11-02-2009 19:58:25 3 C 3.45 g/m*3 3 C 0 km/h
3219 11-02-2009 20:10:25 2.9 C 3.48 g/m*3 2.9 C 0 km/h
3220 11-02-2009 20:22:24 2.9 C 3.54 g/m*3 2.9 C 0 km/h
3221 11-02-2009 20:34:25 2.8 C 3.52 g/m*3 2.8 C 0 km/h
3222 11-02-2009 20:46:24 2.8 C 3.58 g/m*3 2.8 C 0 km/h
3223 11-02-2009 20:58:24 2.6 C 3.65 g/m*3 2.6 C 0 km/h
3224 11-02-2009 21:10:24 2.4 C 3.88 g/m*3 2.4 C 0 km/h
3225 11-02-2009 21:23:26 2.2 C 3.94 g/m*3 2.2 C 0 km/h
Sensor: Nr:Datum:Temp:Abs-Feuchte:Windchill:Wind:
Aussen-T/F 3226 11-02-2009 21:35:26 2.1 C 3.97 g/m*3 2.1 C 0 km/h
3227 11-02-2009 21:47:26 1.8 C 4.11 g/m*3 1.8 C 0 km/h
3228 11-02-2009 21:59:26 1.6 C 4.27 g/m*3 1.6 C 0 km/h
3229 11-02-2009 22:11:26 1.5 C 4.35 g/m*3 1.5 C 0 km/h
3230 11-02-2009 22:23:26 1.1 C 4.39 g/m*3 1.1 C 0 km/h
3231 11-02-2009 22:35:26 1.1 C 4.49 g/m*3 1.1 C 0 km/h
3232 11-02-2009 22:47:26 1 C 4.52 g/m*3 1 C 0 km/h
3233 11-02-2009 22:59:26 1.1 C 4.6 g/m*3 1.1 C 0 km/h
3234 11-02-2009 23:11:26 1.3 C 4.72 g/m*3 1.3 C 0 km/h
3235 11-02-2009 23:23:26 1.3 C 4.72 g/m*3 1.3 C 0 km/h
3236 11-02-2009 23:35:26 1.3 C 4.66 g/m*3 1.3 C 0 km/h
3237 11-02-2009 23:47:26 1.4 C 4.69 g/m*3 1.4 C 0 km/h
3238 11-02-2009 23:59:26 1.4 C 4.59 g/m*3 1.4 C 0 km/h
3239 12-02-2009 00:11:26 1.3 C 4.56 g/m*3 1.3 C 0 km/h
3240 12-02-2009 00:23:26 1 C 4.46 g/m*3 1 C 0 km/h
3241 12-02-2009 00:35:27 1.1 C 4.49 g/m*3 1.1 C 0 km/h
3242 12-02-2009 00:47:27 1.2 C 4.47 g/m*3 1.2 C 0 km/h
3243 12-02-2009 00:59:27 1.1 C 4.39 g/m*3 1.1 C 0 km/h
3244 12-02-2009 01:11:27 1 C 4.36 g/m*3 1 C 0 km/h
3245 12-02-2009 01:23:27 1 C 4.41 g/m*3 1 C 0 km/h
3246 12-02-2009 01:35:27 1 C 4.36 g/m*3 1 C 0 km/h
3247 12-02-2009 01:47:27 1.1 C 4.29 g/m*3 1.1 C 0 km/h